<?xml version="1.0" encoding="UTF-8"?>
<gpx version="1.1" creator="GPS Track Editor" xmlns="http://www.topografix.com/GPX/1/1" xmlns:xsi="http://www.w3.org/2001/XMLSchema-instance" xmlns:gte="http://www.gpstrackeditor.com/xmlschemas/General/1" xmlns:gpxtpx="http://www.garmin.com/xmlschemas/TrackPointExtension/v1" xmlns:gpxx="http://www.garmin.com/xmlschemas/GpxExtensions/v3" targetNamespace="http://www.topografix.com/GPX/1/1" elementFormDefault="qualified" xsi:schemaLocation="http://www.topografix.com/GPX/1/1 http://www.topografix.com/GPX/1/1/gpx.xsd">
<metadata>
	<name>Columbine Trail Hike.PatThomas.2019-08-22.gpx</name>
</metadata>
<trk>
	<name>Columbine Trail Hike.PatThomas.2019-08-22 12:09:41</name>
	<trkseg>
		<trkpt lat="36.678032" lon="-105.515886">
			<ele>2388.00</ele>
			<time>2019-08-22T15:26:38Z</time>
			<extensions>
				<gte:gps speed="0.0"/>
			</extensions>
		</trkpt>
		<trkpt lat="36.678326" lon="-105.515803">
			<ele>2382.00</ele>
			<time>2019-08-22T15:28:19Z</time>
			<extensions>
				<gte:gps speed="0.0"/>
			</extensions>
		</trkpt>
		<trkpt lat="36.678360" lon="-105.515782">
			<ele>2389.00</ele>
			<time>2019-08-22T15:28:27Z</time>
			<extensions>
				<gte:gps speed="0.0"/>
			</extensions>
		</trkpt>
		<trkpt lat="36.678317" lon="-105.515800">
			<ele>2396.00</ele>
			<time>2019-08-22T15:29:41Z</time>
			<extensions>
				<gte:gps speed="3.2"/>
			</extensions>
		</trkpt>
		<trkpt lat="36.678280" lon="-105.515826">
			<ele>2396.00</ele>
			<time>2019-08-22T15:29:46Z</time>
			<extensions>
				<gte:gps speed="3.6"/>
			</extensions>
		</trkpt>
		<trkpt lat="36.678254" lon="-105.515872">
			<ele>2394.00</ele>
			<time>2019-08-22T15:29:51Z</time>
			<extensions>
				<gte:gps speed="3.2"/>
			</extensions>
		</trkpt>
		<trkpt lat="36.678217" lon="-105.515893">
			<ele>2394.00</ele>
			<time>2019-08-22T15:29:56Z</time>
			<extensions>
				<gte:gps speed="3.6"/>
			</extensions>
		</trkpt>
		<trkpt lat="36.678180" lon="-105.515896">
			<ele>2394.00</ele>
			<time>2019-08-22T15:30:02Z</time>
			<extensions>
				<gte:gps speed="3.6"/>
			</extensions>
		</trkpt>
		<trkpt lat="36.678134" lon="-105.515887">
			<ele>2397.00</ele>
			<time>2019-08-22T15:30:07Z</time>
			<extensions>
				<gte:gps speed="2.5"/>
			</extensions>
		</trkpt>
		<trkpt lat="36.678098" lon="-105.515871">
			<ele>2400.00</ele>
			<time>2019-08-22T15:30:12Z</time>
			<extensions>
				<gte:gps speed="3.6"/>
			</extensions>
		</trkpt>
		<trkpt lat="36.678058" lon="-105.515877">
			<ele>2400.00</ele>
			<time>2019-08-22T15:30:15Z</time>
			<extensions>
				<gte:gps speed="4.3"/>
			</extensions>
		</trkpt>
		<trkpt lat="36.678021" lon="-105.515897">
			<ele>2398.00</ele>
			<time>2019-08-22T15:30:20Z</time>
			<extensions>
				<gte:gps speed="3.2"/>
			</extensions>
		</trkpt>
		<trkpt lat="36.677977" lon="-105.515904">
			<ele>2398.00</ele>
			<time>2019-08-22T15:30:24Z</time>
			<extensions>
				<gte:gps speed="2.9"/>
			</extensions>
		</trkpt>
		<trkpt lat="36.677932" lon="-105.515911">
			<ele>2398.00</ele>
			<time>2019-08-22T15:30:29Z</time>
			<extensions>
				<gte:gps speed="3.6"/>
			</extensions>
		</trkpt>
		<trkpt lat="36.677890" lon="-105.515906">
			<ele>2400.00</ele>
			<time>2019-08-22T15:30:39Z</time>
			<extensions>
				<gte:gps speed="2.9"/>
			</extensions>
		</trkpt>
		<trkpt lat="36.677854" lon="-105.515925">
			<ele>2398.00</ele>
			<time>2019-08-22T15:30:56Z</time>
			<extensions>
				<gte:gps speed="0.0"/>
			</extensions>
		</trkpt>
		<trkpt lat="36.677815" lon="-105.515920">
			<ele>2398.00</ele>
			<time>2019-08-22T15:30:59Z</time>
			<extensions>
				<gte:gps speed="3.2"/>
			</extensions>
		</trkpt>
		<trkpt lat="36.677595" lon="-105.515868">
			<ele>2393.00</ele>
			<time>2019-08-22T15:31:15Z</time>
			<extensions>
				<gte:gps speed="4.0"/>
			</extensions>
		</trkpt>
		<trkpt lat="36.677568" lon="-105.515834">
			<ele>2392.00</ele>
			<time>2019-08-22T15:31:22Z</time>
			<extensions>
				<gte:gps speed="2.5"/>
			</extensions>
		</trkpt>
		<trkpt lat="36.677540" lon="-105.515803">
			<ele>2391.00</ele>
			<time>2019-08-22T15:31:28Z</time>
			<extensions>
				<gte:gps speed="2.5"/>
			</extensions>
		</trkpt>
		<trkpt lat="36.677517" lon="-105.515764">
			<ele>2392.00</ele>
			<time>2019-08-22T15:31:33Z</time>
			<extensions>
				<gte:gps speed="4.0"/>
			</extensions>
		</trkpt>
		<trkpt lat="36.677492" lon="-105.515724">
			<ele>2392.00</ele>
			<time>2019-08-22T15:31:38Z</time>
			<extensions>
				<gte:gps speed="3.6"/>
			</extensions>
		</trkpt>
		<trkpt lat="36.677455" lon="-105.515718">
			<ele>2390.00</ele>
			<time>2019-08-22T15:31:43Z</time>
			<extensions>
				<gte:gps speed="0.7"/>
			</extensions>
		</trkpt>
		<trkpt lat="36.677419" lon="-105.515703">
			<ele>2395.00</ele>
			<time>2019-08-22T15:32:16Z</time>
			<extensions>
				<gte:gps speed="2.2"/>
			</extensions>
		</trkpt>
		<trkpt lat="36.677382" lon="-105.515695">
			<ele>2394.00</ele>
			<time>2019-08-22T15:32:19Z</time>
			<extensions>
				<gte:gps speed="0.0"/>
			</extensions>
		</trkpt>
		<trkpt lat="36.677344" lon="-105.515702">
			<ele>2393.00</ele>
			<time>2019-08-22T15:32:24Z</time>
			<extensions>
				<gte:gps speed="2.9"/>
			</extensions>
		</trkpt>
		<trkpt lat="36.677252" lon="-105.515720">
			<ele>2392.00</ele>
			<time>2019-08-22T15:32:31Z</time>
			<extensions>
				<gte:gps speed="4.0"/>
			</extensions>
		</trkpt>
		<trkpt lat="36.677160" lon="-105.515746">
			<ele>2395.00</ele>
			<time>2019-08-22T15:32:40Z</time>
			<extensions>
				<gte:gps speed="2.5"/>
			</extensions>
		</trkpt>
		<trkpt lat="36.677119" lon="-105.515760">
			<ele>2395.00</ele>
			<time>2019-08-22T15:32:45Z</time>
			<extensions>
				<gte:gps speed="2.5"/>
			</extensions>
		</trkpt>
		<trkpt lat="36.677081" lon="-105.515775">
			<ele>2395.00</ele>
			<time>2019-08-22T15:32:50Z</time>
			<extensions>
				<gte:gps speed="2.9"/>
			</extensions>
		</trkpt>
		<trkpt lat="36.677046" lon="-105.515790">
			<ele>2397.00</ele>
			<time>2019-08-22T15:32:58Z</time>
			<extensions>
				<gte:gps speed="3.6"/>
			</extensions>
		</trkpt>
		<trkpt lat="36.677001" lon="-105.515776">
			<ele>2397.00</ele>
			<time>2019-08-22T15:33:03Z</time>
			<extensions>
				<gte:gps speed="3.6"/>
			</extensions>
		</trkpt>
		<trkpt lat="36.676955" lon="-105.515765">
			<ele>2397.00</ele>
			<time>2019-08-22T15:33:08Z</time>
			<extensions>
				<gte:gps speed="4.7"/>
			</extensions>
		</trkpt>
		<trkpt lat="36.676917" lon="-105.515745">
			<ele>2397.00</ele>
			<time>2019-08-22T15:33:14Z</time>
			<extensions>
				<gte:gps speed="3.2"/>
			</extensions>
		</trkpt>
		<trkpt lat="36.676879" lon="-105.515725">
			<ele>2398.00</ele>
			<time>2019-08-22T15:33:18Z</time>
			<extensions>
				<gte:gps speed="3.2"/>
			</extensions>
		</trkpt>
		<trkpt lat="36.676851" lon="-105.515691">
			<ele>2398.00</ele>
			<time>2019-08-22T15:33:22Z</time>
			<extensions>
				<gte:gps speed="3.6"/>
			</extensions>
		</trkpt>
		<trkpt lat="36.676807" lon="-105.515661">
			<ele>2398.00</ele>
			<time>2019-08-22T15:33:26Z</time>
			<extensions>
				<gte:gps speed="5.0"/>
			</extensions>
		</trkpt>
		<trkpt lat="36.676770" lon="-105.515639">
			<ele>2397.00</ele>
			<time>2019-08-22T15:33:30Z</time>
			<extensions>
				<gte:gps speed="4.0"/>
			</extensions>
		</trkpt>
		<trkpt lat="36.676753" lon="-105.515595">
			<ele>2399.00</ele>
			<time>2019-08-22T15:33:36Z</time>
			<extensions>
				<gte:gps speed="2.5"/>
			</extensions>
		</trkpt>
		<trkpt lat="36.676725" lon="-105.515564">
			<ele>2399.00</ele>
			<time>2019-08-22T15:33:41Z</time>
			<extensions>
				<gte:gps speed="2.9"/>
			</extensions>
		</trkpt>
		<trkpt lat="36.676686" lon="-105.515559">
			<ele>2398.00</ele>
			<time>2019-08-22T15:33:44Z</time>
			<extensions>
				<gte:gps speed="3.2"/>
			</extensions>
		</trkpt>
		<trkpt lat="36.676649" lon="-105.515551">
			<ele>2399.00</ele>
			<time>2019-08-22T15:33:49Z</time>
			<extensions>
				<gte:gps speed="4.0"/>
			</extensions>
		</trkpt>
		<trkpt lat="36.676602" lon="-105.515562">
			<ele>2399.00</ele>
			<time>2019-08-22T15:33:54Z</time>
			<extensions>
				<gte:gps speed="4.3"/>
			</extensions>
		</trkpt>
		<trkpt lat="36.676564" lon="-105.515564">
			<ele>2399.00</ele>
			<time>2019-08-22T15:33:57Z</time>
			<extensions>
				<gte:gps speed="3.6"/>
			</extensions>
		</trkpt>
		<trkpt lat="36.676525" lon="-105.515563">
			<ele>2400.00</ele>
			<time>2019-08-22T15:34:01Z</time>
			<extensions>
				<gte:gps speed="2.2"/>
			</extensions>
		</trkpt>
		<trkpt lat="36.676452" lon="-105.515566">
			<ele>2397.00</ele>
			<time>2019-08-22T15:34:08Z</time>
			<extensions>
				<gte:gps speed="3.2"/>
			</extensions>
		</trkpt>
		<trkpt lat="36.676416" lon="-105.515569">
			<ele>2396.00</ele>
			<time>2019-08-22T15:34:11Z</time>
			<extensions>
				<gte:gps speed="3.2"/>
			</extensions>
		</trkpt>
		<trkpt lat="36.676373" lon="-105.515556">
			<ele>2398.00</ele>
			<time>2019-08-22T15:34:16Z</time>
			<extensions>
				<gte:gps speed="2.2"/>
			</extensions>
		</trkpt>
		<trkpt lat="36.676322" lon="-105.515534">
			<ele>2400.00</ele>
			<time>2019-08-22T15:34:30Z</time>
			<extensions>
				<gte:gps speed="3.2"/>
			</extensions>
		</trkpt>
		<trkpt lat="36.676278" lon="-105.515494">
			<ele>2401.00</ele>
			<time>2019-08-22T15:34:52Z</time>
			<extensions>
				<gte:gps speed="0.0"/>
			</extensions>
		</trkpt>
		<trkpt lat="36.676234" lon="-105.515493">
			<ele>2413.00</ele>
			<time>2019-08-22T15:36:34Z</time>
			<extensions>
				<gte:gps speed="3.6"/>
			</extensions>
		</trkpt>
		<trkpt lat="36.676003" lon="-105.515542">
			<ele>2403.00</ele>
			<time>2019-08-22T15:36:50Z</time>
			<extensions>
				<gte:gps speed="2.5"/>
			</extensions>
		</trkpt>
		<trkpt lat="36.675960" lon="-105.515563">
			<ele>2403.00</ele>
			<time>2019-08-22T15:36:57Z</time>
			<extensions>
				<gte:gps speed="2.5"/>
			</extensions>
		</trkpt>
		<trkpt lat="36.675922" lon="-105.515574">
			<ele>2404.00</ele>
			<time>2019-08-22T15:37:04Z</time>
			<extensions>
				<gte:gps speed="2.9"/>
			</extensions>
		</trkpt>
		<trkpt lat="36.675822" lon="-105.515582">
			<ele>2406.00</ele>
			<time>2019-08-22T15:37:12Z</time>
			<extensions>
				<gte:gps speed="2.2"/>
			</extensions>
		</trkpt>
		<trkpt lat="36.675778" lon="-105.515599">
			<ele>2404.00</ele>
			<time>2019-08-22T15:37:16Z</time>
			<extensions>
				<gte:gps speed="3.2"/>
			</extensions>
		</trkpt>
		<trkpt lat="36.675750" lon="-105.515631">
			<ele>2402.00</ele>
			<time>2019-08-22T15:37:19Z</time>
			<extensions>
				<gte:gps speed="4.0"/>
			</extensions>
		</trkpt>
		<trkpt lat="36.675673" lon="-105.515651">
			<ele>2406.00</ele>
			<time>2019-08-22T15:37:24Z</time>
			<extensions>
				<gte:gps speed="2.5"/>
			</extensions>
		</trkpt>
		<trkpt lat="36.675655" lon="-105.515691">
			<ele>2406.00</ele>
			<time>2019-08-22T15:37:29Z</time>
			<extensions>
				<gte:gps speed="2.2"/>
			</extensions>
		</trkpt>
		<trkpt lat="36.675624" lon="-105.515721">
			<ele>2407.00</ele>
			<time>2019-08-22T15:37:34Z</time>
			<extensions>
				<gte:gps speed="2.9"/>
			</extensions>
		</trkpt>
		<trkpt lat="36.675579" lon="-105.515757">
			<ele>2405.00</ele>
			<time>2019-08-22T15:37:40Z</time>
			<extensions>
				<gte:gps speed="3.2"/>
			</extensions>
		</trkpt>
		<trkpt lat="36.675531" lon="-105.515788">
			<ele>2405.00</ele>
			<time>2019-08-22T15:37:44Z</time>
			<extensions>
				<gte:gps speed="5.0"/>
			</extensions>
		</trkpt>
		<trkpt lat="36.675487" lon="-105.515858">
			<ele>2403.00</ele>
			<time>2019-08-22T15:37:52Z</time>
			<extensions>
				<gte:gps speed="3.6"/>
			</extensions>
		</trkpt>
		<trkpt lat="36.675450" lon="-105.515863">
			<ele>2405.00</ele>
			<time>2019-08-22T15:38:07Z</time>
			<extensions>
				<gte:gps speed="0.0"/>
			</extensions>
		</trkpt>
		<trkpt lat="36.675415" lon="-105.515853">
			<ele>2405.00</ele>
			<time>2019-08-22T15:38:16Z</time>
			<extensions>
				<gte:gps speed="0.0"/>
			</extensions>
		</trkpt>
		<trkpt lat="36.675378" lon="-105.515850">
			<ele>2413.00</ele>
			<time>2019-08-22T15:39:38Z</time>
			<extensions>
				<gte:gps speed="4.0"/>
			</extensions>
		</trkpt>
		<trkpt lat="36.675336" lon="-105.515853">
			<ele>2412.00</ele>
			<time>2019-08-22T15:39:46Z</time>
			<extensions>
				<gte:gps speed="0.0"/>
			</extensions>
		</trkpt>
		<trkpt lat="36.675300" lon="-105.515865">
			<ele>2413.00</ele>
			<time>2019-08-22T15:39:51Z</time>
			<extensions>
				<gte:gps speed="4.7"/>
			</extensions>
		</trkpt>
		<trkpt lat="36.675293" lon="-105.515910">
			<ele>2411.00</ele>
			<time>2019-08-22T15:39:54Z</time>
			<extensions>
				<gte:gps speed="4.3"/>
			</extensions>
		</trkpt>
		<trkpt lat="36.675149" lon="-105.516016">
			<ele>2408.00</ele>
			<time>2019-08-22T15:40:05Z</time>
			<extensions>
				<gte:gps speed="3.6"/>
			</extensions>
		</trkpt>
		<trkpt lat="36.675090" lon="-105.516040">
			<ele>2408.00</ele>
			<time>2019-08-22T15:40:11Z</time>
			<extensions>
				<gte:gps speed="0.0"/>
			</extensions>
		</trkpt>
		<trkpt lat="36.675065" lon="-105.516079">
			<ele>2400.00</ele>
			<time>2019-08-22T15:40:33Z</time>
			<extensions>
				<gte:gps speed="2.2"/>
			</extensions>
		</trkpt>
		<trkpt lat="36.675039" lon="-105.516113">
			<ele>2399.00</ele>
			<time>2019-08-22T15:40:42Z</time>
			<extensions>
				<gte:gps speed="0.0"/>
			</extensions>
		</trkpt>
		<trkpt lat="36.675007" lon="-105.516156">
			<ele>2398.00</ele>
			<time>2019-08-22T15:40:52Z</time>
			<extensions>
				<gte:gps speed="3.2"/>
			</extensions>
		</trkpt>
		<trkpt lat="36.674873" lon="-105.516166">
			<ele>2403.00</ele>
			<time>2019-08-22T15:41:01Z</time>
			<extensions>
				<gte:gps speed="3.6"/>
			</extensions>
		</trkpt>
		<trkpt lat="36.674827" lon="-105.516163">
			<ele>2403.00</ele>
			<time>2019-08-22T15:41:04Z</time>
			<extensions>
				<gte:gps speed="5.4"/>
			</extensions>
		</trkpt>
		<trkpt lat="36.674789" lon="-105.516170">
			<ele>2404.00</ele>
			<time>2019-08-22T15:41:10Z</time>
			<extensions>
				<gte:gps speed="0.0"/>
			</extensions>
		</trkpt>
		<trkpt lat="36.674750" lon="-105.516156">
			<ele>2406.00</ele>
			<time>2019-08-22T15:41:17Z</time>
			<extensions>
				<gte:gps speed="0.0"/>
			</extensions>
		</trkpt>
		<trkpt lat="36.674703" lon="-105.516156">
			<ele>2407.00</ele>
			<time>2019-08-22T15:41:27Z</time>
			<extensions>
				<gte:gps speed="2.5"/>
			</extensions>
		</trkpt>
		<trkpt lat="36.674665" lon="-105.516157">
			<ele>2412.00</ele>
			<time>2019-08-22T15:41:45Z</time>
			<extensions>
				<gte:gps speed="2.9"/>
			</extensions>
		</trkpt>
		<trkpt lat="36.674614" lon="-105.516149">
			<ele>2413.00</ele>
			<time>2019-08-22T15:41:49Z</time>
			<extensions>
				<gte:gps speed="3.6"/>
			</extensions>
		</trkpt>
		<trkpt lat="36.674577" lon="-105.516140">
			<ele>2414.00</ele>
			<time>2019-08-22T15:41:54Z</time>
			<extensions>
				<gte:gps speed="3.6"/>
			</extensions>
		</trkpt>
		<trkpt lat="36.674540" lon="-105.516153">
			<ele>2414.00</ele>
			<time>2019-08-22T15:41:58Z</time>
			<extensions>
				<gte:gps speed="4.3"/>
			</extensions>
		</trkpt>
		<trkpt lat="36.674491" lon="-105.516150">
			<ele>2415.00</ele>
			<time>2019-08-22T15:42:02Z</time>
			<extensions>
				<gte:gps speed="0.0"/>
			</extensions>
		</trkpt>
		<trkpt lat="36.674446" lon="-105.516155">
			<ele>2415.00</ele>
			<time>2019-08-22T15:42:05Z</time>
			<extensions>
				<gte:gps speed="4.7"/>
			</extensions>
		</trkpt>
		<trkpt lat="36.674400" lon="-105.516145">
			<ele>2414.00</ele>
			<time>2019-08-22T15:42:08Z</time>
			<extensions>
				<gte:gps speed="4.3"/>
			</extensions>
		</trkpt>
		<trkpt lat="36.674275" lon="-105.516183">
			<ele>2410.00</ele>
			<time>2019-08-22T15:42:18Z</time>
			<extensions>
				<gte:gps speed="2.9"/>
			</extensions>
		</trkpt>
		<trkpt lat="36.674230" lon="-105.516193">
			<ele>2412.00</ele>
			<time>2019-08-22T15:42:21Z</time>
			<extensions>
				<gte:gps speed="4.7"/>
			</extensions>
		</trkpt>
		<trkpt lat="36.674189" lon="-105.516196">
			<ele>2412.00</ele>
			<time>2019-08-22T15:42:24Z</time>
			<extensions>
				<gte:gps speed="4.7"/>
			</extensions>
		</trkpt>
		<trkpt lat="36.674142" lon="-105.516193">
			<ele>2414.00</ele>
			<time>2019-08-22T15:42:28Z</time>
			<extensions>
				<gte:gps speed="4.3"/>
			</extensions>
		</trkpt>
		<trkpt lat="36.674092" lon="-105.516195">
			<ele>2418.00</ele>
			<time>2019-08-22T15:42:33Z</time>
			<extensions>
				<gte:gps speed="4.3"/>
			</extensions>
		</trkpt>
		<trkpt lat="36.674046" lon="-105.516226">
			<ele>2417.00</ele>
			<time>2019-08-22T15:42:43Z</time>
			<extensions>
				<gte:gps speed="0.0"/>
			</extensions>
		</trkpt>
		<trkpt lat="36.674007" lon="-105.516223">
			<ele>2419.00</ele>
			<time>2019-08-22T15:42:50Z</time>
			<extensions>
				<gte:gps speed="2.5"/>
			</extensions>
		</trkpt>
		<trkpt lat="36.673956" lon="-105.516224">
			<ele>2420.00</ele>
			<time>2019-08-22T15:42:54Z</time>
			<extensions>
				<gte:gps speed="4.0"/>
			</extensions>
		</trkpt>
		<trkpt lat="36.673909" lon="-105.516225">
			<ele>2421.00</ele>
			<time>2019-08-22T15:42:59Z</time>
			<extensions>
				<gte:gps speed="0.0"/>
			</extensions>
		</trkpt>
		<trkpt lat="36.673862" lon="-105.516230">
			<ele>2422.00</ele>
			<time>2019-08-22T15:43:04Z</time>
			<extensions>
				<gte:gps speed="4.3"/>
			</extensions>
		</trkpt>
		<trkpt lat="36.673824" lon="-105.516238">
			<ele>2423.00</ele>
			<time>2019-08-22T15:43:08Z</time>
			<extensions>
				<gte:gps speed="0.0"/>
			</extensions>
		</trkpt>
		<trkpt lat="36.673780" lon="-105.516240">
			<ele>2425.00</ele>
			<time>2019-08-22T15:43:15Z</time>
			<extensions>
				<gte:gps speed="2.5"/>
			</extensions>
		</trkpt>
		<trkpt lat="36.673738" lon="-105.516235">
			<ele>2425.00</ele>
			<time>2019-08-22T15:43:21Z</time>
			<extensions>
				<gte:gps speed="2.2"/>
			</extensions>
		</trkpt>
		<trkpt lat="36.673705" lon="-105.516262">
			<ele>2425.00</ele>
			<time>2019-08-22T15:43:27Z</time>
			<extensions>
				<gte:gps speed="0.0"/>
			</extensions>
		</trkpt>
		<trkpt lat="36.673665" lon="-105.516253">
			<ele>2426.00</ele>
			<time>2019-08-22T15:43:37Z</time>
			<extensions>
				<gte:gps speed="2.9"/>
			</extensions>
		</trkpt>
		<trkpt lat="36.673628" lon="-105.516246">
			<ele>2427.00</ele>
			<time>2019-08-22T15:43:40Z</time>
			<extensions>
				<gte:gps speed="1.8"/>
			</extensions>
		</trkpt>
		<trkpt lat="36.673586" lon="-105.516254">
			<ele>2427.00</ele>
			<time>2019-08-22T15:43:45Z</time>
			<extensions>
				<gte:gps speed="2.2"/>
			</extensions>
		</trkpt>
		<trkpt lat="36.673522" lon="-105.516247">
			<ele>2428.00</ele>
			<time>2019-08-22T15:43:55Z</time>
			<extensions>
				<gte:gps speed="2.9"/>
			</extensions>
		</trkpt>
		<trkpt lat="36.673406" lon="-105.516224">
			<ele>2423.00</ele>
			<time>2019-08-22T15:44:05Z</time>
			<extensions>
				<gte:gps speed="4.0"/>
			</extensions>
		</trkpt>
		<trkpt lat="36.673366" lon="-105.516208">
			<ele>2422.00</ele>
			<time>2019-08-22T15:44:12Z</time>
			<extensions>
				<gte:gps speed="2.2"/>
			</extensions>
		</trkpt>
		<trkpt lat="36.673341" lon="-105.516173">
			<ele>2424.00</ele>
			<time>2019-08-22T15:44:19Z</time>
			<extensions>
				<gte:gps speed="0.0"/>
			</extensions>
		</trkpt>
		<trkpt lat="36.673307" lon="-105.516144">
			<ele>2423.00</ele>
			<time>2019-08-22T15:44:26Z</time>
			<extensions>
				<gte:gps speed="3.2"/>
			</extensions>
		</trkpt>
		<trkpt lat="36.673280" lon="-105.516100">
			<ele>2429.00</ele>
			<time>2019-08-22T15:44:32Z</time>
			<extensions>
				<gte:gps speed="4.3"/>
			</extensions>
		</trkpt>
		<trkpt lat="36.673239" lon="-105.516075">
			<ele>2430.00</ele>
			<time>2019-08-22T15:44:36Z</time>
			<extensions>
				<gte:gps speed="4.7"/>
			</extensions>
		</trkpt>
		<trkpt lat="36.673152" lon="-105.516042">
			<ele>2429.00</ele>
			<time>2019-08-22T15:44:43Z</time>
			<extensions>
				<gte:gps speed="3.2"/>
			</extensions>
		</trkpt>
		<trkpt lat="36.673117" lon="-105.516017">
			<ele>2429.00</ele>
			<time>2019-08-22T15:44:50Z</time>
			<extensions>
				<gte:gps speed="1.8"/>
			</extensions>
		</trkpt>
		<trkpt lat="36.673051" lon="-105.516016">
			<ele>2426.00</ele>
			<time>2019-08-22T15:46:14Z</time>
			<extensions>
				<gte:gps speed="4.0"/>
			</extensions>
		</trkpt>
		<trkpt lat="36.673010" lon="-105.516006">
			<ele>2427.00</ele>
			<time>2019-08-22T15:46:18Z</time>
			<extensions>
				<gte:gps speed="4.0"/>
			</extensions>
		</trkpt>
		<trkpt lat="36.672906" lon="-105.516046">
			<ele>2425.00</ele>
			<time>2019-08-22T15:46:40Z</time>
			<extensions>
				<gte:gps speed="2.9"/>
			</extensions>
		</trkpt>
		<trkpt lat="36.672874" lon="-105.516072">
			<ele>2428.00</ele>
			<time>2019-08-22T15:46:47Z</time>
			<extensions>
				<gte:gps speed="1.4"/>
			</extensions>
		</trkpt>
		<trkpt lat="36.672835" lon="-105.516074">
			<ele>2432.00</ele>
			<time>2019-08-22T15:46:52Z</time>
			<extensions>
				<gte:gps speed="2.9"/>
			</extensions>
		</trkpt>
		<trkpt lat="36.672800" lon="-105.516092">
			<ele>2434.00</ele>
			<time>2019-08-22T15:46:56Z</time>
			<extensions>
				<gte:gps speed="2.2"/>
			</extensions>
		</trkpt>
		<trkpt lat="36.672766" lon="-105.516113">
			<ele>2438.00</ele>
			<time>2019-08-22T15:47:04Z</time>
			<extensions>
				<gte:gps speed="2.9"/>
			</extensions>
		</trkpt>
		<trkpt lat="36.672726" lon="-105.516117">
			<ele>2439.00</ele>
			<time>2019-08-22T15:47:10Z</time>
			<extensions>
				<gte:gps speed="2.5"/>
			</extensions>
		</trkpt>
		<trkpt lat="36.672688" lon="-105.516134">
			<ele>2442.00</ele>
			<time>2019-08-22T15:47:18Z</time>
			<extensions>
				<gte:gps speed="2.9"/>
			</extensions>
		</trkpt>
		<trkpt lat="36.672618" lon="-105.516139">
			<ele>2437.00</ele>
			<time>2019-08-22T15:47:24Z</time>
			<extensions>
				<gte:gps speed="4.0"/>
			</extensions>
		</trkpt>
		<trkpt lat="36.672578" lon="-105.516162">
			<ele>2437.00</ele>
			<time>2019-08-22T15:47:29Z</time>
			<extensions>
				<gte:gps speed="4.0"/>
			</extensions>
		</trkpt>
		<trkpt lat="36.672542" lon="-105.516165">
			<ele>2439.00</ele>
			<time>2019-08-22T15:47:33Z</time>
			<extensions>
				<gte:gps speed="2.5"/>
			</extensions>
		</trkpt>
		<trkpt lat="36.672497" lon="-105.516166">
			<ele>2439.00</ele>
			<time>2019-08-22T15:47:37Z</time>
			<extensions>
				<gte:gps speed="2.9"/>
			</extensions>
		</trkpt>
		<trkpt lat="36.672465" lon="-105.516188">
			<ele>2437.00</ele>
			<time>2019-08-22T15:47:41Z</time>
			<extensions>
				<gte:gps speed="2.2"/>
			</extensions>
		</trkpt>
		<trkpt lat="36.672420" lon="-105.516208">
			<ele>2434.00</ele>
			<time>2019-08-22T15:47:45Z</time>
			<extensions>
				<gte:gps speed="4.0"/>
			</extensions>
		</trkpt>
		<trkpt lat="36.672340" lon="-105.516236">
			<ele>2433.00</ele>
			<time>2019-08-22T15:47:53Z</time>
			<extensions>
				<gte:gps speed="3.6"/>
			</extensions>
		</trkpt>
		<trkpt lat="36.672302" lon="-105.516238">
			<ele>2436.00</ele>
			<time>2019-08-22T15:47:57Z</time>
			<extensions>
				<gte:gps speed="2.5"/>
			</extensions>
		</trkpt>
		<trkpt lat="36.672166" lon="-105.516263">
			<ele>2438.00</ele>
			<time>2019-08-22T15:48:08Z</time>
			<extensions>
				<gte:gps speed="2.9"/>
			</extensions>
		</trkpt>
		<trkpt lat="36.672131" lon="-105.516278">
			<ele>2439.00</ele>
			<time>2019-08-22T15:48:13Z</time>
			<extensions>
				<gte:gps speed="2.9"/>
			</extensions>
		</trkpt>
		<trkpt lat="36.672096" lon="-105.516296">
			<ele>2438.00</ele>
			<time>2019-08-22T15:48:16Z</time>
			<extensions>
				<gte:gps speed="2.5"/>
			</extensions>
		</trkpt>
		<trkpt lat="36.672028" lon="-105.516288">
			<ele>2440.00</ele>
			<time>2019-08-22T15:48:26Z</time>
			<extensions>
				<gte:gps speed="4.0"/>
			</extensions>
		</trkpt>
		<trkpt lat="36.672000" lon="-105.516258">
			<ele>2446.00</ele>
			<time>2019-08-22T15:48:36Z</time>
			<extensions>
				<gte:gps speed="2.9"/>
			</extensions>
		</trkpt>
		<trkpt lat="36.671963" lon="-105.516241">
			<ele>2447.00</ele>
			<time>2019-08-22T15:48:44Z</time>
			<extensions>
				<gte:gps speed="4.0"/>
			</extensions>
		</trkpt>
		<trkpt lat="36.671891" lon="-105.516191">
			<ele>2444.00</ele>
			<time>2019-08-22T15:48:53Z</time>
			<extensions>
				<gte:gps speed="3.2"/>
			</extensions>
		</trkpt>
		<trkpt lat="36.671851" lon="-105.516165">
			<ele>2445.00</ele>
			<time>2019-08-22T15:48:59Z</time>
			<extensions>
				<gte:gps speed="2.9"/>
			</extensions>
		</trkpt>
		<trkpt lat="36.671815" lon="-105.516154">
			<ele>2446.00</ele>
			<time>2019-08-22T15:49:04Z</time>
			<extensions>
				<gte:gps speed="2.9"/>
			</extensions>
		</trkpt>
		<trkpt lat="36.671777" lon="-105.516142">
			<ele>2446.00</ele>
			<time>2019-08-22T15:49:09Z</time>
			<extensions>
				<gte:gps speed="2.2"/>
			</extensions>
		</trkpt>
		<trkpt lat="36.671735" lon="-105.516123">
			<ele>2449.00</ele>
			<time>2019-08-22T15:49:16Z</time>
			<extensions>
				<gte:gps speed="2.9"/>
			</extensions>
		</trkpt>
		<trkpt lat="36.671661" lon="-105.516095">
			<ele>2443.00</ele>
			<time>2019-08-22T15:49:21Z</time>
			<extensions>
				<gte:gps speed="3.2"/>
			</extensions>
		</trkpt>
		<trkpt lat="36.671625" lon="-105.516102">
			<ele>2441.00</ele>
			<time>2019-08-22T15:49:27Z</time>
			<extensions>
				<gte:gps speed="3.2"/>
			</extensions>
		</trkpt>
		<trkpt lat="36.671541" lon="-105.516078">
			<ele>2442.00</ele>
			<time>2019-08-22T15:49:36Z</time>
			<extensions>
				<gte:gps speed="3.6"/>
			</extensions>
		</trkpt>
		<trkpt lat="36.671502" lon="-105.516076">
			<ele>2444.00</ele>
			<time>2019-08-22T15:49:44Z</time>
			<extensions>
				<gte:gps speed="0.0"/>
			</extensions>
		</trkpt>
		<trkpt lat="36.671464" lon="-105.516081">
			<ele>2443.00</ele>
			<time>2019-08-22T15:49:51Z</time>
			<extensions>
				<gte:gps speed="3.6"/>
			</extensions>
		</trkpt>
		<trkpt lat="36.671344" lon="-105.516080">
			<ele>2441.00</ele>
			<time>2019-08-22T15:50:04Z</time>
			<extensions>
				<gte:gps speed="0.0"/>
			</extensions>
		</trkpt>
		<trkpt lat="36.671302" lon="-105.516077">
			<ele>2440.00</ele>
			<time>2019-08-22T15:50:07Z</time>
			<extensions>
				<gte:gps speed="3.2"/>
			</extensions>
		</trkpt>
		<trkpt lat="36.671258" lon="-105.516062">
			<ele>2441.00</ele>
			<time>2019-08-22T15:50:13Z</time>
			<extensions>
				<gte:gps speed="1.8"/>
			</extensions>
		</trkpt>
		<trkpt lat="36.671239" lon="-105.516015">
			<ele>2435.00</ele>
			<time>2019-08-22T15:50:24Z</time>
			<extensions>
				<gte:gps speed="2.5"/>
			</extensions>
		</trkpt>
		<trkpt lat="36.671201" lon="-105.515986">
			<ele>2440.00</ele>
			<time>2019-08-22T15:50:31Z</time>
			<extensions>
				<gte:gps speed="2.5"/>
			</extensions>
		</trkpt>
		<trkpt lat="36.671159" lon="-105.515976">
			<ele>2442.00</ele>
			<time>2019-08-22T15:50:46Z</time>
			<extensions>
				<gte:gps speed="2.2"/>
			</extensions>
		</trkpt>
		<trkpt lat="36.671023" lon="-105.515926">
			<ele>2440.00</ele>
			<time>2019-08-22T15:50:58Z</time>
			<extensions>
				<gte:gps speed="0.0"/>
			</extensions>
		</trkpt>
		<trkpt lat="36.670996" lon="-105.515887">
			<ele>2440.00</ele>
			<time>2019-08-22T15:51:04Z</time>
			<extensions>
				<gte:gps speed="2.9"/>
			</extensions>
		</trkpt>
		<trkpt lat="36.670964" lon="-105.515865">
			<ele>2438.00</ele>
			<time>2019-08-22T15:51:11Z</time>
			<extensions>
				<gte:gps speed="2.5"/>
			</extensions>
		</trkpt>
		<trkpt lat="36.670935" lon="-105.515825">
			<ele>2435.00</ele>
			<time>2019-08-22T15:51:18Z</time>
			<extensions>
				<gte:gps speed="3.2"/>
			</extensions>
		</trkpt>
		<trkpt lat="36.670935" lon="-105.515777">
			<ele>2438.00</ele>
			<time>2019-08-22T15:51:25Z</time>
			<extensions>
				<gte:gps speed="0.0"/>
			</extensions>
		</trkpt>
		<trkpt lat="36.670904" lon="-105.515750">
			<ele>2439.00</ele>
			<time>2019-08-22T15:52:03Z</time>
			<extensions>
				<gte:gps speed="0.0"/>
			</extensions>
		</trkpt>
		<trkpt lat="36.670886" lon="-105.515712">
			<ele>2440.00</ele>
			<time>2019-08-22T15:52:14Z</time>
			<extensions>
				<gte:gps speed="0.0"/>
			</extensions>
		</trkpt>
		<trkpt lat="36.670901" lon="-105.515675">
			<ele>2438.00</ele>
			<time>2019-08-22T15:53:38Z</time>
			<extensions>
				<gte:gps speed="4.0"/>
			</extensions>
		</trkpt>
		<trkpt lat="36.670915" lon="-105.515630">
			<ele>2439.00</ele>
			<time>2019-08-22T15:53:44Z</time>
			<extensions>
				<gte:gps speed="3.2"/>
			</extensions>
		</trkpt>
		<trkpt lat="36.670899" lon="-105.515559">
			<ele>2436.00</ele>
			<time>2019-08-22T15:55:06Z</time>
			<extensions>
				<gte:gps speed="0.0"/>
			</extensions>
		</trkpt>
		<trkpt lat="36.670862" lon="-105.515536">
			<ele>2433.00</ele>
			<time>2019-08-22T15:55:12Z</time>
			<extensions>
				<gte:gps speed="0.0"/>
			</extensions>
		</trkpt>
		<trkpt lat="36.670820" lon="-105.515522">
			<ele>2433.00</ele>
			<time>2019-08-22T15:55:19Z</time>
			<extensions>
				<gte:gps speed="3.2"/>
			</extensions>
		</trkpt>
		<trkpt lat="36.670790" lon="-105.515495">
			<ele>2437.00</ele>
			<time>2019-08-22T15:55:28Z</time>
			<extensions>
				<gte:gps speed="2.9"/>
			</extensions>
		</trkpt>
		<trkpt lat="36.670762" lon="-105.515465">
			<ele>2437.00</ele>
			<time>2019-08-22T15:55:39Z</time>
			<extensions>
				<gte:gps speed="0.0"/>
			</extensions>
		</trkpt>
		<trkpt lat="36.670725" lon="-105.515451">
			<ele>2435.00</ele>
			<time>2019-08-22T15:56:46Z</time>
			<extensions>
				<gte:gps speed="0.0"/>
			</extensions>
		</trkpt>
		<trkpt lat="36.670678" lon="-105.515448">
			<ele>2441.00</ele>
			<time>2019-08-22T15:57:24Z</time>
			<extensions>
				<gte:gps speed="0.0"/>
			</extensions>
		</trkpt>
		<trkpt lat="36.670606" lon="-105.515434">
			<ele>2446.00</ele>
			<time>2019-08-22T15:57:31Z</time>
			<extensions>
				<gte:gps speed="2.5"/>
			</extensions>
		</trkpt>
		<trkpt lat="36.670567" lon="-105.515434">
			<ele>2449.00</ele>
			<time>2019-08-22T15:57:37Z</time>
			<extensions>
				<gte:gps speed="0.0"/>
			</extensions>
		</trkpt>
		<trkpt lat="36.670526" lon="-105.515443">
			<ele>2447.00</ele>
			<time>2019-08-22T15:57:42Z</time>
			<extensions>
				<gte:gps speed="2.9"/>
			</extensions>
		</trkpt>
		<trkpt lat="36.670484" lon="-105.515434">
			<ele>2451.00</ele>
			<time>2019-08-22T15:57:45Z</time>
			<extensions>
				<gte:gps speed="2.2"/>
			</extensions>
		</trkpt>
		<trkpt lat="36.670365" lon="-105.515448">
			<ele>2452.00</ele>
			<time>2019-08-22T15:57:53Z</time>
			<extensions>
				<gte:gps speed="0.0"/>
			</extensions>
		</trkpt>
		<trkpt lat="36.670328" lon="-105.515477">
			<ele>2454.00</ele>
			<time>2019-08-22T15:58:01Z</time>
			<extensions>
				<gte:gps speed="3.6"/>
			</extensions>
		</trkpt>
		<trkpt lat="36.670285" lon="-105.515494">
			<ele>2454.00</ele>
			<time>2019-08-22T15:58:05Z</time>
			<extensions>
				<gte:gps speed="2.9"/>
			</extensions>
		</trkpt>
		<trkpt lat="36.670239" lon="-105.515507">
			<ele>2453.00</ele>
			<time>2019-08-22T15:58:09Z</time>
			<extensions>
				<gte:gps speed="3.2"/>
			</extensions>
		</trkpt>
		<trkpt lat="36.670190" lon="-105.515511">
			<ele>2452.00</ele>
			<time>2019-08-22T15:58:13Z</time>
			<extensions>
				<gte:gps speed="2.9"/>
			</extensions>
		</trkpt>
		<trkpt lat="36.670172" lon="-105.515554">
			<ele>2450.00</ele>
			<time>2019-08-22T15:58:19Z</time>
			<extensions>
				<gte:gps speed="2.5"/>
			</extensions>
		</trkpt>
		<trkpt lat="36.670147" lon="-105.515591">
			<ele>2448.00</ele>
			<time>2019-08-22T15:58:25Z</time>
			<extensions>
				<gte:gps speed="2.9"/>
			</extensions>
		</trkpt>
		<trkpt lat="36.670110" lon="-105.515630">
			<ele>2447.00</ele>
			<time>2019-08-22T15:58:30Z</time>
			<extensions>
				<gte:gps speed="3.6"/>
			</extensions>
		</trkpt>
		<trkpt lat="36.670073" lon="-105.515637">
			<ele>2447.00</ele>
			<time>2019-08-22T15:58:33Z</time>
			<extensions>
				<gte:gps speed="3.2"/>
			</extensions>
		</trkpt>
		<trkpt lat="36.670036" lon="-105.515651">
			<ele>2443.00</ele>
			<time>2019-08-22T15:58:36Z</time>
			<extensions>
				<gte:gps speed="2.5"/>
			</extensions>
		</trkpt>
		<trkpt lat="36.670017" lon="-105.515699">
			<ele>2440.00</ele>
			<time>2019-08-22T15:58:44Z</time>
			<extensions>
				<gte:gps speed="2.2"/>
			</extensions>
		</trkpt>
		<trkpt lat="36.669976" lon="-105.515714">
			<ele>2439.00</ele>
			<time>2019-08-22T15:58:57Z</time>
			<extensions>
				<gte:gps speed="2.2"/>
			</extensions>
		</trkpt>
		<trkpt lat="36.669930" lon="-105.515703">
			<ele>2439.00</ele>
			<time>2019-08-22T15:59:05Z</time>
			<extensions>
				<gte:gps speed="0.0"/>
			</extensions>
		</trkpt>
		<trkpt lat="36.669839" lon="-105.515664">
			<ele>2443.00</ele>
			<time>2019-08-22T15:59:26Z</time>
			<extensions>
				<gte:gps speed="4.0"/>
			</extensions>
		</trkpt>
		<trkpt lat="36.669806" lon="-105.515626">
			<ele>2446.00</ele>
			<time>2019-08-22T15:59:56Z</time>
			<extensions>
				<gte:gps speed="0.0"/>
			</extensions>
		</trkpt>
		<trkpt lat="36.669794" lon="-105.515575">
			<ele>2448.00</ele>
			<time>2019-08-22T16:00:04Z</time>
			<extensions>
				<gte:gps speed="2.9"/>
			</extensions>
		</trkpt>
		<trkpt lat="36.669597" lon="-105.515452">
			<ele>2441.00</ele>
			<time>2019-08-22T16:00:21Z</time>
			<extensions>
				<gte:gps speed="0.0"/>
			</extensions>
		</trkpt>
		<trkpt lat="36.669572" lon="-105.515434">
			<ele>2439.00</ele>
			<time>2019-08-22T16:02:33Z</time>
			<extensions>
				<gte:gps speed="2.2"/>
			</extensions>
		</trkpt>
		<trkpt lat="36.669505" lon="-105.515339">
			<ele>2435.00</ele>
			<time>2019-08-22T16:03:21Z</time>
			<extensions>
				<gte:gps speed="1.8"/>
			</extensions>
		</trkpt>
		<trkpt lat="36.669433" lon="-105.515372">
			<ele>2434.00</ele>
			<time>2019-08-22T16:03:26Z</time>
			<extensions>
				<gte:gps speed="1.1"/>
			</extensions>
		</trkpt>
		<trkpt lat="36.669401" lon="-105.515395">
			<ele>2437.00</ele>
			<time>2019-08-22T16:03:29Z</time>
			<extensions>
				<gte:gps speed="1.8"/>
			</extensions>
		</trkpt>
		<trkpt lat="36.669369" lon="-105.515368">
			<ele>2439.00</ele>
			<time>2019-08-22T16:06:22Z</time>
			<extensions>
				<gte:gps speed="5.0"/>
			</extensions>
		</trkpt>
		<trkpt lat="36.669335" lon="-105.515345">
			<ele>2435.00</ele>
			<time>2019-08-22T16:06:25Z</time>
			<extensions>
				<gte:gps speed="2.9"/>
			</extensions>
		</trkpt>
		<trkpt lat="36.669319" lon="-105.515358">
			<ele>2444.00</ele>
			<time>2019-08-22T16:06:45Z</time>
			<extensions>
				<gte:gps speed="0.0"/>
			</extensions>
		</trkpt>
		<trkpt lat="36.669259" lon="-105.515362">
			<ele>2446.00</ele>
			<time>2019-08-22T16:06:51Z</time>
			<extensions>
				<gte:gps speed="3.2"/>
			</extensions>
		</trkpt>
		<trkpt lat="36.669218" lon="-105.515358">
			<ele>2448.00</ele>
			<time>2019-08-22T16:06:55Z</time>
			<extensions>
				<gte:gps speed="1.8"/>
			</extensions>
		</trkpt>
		<trkpt lat="36.669166" lon="-105.515350">
			<ele>2445.00</ele>
			<time>2019-08-22T16:06:59Z</time>
			<extensions>
				<gte:gps speed="3.6"/>
			</extensions>
		</trkpt>
		<trkpt lat="36.669104" lon="-105.515342">
			<ele>2448.00</ele>
			<time>2019-08-22T16:07:03Z</time>
			<extensions>
				<gte:gps speed="2.9"/>
			</extensions>
		</trkpt>
		<trkpt lat="36.669066" lon="-105.515346">
			<ele>2447.00</ele>
			<time>2019-08-22T16:07:06Z</time>
			<extensions>
				<gte:gps speed="2.2"/>
			</extensions>
		</trkpt>
		<trkpt lat="36.669025" lon="-105.515352">
			<ele>2449.00</ele>
			<time>2019-08-22T16:07:15Z</time>
			<extensions>
				<gte:gps speed="0.0"/>
			</extensions>
		</trkpt>
		<trkpt lat="36.669025" lon="-105.515347">
			<ele>2454.00</ele>
			<time>2019-08-22T16:08:29Z</time>
			<extensions>
				<gte:gps speed="3.2"/>
			</extensions>
		</trkpt>
		<trkpt lat="36.668994" lon="-105.515315">
			<ele>2453.00</ele>
			<time>2019-08-22T16:08:46Z</time>
			<extensions>
				<gte:gps speed="1.4"/>
			</extensions>
		</trkpt>
		<trkpt lat="36.668953" lon="-105.515303">
			<ele>2450.00</ele>
			<time>2019-08-22T16:08:49Z</time>
			<extensions>
				<gte:gps speed="2.9"/>
			</extensions>
		</trkpt>
		<trkpt lat="36.668911" lon="-105.515287">
			<ele>2448.00</ele>
			<time>2019-08-22T16:08:52Z</time>
			<extensions>
				<gte:gps speed="2.2"/>
			</extensions>
		</trkpt>
		<trkpt lat="36.668885" lon="-105.515285">
			<ele>2455.00</ele>
			<time>2019-08-22T16:09:12Z</time>
			<extensions>
				<gte:gps speed="0.0"/>
			</extensions>
		</trkpt>
		<trkpt lat="36.668856" lon="-105.515255">
			<ele>2462.00</ele>
			<time>2019-08-22T16:09:40Z</time>
			<extensions>
				<gte:gps speed="1.8"/>
			</extensions>
		</trkpt>
		<trkpt lat="36.668656" lon="-105.515215">
			<ele>2460.00</ele>
			<time>2019-08-22T16:09:58Z</time>
			<extensions>
				<gte:gps speed="2.2"/>
			</extensions>
		</trkpt>
		<trkpt lat="36.668616" lon="-105.515197">
			<ele>2459.00</ele>
			<time>2019-08-22T16:10:01Z</time>
			<extensions>
				<gte:gps speed="2.2"/>
			</extensions>
		</trkpt>
		<trkpt lat="36.668577" lon="-105.515194">
			<ele>2461.00</ele>
			<time>2019-08-22T16:10:08Z</time>
			<extensions>
				<gte:gps speed="2.5"/>
			</extensions>
		</trkpt>
		<trkpt lat="36.668538" lon="-105.515180">
			<ele>2464.00</ele>
			<time>2019-08-22T16:10:16Z</time>
			<extensions>
				<gte:gps speed="0.0"/>
			</extensions>
		</trkpt>
		<trkpt lat="36.668504" lon="-105.515166">
			<ele>2463.00</ele>
			<time>2019-08-22T16:10:19Z</time>
			<extensions>
				<gte:gps speed="2.2"/>
			</extensions>
		</trkpt>
		<trkpt lat="36.668468" lon="-105.515159">
			<ele>2462.00</ele>
			<time>2019-08-22T16:10:33Z</time>
			<extensions>
				<gte:gps speed="0.0"/>
			</extensions>
		</trkpt>
		<trkpt lat="36.668424" lon="-105.515156">
			<ele>2461.00</ele>
			<time>2019-08-22T16:10:59Z</time>
			<extensions>
				<gte:gps speed="0.0"/>
			</extensions>
		</trkpt>
		<trkpt lat="36.668337" lon="-105.515233">
			<ele>2460.00</ele>
			<time>2019-08-22T16:11:11Z</time>
			<extensions>
				<gte:gps speed="2.2"/>
			</extensions>
		</trkpt>
		<trkpt lat="36.668300" lon="-105.515259">
			<ele>2461.00</ele>
			<time>2019-08-22T16:11:14Z</time>
			<extensions>
				<gte:gps speed="2.9"/>
			</extensions>
		</trkpt>
		<trkpt lat="36.668137" lon="-105.515327">
			<ele>2458.00</ele>
			<time>2019-08-22T16:11:25Z</time>
			<extensions>
				<gte:gps speed="1.4"/>
			</extensions>
		</trkpt>
		<trkpt lat="36.668096" lon="-105.515315">
			<ele>2456.00</ele>
			<time>2019-08-22T16:11:29Z</time>
			<extensions>
				<gte:gps speed="0.0"/>
			</extensions>
		</trkpt>
		<trkpt lat="36.668057" lon="-105.515312">
			<ele>2455.00</ele>
			<time>2019-08-22T16:11:35Z</time>
			<extensions>
				<gte:gps speed="0.0"/>
			</extensions>
		</trkpt>
		<trkpt lat="36.667958" lon="-105.515377">
			<ele>2465.00</ele>
			<time>2019-08-22T16:12:03Z</time>
			<extensions>
				<gte:gps speed="3.2"/>
			</extensions>
		</trkpt>
		<trkpt lat="36.667867" lon="-105.515438">
			<ele>2473.00</ele>
			<time>2019-08-22T16:12:26Z</time>
			<extensions>
				<gte:gps speed="3.2"/>
			</extensions>
		</trkpt>
		<trkpt lat="36.667798" lon="-105.515447">
			<ele>2480.00</ele>
			<time>2019-08-22T16:12:31Z</time>
			<extensions>
				<gte:gps speed="5.0"/>
			</extensions>
		</trkpt>
		<trkpt lat="36.667757" lon="-105.515460">
			<ele>2479.00</ele>
			<time>2019-08-22T16:12:34Z</time>
			<extensions>
				<gte:gps speed="3.2"/>
			</extensions>
		</trkpt>
		<trkpt lat="36.667727" lon="-105.515525">
			<ele>2473.00</ele>
			<time>2019-08-22T16:12:38Z</time>
			<extensions>
				<gte:gps speed="3.6"/>
			</extensions>
		</trkpt>
		<trkpt lat="36.667706" lon="-105.515604">
			<ele>2470.00</ele>
			<time>2019-08-22T16:12:47Z</time>
			<extensions>
				<gte:gps speed="1.4"/>
			</extensions>
		</trkpt>
		<trkpt lat="36.667656" lon="-105.515761">
			<ele>2461.00</ele>
			<time>2019-08-22T16:14:31Z</time>
			<extensions>
				<gte:gps speed="2.2"/>
			</extensions>
		</trkpt>
		<trkpt lat="36.667570" lon="-105.515890">
			<ele>2464.00</ele>
			<time>2019-08-22T16:15:09Z</time>
			<extensions>
				<gte:gps speed="2.9"/>
			</extensions>
		</trkpt>
		<trkpt lat="36.667528" lon="-105.515875">
			<ele>2465.00</ele>
			<time>2019-08-22T16:15:13Z</time>
			<extensions>
				<gte:gps speed="2.5"/>
			</extensions>
		</trkpt>
		<trkpt lat="36.667483" lon="-105.515860">
			<ele>2465.00</ele>
			<time>2019-08-22T16:15:20Z</time>
			<extensions>
				<gte:gps speed="2.9"/>
			</extensions>
		</trkpt>
		<trkpt lat="36.667421" lon="-105.515867">
			<ele>2469.00</ele>
			<time>2019-08-22T16:15:27Z</time>
			<extensions>
				<gte:gps speed="0.0"/>
			</extensions>
		</trkpt>
		<trkpt lat="36.667377" lon="-105.515829">
			<ele>2472.00</ele>
			<time>2019-08-22T16:15:36Z</time>
			<extensions>
				<gte:gps speed="2.5"/>
			</extensions>
		</trkpt>
		<trkpt lat="36.667341" lon="-105.515817">
			<ele>2470.00</ele>
			<time>2019-08-22T16:15:41Z</time>
			<extensions>
				<gte:gps speed="0.0"/>
			</extensions>
		</trkpt>
		<trkpt lat="36.667304" lon="-105.515843">
			<ele>2469.00</ele>
			<time>2019-08-22T16:16:04Z</time>
			<extensions>
				<gte:gps speed="1.8"/>
			</extensions>
		</trkpt>
		<trkpt lat="36.667281" lon="-105.515902">
			<ele>2465.00</ele>
			<time>2019-08-22T16:17:11Z</time>
			<extensions>
				<gte:gps speed="0.0"/>
			</extensions>
		</trkpt>
		<trkpt lat="36.667226" lon="-105.515911">
			<ele>2457.00</ele>
			<time>2019-08-22T16:18:11Z</time>
			<extensions>
				<gte:gps speed="1.1"/>
			</extensions>
		</trkpt>
		<trkpt lat="36.667201" lon="-105.515950">
			<ele>2456.00</ele>
			<time>2019-08-22T16:18:16Z</time>
			<extensions>
				<gte:gps speed="2.2"/>
			</extensions>
		</trkpt>
		<trkpt lat="36.667158" lon="-105.515962">
			<ele>2453.00</ele>
			<time>2019-08-22T16:18:21Z</time>
			<extensions>
				<gte:gps speed="3.2"/>
			</extensions>
		</trkpt>
		<trkpt lat="36.667114" lon="-105.515950">
			<ele>2457.00</ele>
			<time>2019-08-22T16:18:25Z</time>
			<extensions>
				<gte:gps speed="2.2"/>
			</extensions>
		</trkpt>
		<trkpt lat="36.667086" lon="-105.515982">
			<ele>2456.00</ele>
			<time>2019-08-22T16:18:29Z</time>
			<extensions>
				<gte:gps speed="2.2"/>
			</extensions>
		</trkpt>
		<trkpt lat="36.667019" lon="-105.516085">
			<ele>2450.00</ele>
			<time>2019-08-22T16:18:45Z</time>
			<extensions>
				<gte:gps speed="0.0"/>
			</extensions>
		</trkpt>
		<trkpt lat="36.667003" lon="-105.516129">
			<ele>2450.00</ele>
			<time>2019-08-22T16:18:54Z</time>
			<extensions>
				<gte:gps speed="1.1"/>
			</extensions>
		</trkpt>
		<trkpt lat="36.666974" lon="-105.516159">
			<ele>2452.00</ele>
			<time>2019-08-22T16:19:00Z</time>
			<extensions>
				<gte:gps speed="1.8"/>
			</extensions>
		</trkpt>
		<trkpt lat="36.666952" lon="-105.516202">
			<ele>2460.00</ele>
			<time>2019-08-22T16:19:09Z</time>
			<extensions>
				<gte:gps speed="0.0"/>
			</extensions>
		</trkpt>
		<trkpt lat="36.666917" lon="-105.516218">
			<ele>2466.00</ele>
			<time>2019-08-22T16:19:16Z</time>
			<extensions>
				<gte:gps speed="1.4"/>
			</extensions>
		</trkpt>
		<trkpt lat="36.666884" lon="-105.516248">
			<ele>2476.00</ele>
			<time>2019-08-22T16:19:44Z</time>
			<extensions>
				<gte:gps speed="2.2"/>
			</extensions>
		</trkpt>
		<trkpt lat="36.666822" lon="-105.516316">
			<ele>2473.00</ele>
			<time>2019-08-22T16:19:56Z</time>
			<extensions>
				<gte:gps speed="3.6"/>
			</extensions>
		</trkpt>
		<trkpt lat="36.666783" lon="-105.516305">
			<ele>2477.00</ele>
			<time>2019-08-22T16:19:59Z</time>
			<extensions>
				<gte:gps speed="4.0"/>
			</extensions>
		</trkpt>
		<trkpt lat="36.666745" lon="-105.516303">
			<ele>2476.00</ele>
			<time>2019-08-22T16:20:02Z</time>
			<extensions>
				<gte:gps speed="4.0"/>
			</extensions>
		</trkpt>
		<trkpt lat="36.666722" lon="-105.516341">
			<ele>2473.00</ele>
			<time>2019-08-22T16:20:07Z</time>
			<extensions>
				<gte:gps speed="3.2"/>
			</extensions>
		</trkpt>
		<trkpt lat="36.666681" lon="-105.516342">
			<ele>2474.00</ele>
			<time>2019-08-22T16:20:10Z</time>
			<extensions>
				<gte:gps speed="3.6"/>
			</extensions>
		</trkpt>
		<trkpt lat="36.666643" lon="-105.516350">
			<ele>2472.00</ele>
			<time>2019-08-22T16:20:15Z</time>
			<extensions>
				<gte:gps speed="3.2"/>
			</extensions>
		</trkpt>
		<trkpt lat="36.666601" lon="-105.516355">
			<ele>2467.00</ele>
			<time>2019-08-22T16:20:20Z</time>
			<extensions>
				<gte:gps speed="4.0"/>
			</extensions>
		</trkpt>
		<trkpt lat="36.666557" lon="-105.516331">
			<ele>2472.00</ele>
			<time>2019-08-22T16:20:24Z</time>
			<extensions>
				<gte:gps speed="3.2"/>
			</extensions>
		</trkpt>
		<trkpt lat="36.666524" lon="-105.516309">
			<ele>2470.00</ele>
			<time>2019-08-22T16:20:35Z</time>
			<extensions>
				<gte:gps speed="2.2"/>
			</extensions>
		</trkpt>
		<trkpt lat="36.666438" lon="-105.516292">
			<ele>2471.00</ele>
			<time>2019-08-22T16:20:47Z</time>
			<extensions>
				<gte:gps speed="5.4"/>
			</extensions>
		</trkpt>
		<trkpt lat="36.666363" lon="-105.516248">
			<ele>2472.00</ele>
			<time>2019-08-22T16:20:53Z</time>
			<extensions>
				<gte:gps speed="2.5"/>
			</extensions>
		</trkpt>
		<trkpt lat="36.666319" lon="-105.516231">
			<ele>2471.00</ele>
			<time>2019-08-22T16:20:57Z</time>
			<extensions>
				<gte:gps speed="2.5"/>
			</extensions>
		</trkpt>
		<trkpt lat="36.666277" lon="-105.516233">
			<ele>2471.00</ele>
			<time>2019-08-22T16:21:01Z</time>
			<extensions>
				<gte:gps speed="2.9"/>
			</extensions>
		</trkpt>
		<trkpt lat="36.666246" lon="-105.516197">
			<ele>2475.00</ele>
			<time>2019-08-22T16:21:07Z</time>
			<extensions>
				<gte:gps speed="0.0"/>
			</extensions>
		</trkpt>
		<trkpt lat="36.666201" lon="-105.516167">
			<ele>2476.00</ele>
			<time>2019-08-22T16:21:13Z</time>
			<extensions>
				<gte:gps speed="0.0"/>
			</extensions>
		</trkpt>
		<trkpt lat="36.666160" lon="-105.516141">
			<ele>2478.00</ele>
			<time>2019-08-22T16:21:16Z</time>
			<extensions>
				<gte:gps speed="3.2"/>
			</extensions>
		</trkpt>
		<trkpt lat="36.666118" lon="-105.516191">
			<ele>2464.00</ele>
			<time>2019-08-22T16:21:36Z</time>
			<extensions>
				<gte:gps speed="2.2"/>
			</extensions>
		</trkpt>
		<trkpt lat="36.666070" lon="-105.516194">
			<ele>2468.00</ele>
			<time>2019-08-22T16:24:09Z</time>
			<extensions>
				<gte:gps speed="0.0"/>
			</extensions>
		</trkpt>
		<trkpt lat="36.666035" lon="-105.516210">
			<ele>2466.00</ele>
			<time>2019-08-22T16:24:23Z</time>
			<extensions>
				<gte:gps speed="1.8"/>
			</extensions>
		</trkpt>
		<trkpt lat="36.665997" lon="-105.516185">
			<ele>2465.00</ele>
			<time>2019-08-22T16:24:29Z</time>
			<extensions>
				<gte:gps speed="2.2"/>
			</extensions>
		</trkpt>
		<trkpt lat="36.665959" lon="-105.516190">
			<ele>2469.00</ele>
			<time>2019-08-22T16:24:41Z</time>
			<extensions>
				<gte:gps speed="0.0"/>
			</extensions>
		</trkpt>
		<trkpt lat="36.665924" lon="-105.516178">
			<ele>2468.00</ele>
			<time>2019-08-22T16:24:46Z</time>
			<extensions>
				<gte:gps speed="2.5"/>
			</extensions>
		</trkpt>
		<trkpt lat="36.665882" lon="-105.516177">
			<ele>2470.00</ele>
			<time>2019-08-22T16:24:51Z</time>
			<extensions>
				<gte:gps speed="1.8"/>
			</extensions>
		</trkpt>
		<trkpt lat="36.665847" lon="-105.516191">
			<ele>2471.00</ele>
			<time>2019-08-22T16:24:54Z</time>
			<extensions>
				<gte:gps speed="1.8"/>
			</extensions>
		</trkpt>
		<trkpt lat="36.665813" lon="-105.516210">
			<ele>2470.00</ele>
			<time>2019-08-22T16:24:58Z</time>
			<extensions>
				<gte:gps speed="2.5"/>
			</extensions>
		</trkpt>
		<trkpt lat="36.665774" lon="-105.516224">
			<ele>2469.00</ele>
			<time>2019-08-22T16:25:02Z</time>
			<extensions>
				<gte:gps speed="2.9"/>
			</extensions>
		</trkpt>
		<trkpt lat="36.665737" lon="-105.516226">
			<ele>2469.00</ele>
			<time>2019-08-22T16:25:05Z</time>
			<extensions>
				<gte:gps speed="3.2"/>
			</extensions>
		</trkpt>
		<trkpt lat="36.665700" lon="-105.516234">
			<ele>2472.00</ele>
			<time>2019-08-22T16:25:09Z</time>
			<extensions>
				<gte:gps speed="2.2"/>
			</extensions>
		</trkpt>
		<trkpt lat="36.665655" lon="-105.516229">
			<ele>2470.00</ele>
			<time>2019-08-22T16:25:12Z</time>
			<extensions>
				<gte:gps speed="3.6"/>
			</extensions>
		</trkpt>
		<trkpt lat="36.665581" lon="-105.516240">
			<ele>2468.00</ele>
			<time>2019-08-22T16:25:22Z</time>
			<extensions>
				<gte:gps speed="1.4"/>
			</extensions>
		</trkpt>
		<trkpt lat="36.665550" lon="-105.516291">
			<ele>2466.00</ele>
			<time>2019-08-22T16:25:26Z</time>
			<extensions>
				<gte:gps speed="2.5"/>
			</extensions>
		</trkpt>
		<trkpt lat="36.665525" lon="-105.516297">
			<ele>2470.00</ele>
			<time>2019-08-22T16:26:00Z</time>
			<extensions>
				<gte:gps speed="1.4"/>
			</extensions>
		</trkpt>
		<trkpt lat="36.665487" lon="-105.516309">
			<ele>2468.00</ele>
			<time>2019-08-22T16:26:04Z</time>
			<extensions>
				<gte:gps speed="2.9"/>
			</extensions>
		</trkpt>
		<trkpt lat="36.665461" lon="-105.516359">
			<ele>2463.00</ele>
			<time>2019-08-22T16:26:08Z</time>
			<extensions>
				<gte:gps speed="2.9"/>
			</extensions>
		</trkpt>
		<trkpt lat="36.665422" lon="-105.516360">
			<ele>2469.00</ele>
			<time>2019-08-22T16:26:13Z</time>
			<extensions>
				<gte:gps speed="1.8"/>
			</extensions>
		</trkpt>
		<trkpt lat="36.665356" lon="-105.516308">
			<ele>2478.00</ele>
			<time>2019-08-22T16:26:19Z</time>
			<extensions>
				<gte:gps speed="3.2"/>
			</extensions>
		</trkpt>
		<trkpt lat="36.665327" lon="-105.516278">
			<ele>2480.00</ele>
			<time>2019-08-22T16:26:22Z</time>
			<extensions>
				<gte:gps speed="2.5"/>
			</extensions>
		</trkpt>
		<trkpt lat="36.665287" lon="-105.516259">
			<ele>2482.00</ele>
			<time>2019-08-22T16:26:25Z</time>
			<extensions>
				<gte:gps speed="2.9"/>
			</extensions>
		</trkpt>
		<trkpt lat="36.665242" lon="-105.516247">
			<ele>2481.00</ele>
			<time>2019-08-22T16:26:29Z</time>
			<extensions>
				<gte:gps speed="3.2"/>
			</extensions>
		</trkpt>
		<trkpt lat="36.665194" lon="-105.516243">
			<ele>2482.00</ele>
			<time>2019-08-22T16:26:33Z</time>
			<extensions>
				<gte:gps speed="3.6"/>
			</extensions>
		</trkpt>
		<trkpt lat="36.665136" lon="-105.516250">
			<ele>2486.00</ele>
			<time>2019-08-22T16:26:38Z</time>
			<extensions>
				<gte:gps speed="2.9"/>
			</extensions>
		</trkpt>
		<trkpt lat="36.665092" lon="-105.516259">
			<ele>2487.00</ele>
			<time>2019-08-22T16:26:42Z</time>
			<extensions>
				<gte:gps speed="3.2"/>
			</extensions>
		</trkpt>
		<trkpt lat="36.665028" lon="-105.516257">
			<ele>2486.00</ele>
			<time>2019-08-22T16:26:53Z</time>
			<extensions>
				<gte:gps speed="5.0"/>
			</extensions>
		</trkpt>
		<trkpt lat="36.664961" lon="-105.516243">
			<ele>2487.00</ele>
			<time>2019-08-22T16:26:59Z</time>
			<extensions>
				<gte:gps speed="2.9"/>
			</extensions>
		</trkpt>
		<trkpt lat="36.664923" lon="-105.516254">
			<ele>2485.00</ele>
			<time>2019-08-22T16:27:04Z</time>
			<extensions>
				<gte:gps speed="1.8"/>
			</extensions>
		</trkpt>
		<trkpt lat="36.664885" lon="-105.516264">
			<ele>2482.00</ele>
			<time>2019-08-22T16:27:09Z</time>
			<extensions>
				<gte:gps speed="2.2"/>
			</extensions>
		</trkpt>
		<trkpt lat="36.664835" lon="-105.516258">
			<ele>2486.00</ele>
			<time>2019-08-22T16:27:14Z</time>
			<extensions>
				<gte:gps speed="3.6"/>
			</extensions>
		</trkpt>
		<trkpt lat="36.664797" lon="-105.516233">
			<ele>2489.00</ele>
			<time>2019-08-22T16:27:17Z</time>
			<extensions>
				<gte:gps speed="4.0"/>
			</extensions>
		</trkpt>
		<trkpt lat="36.664741" lon="-105.516259">
			<ele>2491.00</ele>
			<time>2019-08-22T16:27:29Z</time>
			<extensions>
				<gte:gps speed="0.0"/>
			</extensions>
		</trkpt>
		<trkpt lat="36.664690" lon="-105.516279">
			<ele>2488.00</ele>
			<time>2019-08-22T16:28:16Z</time>
			<extensions>
				<gte:gps speed="2.5"/>
			</extensions>
		</trkpt>
		<trkpt lat="36.664654" lon="-105.516265">
			<ele>2488.00</ele>
			<time>2019-08-22T16:28:20Z</time>
			<extensions>
				<gte:gps speed="3.2"/>
			</extensions>
		</trkpt>
		<trkpt lat="36.664618" lon="-105.516252">
			<ele>2490.00</ele>
			<time>2019-08-22T16:28:25Z</time>
			<extensions>
				<gte:gps speed="2.5"/>
			</extensions>
		</trkpt>
		<trkpt lat="36.664578" lon="-105.516218">
			<ele>2494.00</ele>
			<time>2019-08-22T16:28:29Z</time>
			<extensions>
				<gte:gps speed="3.2"/>
			</extensions>
		</trkpt>
		<trkpt lat="36.664550" lon="-105.516188">
			<ele>2497.00</ele>
			<time>2019-08-22T16:28:42Z</time>
			<extensions>
				<gte:gps speed="1.1"/>
			</extensions>
		</trkpt>
		<trkpt lat="36.664506" lon="-105.516189">
			<ele>2492.00</ele>
			<time>2019-08-22T16:28:47Z</time>
			<extensions>
				<gte:gps speed="3.2"/>
			</extensions>
		</trkpt>
		<trkpt lat="36.664460" lon="-105.516175">
			<ele>2493.00</ele>
			<time>2019-08-22T16:28:51Z</time>
			<extensions>
				<gte:gps speed="2.9"/>
			</extensions>
		</trkpt>
		<trkpt lat="36.664422" lon="-105.516154">
			<ele>2494.00</ele>
			<time>2019-08-22T16:28:55Z</time>
			<extensions>
				<gte:gps speed="1.4"/>
			</extensions>
		</trkpt>
		<trkpt lat="36.664391" lon="-105.516129">
			<ele>2498.00</ele>
			<time>2019-08-22T16:29:18Z</time>
			<extensions>
				<gte:gps speed="0.0"/>
			</extensions>
		</trkpt>
		<trkpt lat="36.664350" lon="-105.516121">
			<ele>2496.00</ele>
			<time>2019-08-22T16:29:47Z</time>
			<extensions>
				<gte:gps speed="2.5"/>
			</extensions>
		</trkpt>
		<trkpt lat="36.664316" lon="-105.516161">
			<ele>2490.00</ele>
			<time>2019-08-22T16:29:55Z</time>
			<extensions>
				<gte:gps speed="2.9"/>
			</extensions>
		</trkpt>
		<trkpt lat="36.664289" lon="-105.516228">
			<ele>2485.00</ele>
			<time>2019-08-22T16:30:00Z</time>
			<extensions>
				<gte:gps speed="2.2"/>
			</extensions>
		</trkpt>
		<trkpt lat="36.664241" lon="-105.516247">
			<ele>2485.00</ele>
			<time>2019-08-22T16:30:08Z</time>
			<extensions>
				<gte:gps speed="1.1"/>
			</extensions>
		</trkpt>
		<trkpt lat="36.664204" lon="-105.516251">
			<ele>2481.00</ele>
			<time>2019-08-22T16:30:20Z</time>
			<extensions>
				<gte:gps speed="0.0"/>
			</extensions>
		</trkpt>
		<trkpt lat="36.664173" lon="-105.516213">
			<ele>2484.00</ele>
			<time>2019-08-22T16:30:45Z</time>
			<extensions>
				<gte:gps speed="2.2"/>
			</extensions>
		</trkpt>
		<trkpt lat="36.664103" lon="-105.516166">
			<ele>2483.00</ele>
			<time>2019-08-22T16:30:50Z</time>
			<extensions>
				<gte:gps speed="5.8"/>
			</extensions>
		</trkpt>
		<trkpt lat="36.664072" lon="-105.516195">
			<ele>2480.00</ele>
			<time>2019-08-22T16:30:55Z</time>
			<extensions>
				<gte:gps speed="3.2"/>
			</extensions>
		</trkpt>
		<trkpt lat="36.664034" lon="-105.516206">
			<ele>2479.00</ele>
			<time>2019-08-22T16:30:58Z</time>
			<extensions>
				<gte:gps speed="2.9"/>
			</extensions>
		</trkpt>
		<trkpt lat="36.663998" lon="-105.516185">
			<ele>2480.00</ele>
			<time>2019-08-22T16:31:03Z</time>
			<extensions>
				<gte:gps speed="2.5"/>
			</extensions>
		</trkpt>
		<trkpt lat="36.663965" lon="-105.516162">
			<ele>2480.00</ele>
			<time>2019-08-22T16:31:07Z</time>
			<extensions>
				<gte:gps speed="1.4"/>
			</extensions>
		</trkpt>
		<trkpt lat="36.663926" lon="-105.516158">
			<ele>2476.00</ele>
			<time>2019-08-22T16:31:12Z</time>
			<extensions>
				<gte:gps speed="2.2"/>
			</extensions>
		</trkpt>
		<trkpt lat="36.663890" lon="-105.516166">
			<ele>2473.00</ele>
			<time>2019-08-22T16:31:17Z</time>
			<extensions>
				<gte:gps speed="2.2"/>
			</extensions>
		</trkpt>
		<trkpt lat="36.663850" lon="-105.516160">
			<ele>2477.00</ele>
			<time>2019-08-22T16:31:25Z</time>
			<extensions>
				<gte:gps speed="1.8"/>
			</extensions>
		</trkpt>
		<trkpt lat="36.663812" lon="-105.516162">
			<ele>2478.00</ele>
			<time>2019-08-22T16:31:32Z</time>
			<extensions>
				<gte:gps speed="1.8"/>
			</extensions>
		</trkpt>
		<trkpt lat="36.663776" lon="-105.516177">
			<ele>2478.00</ele>
			<time>2019-08-22T16:31:38Z</time>
			<extensions>
				<gte:gps speed="1.1"/>
			</extensions>
		</trkpt>
		<trkpt lat="36.663721" lon="-105.516160">
			<ele>2481.00</ele>
			<time>2019-08-22T16:33:14Z</time>
			<extensions>
				<gte:gps speed="2.9"/>
			</extensions>
		</trkpt>
		<trkpt lat="36.663706" lon="-105.516115">
			<ele>2486.00</ele>
			<time>2019-08-22T16:33:26Z</time>
			<extensions>
				<gte:gps speed="0.0"/>
			</extensions>
		</trkpt>
		<trkpt lat="36.663680" lon="-105.516085">
			<ele>2484.00</ele>
			<time>2019-08-22T16:34:05Z</time>
			<extensions>
				<gte:gps speed="0.0"/>
			</extensions>
		</trkpt>
		<trkpt lat="36.663676" lon="-105.516079">
			<ele>2476.00</ele>
			<time>2019-08-22T16:36:44Z</time>
			<extensions>
				<gte:gps speed="0.0"/>
			</extensions>
		</trkpt>
		<trkpt lat="36.663681" lon="-105.516023">
			<ele>2484.00</ele>
			<time>2019-08-22T16:38:41Z</time>
			<extensions>
				<gte:gps speed="1.4"/>
			</extensions>
		</trkpt>
		<trkpt lat="36.663655" lon="-105.515987">
			<ele>2483.00</ele>
			<time>2019-08-22T16:38:48Z</time>
			<extensions>
				<gte:gps speed="1.8"/>
			</extensions>
		</trkpt>
		<trkpt lat="36.663629" lon="-105.515946">
			<ele>2483.00</ele>
			<time>2019-08-22T16:38:55Z</time>
			<extensions>
				<gte:gps speed="0.7"/>
			</extensions>
		</trkpt>
		<trkpt lat="36.663596" lon="-105.515929">
			<ele>2482.00</ele>
			<time>2019-08-22T16:39:01Z</time>
			<extensions>
				<gte:gps speed="1.4"/>
			</extensions>
		</trkpt>
		<trkpt lat="36.663551" lon="-105.515922">
			<ele>2482.00</ele>
			<time>2019-08-22T16:39:11Z</time>
			<extensions>
				<gte:gps speed="2.2"/>
			</extensions>
		</trkpt>
		<trkpt lat="36.663515" lon="-105.515945">
			<ele>2478.00</ele>
			<time>2019-08-22T16:39:16Z</time>
			<extensions>
				<gte:gps speed="2.2"/>
			</extensions>
		</trkpt>
		<trkpt lat="36.663469" lon="-105.515931">
			<ele>2485.00</ele>
			<time>2019-08-22T16:39:27Z</time>
			<extensions>
				<gte:gps speed="2.2"/>
			</extensions>
		</trkpt>
		<trkpt lat="36.663423" lon="-105.515934">
			<ele>2485.00</ele>
			<time>2019-08-22T16:39:33Z</time>
			<extensions>
				<gte:gps speed="2.5"/>
			</extensions>
		</trkpt>
		<trkpt lat="36.663380" lon="-105.515934">
			<ele>2484.00</ele>
			<time>2019-08-22T16:39:37Z</time>
			<extensions>
				<gte:gps speed="2.2"/>
			</extensions>
		</trkpt>
		<trkpt lat="36.663332" lon="-105.515929">
			<ele>2483.00</ele>
			<time>2019-08-22T16:39:41Z</time>
			<extensions>
				<gte:gps speed="2.2"/>
			</extensions>
		</trkpt>
		<trkpt lat="36.663295" lon="-105.515930">
			<ele>2482.00</ele>
			<time>2019-08-22T16:39:45Z</time>
			<extensions>
				<gte:gps speed="1.8"/>
			</extensions>
		</trkpt>
		<trkpt lat="36.663251" lon="-105.515923">
			<ele>2481.00</ele>
			<time>2019-08-22T16:39:49Z</time>
			<extensions>
				<gte:gps speed="2.9"/>
			</extensions>
		</trkpt>
		<trkpt lat="36.663217" lon="-105.515901">
			<ele>2481.00</ele>
			<time>2019-08-22T16:39:53Z</time>
			<extensions>
				<gte:gps speed="1.8"/>
			</extensions>
		</trkpt>
		<trkpt lat="36.663180" lon="-105.515910">
			<ele>2480.00</ele>
			<time>2019-08-22T16:39:56Z</time>
			<extensions>
				<gte:gps speed="3.6"/>
			</extensions>
		</trkpt>
		<trkpt lat="36.663143" lon="-105.515928">
			<ele>2479.00</ele>
			<time>2019-08-22T16:40:00Z</time>
			<extensions>
				<gte:gps speed="3.2"/>
			</extensions>
		</trkpt>
		<trkpt lat="36.663110" lon="-105.515969">
			<ele>2479.00</ele>
			<time>2019-08-22T16:40:05Z</time>
			<extensions>
				<gte:gps speed="2.9"/>
			</extensions>
		</trkpt>
		<trkpt lat="36.663070" lon="-105.515978">
			<ele>2481.00</ele>
			<time>2019-08-22T16:40:11Z</time>
			<extensions>
				<gte:gps speed="1.4"/>
			</extensions>
		</trkpt>
		<trkpt lat="36.663033" lon="-105.515975">
			<ele>2482.00</ele>
			<time>2019-08-22T16:40:16Z</time>
			<extensions>
				<gte:gps speed="1.8"/>
			</extensions>
		</trkpt>
		<trkpt lat="36.662995" lon="-105.515960">
			<ele>2483.00</ele>
			<time>2019-08-22T16:40:19Z</time>
			<extensions>
				<gte:gps speed="4.7"/>
			</extensions>
		</trkpt>
		<trkpt lat="36.662953" lon="-105.515956">
			<ele>2483.00</ele>
			<time>2019-08-22T16:40:23Z</time>
			<extensions>
				<gte:gps speed="2.5"/>
			</extensions>
		</trkpt>
		<trkpt lat="36.662914" lon="-105.515939">
			<ele>2485.00</ele>
			<time>2019-08-22T16:40:26Z</time>
			<extensions>
				<gte:gps speed="3.6"/>
			</extensions>
		</trkpt>
		<trkpt lat="36.662878" lon="-105.515926">
			<ele>2485.00</ele>
			<time>2019-08-22T16:40:31Z</time>
			<extensions>
				<gte:gps speed="1.8"/>
			</extensions>
		</trkpt>
		<trkpt lat="36.662839" lon="-105.515929">
			<ele>2484.00</ele>
			<time>2019-08-22T16:40:36Z</time>
			<extensions>
				<gte:gps speed="2.9"/>
			</extensions>
		</trkpt>
		<trkpt lat="36.662807" lon="-105.515900">
			<ele>2485.00</ele>
			<time>2019-08-22T16:40:42Z</time>
			<extensions>
				<gte:gps speed="2.5"/>
			</extensions>
		</trkpt>
		<trkpt lat="36.662771" lon="-105.515888">
			<ele>2486.00</ele>
			<time>2019-08-22T16:40:53Z</time>
			<extensions>
				<gte:gps speed="2.9"/>
			</extensions>
		</trkpt>
		<trkpt lat="36.662737" lon="-105.515906">
			<ele>2485.00</ele>
			<time>2019-08-22T16:40:58Z</time>
			<extensions>
				<gte:gps speed="1.8"/>
			</extensions>
		</trkpt>
		<trkpt lat="36.662704" lon="-105.515883">
			<ele>2486.00</ele>
			<time>2019-08-22T16:41:05Z</time>
			<extensions>
				<gte:gps speed="1.4"/>
			</extensions>
		</trkpt>
		<trkpt lat="36.662666" lon="-105.515885">
			<ele>2484.00</ele>
			<time>2019-08-22T16:41:13Z</time>
			<extensions>
				<gte:gps speed="2.2"/>
			</extensions>
		</trkpt>
		<trkpt lat="36.662634" lon="-105.515905">
			<ele>2483.00</ele>
			<time>2019-08-22T16:41:25Z</time>
			<extensions>
				<gte:gps speed="0.7"/>
			</extensions>
		</trkpt>
		<trkpt lat="36.662597" lon="-105.515898">
			<ele>2487.00</ele>
			<time>2019-08-22T16:41:45Z</time>
			<extensions>
				<gte:gps speed="0.0"/>
			</extensions>
		</trkpt>
		<trkpt lat="36.662556" lon="-105.515906">
			<ele>2491.00</ele>
			<time>2019-08-22T16:43:40Z</time>
			<extensions>
				<gte:gps speed="1.8"/>
			</extensions>
		</trkpt>
		<trkpt lat="36.662514" lon="-105.515919">
			<ele>2488.00</ele>
			<time>2019-08-22T16:43:46Z</time>
			<extensions>
				<gte:gps speed="1.8"/>
			</extensions>
		</trkpt>
		<trkpt lat="36.662486" lon="-105.515951">
			<ele>2491.00</ele>
			<time>2019-08-22T16:44:01Z</time>
			<extensions>
				<gte:gps speed="1.4"/>
			</extensions>
		</trkpt>
		<trkpt lat="36.662447" lon="-105.515969">
			<ele>2487.00</ele>
			<time>2019-08-22T16:44:06Z</time>
			<extensions>
				<gte:gps speed="2.5"/>
			</extensions>
		</trkpt>
		<trkpt lat="36.662404" lon="-105.515979">
			<ele>2487.00</ele>
			<time>2019-08-22T16:44:12Z</time>
			<extensions>
				<gte:gps speed="2.9"/>
			</extensions>
		</trkpt>
		<trkpt lat="36.662359" lon="-105.515985">
			<ele>2487.00</ele>
			<time>2019-08-22T16:44:16Z</time>
			<extensions>
				<gte:gps speed="3.6"/>
			</extensions>
		</trkpt>
		<trkpt lat="36.662320" lon="-105.515991">
			<ele>2485.00</ele>
			<time>2019-08-22T16:44:19Z</time>
			<extensions>
				<gte:gps speed="2.9"/>
			</extensions>
		</trkpt>
		<trkpt lat="36.662279" lon="-105.515984">
			<ele>2488.00</ele>
			<time>2019-08-22T16:44:25Z</time>
			<extensions>
				<gte:gps speed="1.4"/>
			</extensions>
		</trkpt>
		<trkpt lat="36.662244" lon="-105.516003">
			<ele>2491.00</ele>
			<time>2019-08-22T16:44:38Z</time>
			<extensions>
				<gte:gps speed="0.7"/>
			</extensions>
		</trkpt>
		<trkpt lat="36.662204" lon="-105.516032">
			<ele>2491.00</ele>
			<time>2019-08-22T16:44:42Z</time>
			<extensions>
				<gte:gps speed="2.2"/>
			</extensions>
		</trkpt>
		<trkpt lat="36.662163" lon="-105.516042">
			<ele>2491.00</ele>
			<time>2019-08-22T16:44:45Z</time>
			<extensions>
				<gte:gps speed="2.5"/>
			</extensions>
		</trkpt>
		<trkpt lat="36.662131" lon="-105.516067">
			<ele>2490.00</ele>
			<time>2019-08-22T16:44:49Z</time>
			<extensions>
				<gte:gps speed="1.8"/>
			</extensions>
		</trkpt>
		<trkpt lat="36.662088" lon="-105.516061">
			<ele>2491.00</ele>
			<time>2019-08-22T16:45:00Z</time>
			<extensions>
				<gte:gps speed="2.2"/>
			</extensions>
		</trkpt>
		<trkpt lat="36.662049" lon="-105.516060">
			<ele>2491.00</ele>
			<time>2019-08-22T16:45:07Z</time>
			<extensions>
				<gte:gps speed="0.7"/>
			</extensions>
		</trkpt>
		<trkpt lat="36.662010" lon="-105.516078">
			<ele>2492.00</ele>
			<time>2019-08-22T16:45:15Z</time>
			<extensions>
				<gte:gps speed="1.8"/>
			</extensions>
		</trkpt>
		<trkpt lat="36.661971" lon="-105.516091">
			<ele>2490.00</ele>
			<time>2019-08-22T16:45:19Z</time>
			<extensions>
				<gte:gps speed="3.2"/>
			</extensions>
		</trkpt>
		<trkpt lat="36.661931" lon="-105.516096">
			<ele>2491.00</ele>
			<time>2019-08-22T16:45:25Z</time>
			<extensions>
				<gte:gps speed="2.9"/>
			</extensions>
		</trkpt>
		<trkpt lat="36.661892" lon="-105.516106">
			<ele>2491.00</ele>
			<time>2019-08-22T16:45:30Z</time>
			<extensions>
				<gte:gps speed="2.9"/>
			</extensions>
		</trkpt>
		<trkpt lat="36.661856" lon="-105.516080">
			<ele>2494.00</ele>
			<time>2019-08-22T16:45:39Z</time>
			<extensions>
				<gte:gps speed="2.9"/>
			</extensions>
		</trkpt>
		<trkpt lat="36.661817" lon="-105.516074">
			<ele>2494.00</ele>
			<time>2019-08-22T16:45:44Z</time>
			<extensions>
				<gte:gps speed="1.1"/>
			</extensions>
		</trkpt>
		<trkpt lat="36.661783" lon="-105.516087">
			<ele>2492.00</ele>
			<time>2019-08-22T16:45:50Z</time>
			<extensions>
				<gte:gps speed="1.1"/>
			</extensions>
		</trkpt>
		<trkpt lat="36.661746" lon="-105.516090">
			<ele>2492.00</ele>
			<time>2019-08-22T16:45:54Z</time>
			<extensions>
				<gte:gps speed="3.6"/>
			</extensions>
		</trkpt>
		<trkpt lat="36.661714" lon="-105.516117">
			<ele>2489.00</ele>
			<time>2019-08-22T16:45:58Z</time>
			<extensions>
				<gte:gps speed="2.9"/>
			</extensions>
		</trkpt>
		<trkpt lat="36.661676" lon="-105.516119">
			<ele>2489.00</ele>
			<time>2019-08-22T16:46:02Z</time>
			<extensions>
				<gte:gps speed="2.9"/>
			</extensions>
		</trkpt>
		<trkpt lat="36.661632" lon="-105.516110">
			<ele>2490.00</ele>
			<time>2019-08-22T16:46:06Z</time>
			<extensions>
				<gte:gps speed="2.2"/>
			</extensions>
		</trkpt>
		<trkpt lat="36.661597" lon="-105.516093">
			<ele>2490.00</ele>
			<time>2019-08-22T16:46:11Z</time>
			<extensions>
				<gte:gps speed="2.9"/>
			</extensions>
		</trkpt>
		<trkpt lat="36.661562" lon="-105.516083">
			<ele>2489.00</ele>
			<time>2019-08-22T16:46:16Z</time>
			<extensions>
				<gte:gps speed="2.5"/>
			</extensions>
		</trkpt>
		<trkpt lat="36.661524" lon="-105.516075">
			<ele>2490.00</ele>
			<time>2019-08-22T16:46:22Z</time>
			<extensions>
				<gte:gps speed="0.0"/>
			</extensions>
		</trkpt>
		<trkpt lat="36.661489" lon="-105.516098">
			<ele>2489.00</ele>
			<time>2019-08-22T16:46:28Z</time>
			<extensions>
				<gte:gps speed="4.3"/>
			</extensions>
		</trkpt>
		<trkpt lat="36.661454" lon="-105.516118">
			<ele>2490.00</ele>
			<time>2019-08-22T16:46:34Z</time>
			<extensions>
				<gte:gps speed="1.1"/>
			</extensions>
		</trkpt>
		<trkpt lat="36.661413" lon="-105.516145">
			<ele>2486.00</ele>
			<time>2019-08-22T16:46:37Z</time>
			<extensions>
				<gte:gps speed="3.6"/>
			</extensions>
		</trkpt>
		<trkpt lat="36.661378" lon="-105.516173">
			<ele>2483.00</ele>
			<time>2019-08-22T16:46:42Z</time>
			<extensions>
				<gte:gps speed="2.2"/>
			</extensions>
		</trkpt>
		<trkpt lat="36.661338" lon="-105.516162">
			<ele>2486.00</ele>
			<time>2019-08-22T16:46:50Z</time>
			<extensions>
				<gte:gps speed="3.6"/>
			</extensions>
		</trkpt>
		<trkpt lat="36.661293" lon="-105.516171">
			<ele>2486.00</ele>
			<time>2019-08-22T16:46:56Z</time>
			<extensions>
				<gte:gps speed="2.5"/>
			</extensions>
		</trkpt>
		<trkpt lat="36.661255" lon="-105.516168">
			<ele>2486.00</ele>
			<time>2019-08-22T16:47:00Z</time>
			<extensions>
				<gte:gps speed="0.7"/>
			</extensions>
		</trkpt>
		<trkpt lat="36.661215" lon="-105.516171">
			<ele>2491.00</ele>
			<time>2019-08-22T16:47:24Z</time>
			<extensions>
				<gte:gps speed="2.5"/>
			</extensions>
		</trkpt>
		<trkpt lat="36.661176" lon="-105.516148">
			<ele>2493.00</ele>
			<time>2019-08-22T16:47:28Z</time>
			<extensions>
				<gte:gps speed="2.9"/>
			</extensions>
		</trkpt>
		<trkpt lat="36.661137" lon="-105.516151">
			<ele>2494.00</ele>
			<time>2019-08-22T16:47:33Z</time>
			<extensions>
				<gte:gps speed="3.2"/>
			</extensions>
		</trkpt>
		<trkpt lat="36.661099" lon="-105.516151">
			<ele>2493.00</ele>
			<time>2019-08-22T16:47:38Z</time>
			<extensions>
				<gte:gps speed="2.5"/>
			</extensions>
		</trkpt>
		<trkpt lat="36.661062" lon="-105.516140">
			<ele>2493.00</ele>
			<time>2019-08-22T16:47:44Z</time>
			<extensions>
				<gte:gps speed="2.5"/>
			</extensions>
		</trkpt>
		<trkpt lat="36.661024" lon="-105.516126">
			<ele>2493.00</ele>
			<time>2019-08-22T16:47:50Z</time>
			<extensions>
				<gte:gps speed="2.2"/>
			</extensions>
		</trkpt>
		<trkpt lat="36.660976" lon="-105.516124">
			<ele>2495.00</ele>
			<time>2019-08-22T16:48:21Z</time>
			<extensions>
				<gte:gps speed="2.9"/>
			</extensions>
		</trkpt>
		<trkpt lat="36.660935" lon="-105.516112">
			<ele>2495.00</ele>
			<time>2019-08-22T16:48:27Z</time>
			<extensions>
				<gte:gps speed="2.9"/>
			</extensions>
		</trkpt>
		<trkpt lat="36.660889" lon="-105.516113">
			<ele>2493.00</ele>
			<time>2019-08-22T16:48:31Z</time>
			<extensions>
				<gte:gps speed="4.0"/>
			</extensions>
		</trkpt>
		<trkpt lat="36.660844" lon="-105.516102">
			<ele>2495.00</ele>
			<time>2019-08-22T16:48:35Z</time>
			<extensions>
				<gte:gps speed="3.6"/>
			</extensions>
		</trkpt>
		<trkpt lat="36.660805" lon="-105.516111">
			<ele>2495.00</ele>
			<time>2019-08-22T16:48:40Z</time>
			<extensions>
				<gte:gps speed="3.2"/>
			</extensions>
		</trkpt>
		<trkpt lat="36.660771" lon="-105.516097">
			<ele>2496.00</ele>
			<time>2019-08-22T16:48:45Z</time>
			<extensions>
				<gte:gps speed="1.8"/>
			</extensions>
		</trkpt>
		<trkpt lat="36.660740" lon="-105.516127">
			<ele>2494.00</ele>
			<time>2019-08-22T16:49:55Z</time>
			<extensions>
				<gte:gps speed="0.0"/>
			</extensions>
		</trkpt>
		<trkpt lat="36.660689" lon="-105.516090">
			<ele>2496.00</ele>
			<time>2019-08-22T16:50:17Z</time>
			<extensions>
				<gte:gps speed="2.9"/>
			</extensions>
		</trkpt>
		<trkpt lat="36.660645" lon="-105.516088">
			<ele>2499.00</ele>
			<time>2019-08-22T16:50:22Z</time>
			<extensions>
				<gte:gps speed="2.9"/>
			</extensions>
		</trkpt>
		<trkpt lat="36.660610" lon="-105.516060">
			<ele>2500.00</ele>
			<time>2019-08-22T16:50:30Z</time>
			<extensions>
				<gte:gps speed="2.5"/>
			</extensions>
		</trkpt>
		<trkpt lat="36.660565" lon="-105.516066">
			<ele>2499.00</ele>
			<time>2019-08-22T16:50:37Z</time>
			<extensions>
				<gte:gps speed="2.5"/>
			</extensions>
		</trkpt>
		<trkpt lat="36.660519" lon="-105.516089">
			<ele>2498.00</ele>
			<time>2019-08-22T16:50:41Z</time>
			<extensions>
				<gte:gps speed="2.9"/>
			</extensions>
		</trkpt>
		<trkpt lat="36.660484" lon="-105.516126">
			<ele>2497.00</ele>
			<time>2019-08-22T16:50:44Z</time>
			<extensions>
				<gte:gps speed="4.0"/>
			</extensions>
		</trkpt>
		<trkpt lat="36.660446" lon="-105.516156">
			<ele>2499.00</ele>
			<time>2019-08-22T16:50:49Z</time>
			<extensions>
				<gte:gps speed="1.4"/>
			</extensions>
		</trkpt>
		<trkpt lat="36.660412" lon="-105.516175">
			<ele>2498.00</ele>
			<time>2019-08-22T16:50:56Z</time>
			<extensions>
				<gte:gps speed="0.0"/>
			</extensions>
		</trkpt>
		<trkpt lat="36.660376" lon="-105.516210">
			<ele>2502.00</ele>
			<time>2019-08-22T16:52:42Z</time>
			<extensions>
				<gte:gps speed="2.9"/>
			</extensions>
		</trkpt>
		<trkpt lat="36.660337" lon="-105.516224">
			<ele>2503.00</ele>
			<time>2019-08-22T16:52:46Z</time>
			<extensions>
				<gte:gps speed="3.2"/>
			</extensions>
		</trkpt>
		<trkpt lat="36.660292" lon="-105.516223">
			<ele>2505.00</ele>
			<time>2019-08-22T16:52:52Z</time>
			<extensions>
				<gte:gps speed="2.9"/>
			</extensions>
		</trkpt>
		<trkpt lat="36.660253" lon="-105.516243">
			<ele>2506.00</ele>
			<time>2019-08-22T16:52:57Z</time>
			<extensions>
				<gte:gps speed="2.2"/>
			</extensions>
		</trkpt>
		<trkpt lat="36.660213" lon="-105.516256">
			<ele>2507.00</ele>
			<time>2019-08-22T16:53:04Z</time>
			<extensions>
				<gte:gps speed="2.9"/>
			</extensions>
		</trkpt>
		<trkpt lat="36.660169" lon="-105.516286">
			<ele>2504.00</ele>
			<time>2019-08-22T16:53:09Z</time>
			<extensions>
				<gte:gps speed="3.2"/>
			</extensions>
		</trkpt>
		<trkpt lat="36.660134" lon="-105.516312">
			<ele>2504.00</ele>
			<time>2019-08-22T16:53:13Z</time>
			<extensions>
				<gte:gps speed="2.9"/>
			</extensions>
		</trkpt>
		<trkpt lat="36.660100" lon="-105.516336">
			<ele>2501.00</ele>
			<time>2019-08-22T16:53:18Z</time>
			<extensions>
				<gte:gps speed="2.5"/>
			</extensions>
		</trkpt>
		<trkpt lat="36.660067" lon="-105.516370">
			<ele>2503.00</ele>
			<time>2019-08-22T16:53:34Z</time>
			<extensions>
				<gte:gps speed="2.9"/>
			</extensions>
		</trkpt>
		<trkpt lat="36.660035" lon="-105.516403">
			<ele>2501.00</ele>
			<time>2019-08-22T16:53:45Z</time>
			<extensions>
				<gte:gps speed="2.2"/>
			</extensions>
		</trkpt>
		<trkpt lat="36.660015" lon="-105.516455">
			<ele>2495.00</ele>
			<time>2019-08-22T16:53:49Z</time>
			<extensions>
				<gte:gps speed="1.8"/>
			</extensions>
		</trkpt>
		<trkpt lat="36.659990" lon="-105.516491">
			<ele>2495.00</ele>
			<time>2019-08-22T16:53:52Z</time>
			<extensions>
				<gte:gps speed="2.5"/>
			</extensions>
		</trkpt>
		<trkpt lat="36.659955" lon="-105.516523">
			<ele>2495.00</ele>
			<time>2019-08-22T16:54:06Z</time>
			<extensions>
				<gte:gps speed="2.5"/>
			</extensions>
		</trkpt>
		<trkpt lat="36.659926" lon="-105.516561">
			<ele>2496.00</ele>
			<time>2019-08-22T16:54:10Z</time>
			<extensions>
				<gte:gps speed="1.1"/>
			</extensions>
		</trkpt>
		<trkpt lat="36.659911" lon="-105.516604">
			<ele>2499.00</ele>
			<time>2019-08-22T16:54:20Z</time>
			<extensions>
				<gte:gps speed="0.0"/>
			</extensions>
		</trkpt>
		<trkpt lat="36.659876" lon="-105.516643">
			<ele>2495.00</ele>
			<time>2019-08-22T16:54:25Z</time>
			<extensions>
				<gte:gps speed="2.5"/>
			</extensions>
		</trkpt>
		<trkpt lat="36.659818" lon="-105.516695">
			<ele>2492.00</ele>
			<time>2019-08-22T16:54:42Z</time>
			<extensions>
				<gte:gps speed="1.1"/>
			</extensions>
		</trkpt>
		<trkpt lat="36.659789" lon="-105.516724">
			<ele>2492.00</ele>
			<time>2019-08-22T16:54:45Z</time>
			<extensions>
				<gte:gps speed="2.5"/>
			</extensions>
		</trkpt>
		<trkpt lat="36.659767" lon="-105.516767">
			<ele>2497.00</ele>
			<time>2019-08-22T16:54:49Z</time>
			<extensions>
				<gte:gps speed="2.9"/>
			</extensions>
		</trkpt>
		<trkpt lat="36.659731" lon="-105.516780">
			<ele>2502.00</ele>
			<time>2019-08-22T16:54:54Z</time>
			<extensions>
				<gte:gps speed="1.1"/>
			</extensions>
		</trkpt>
		<trkpt lat="36.659690" lon="-105.516795">
			<ele>2507.00</ele>
			<time>2019-08-22T16:55:00Z</time>
			<extensions>
				<gte:gps speed="2.5"/>
			</extensions>
		</trkpt>
		<trkpt lat="36.659655" lon="-105.516813">
			<ele>2507.00</ele>
			<time>2019-08-22T16:55:04Z</time>
			<extensions>
				<gte:gps speed="3.6"/>
			</extensions>
		</trkpt>
		<trkpt lat="36.659621" lon="-105.516837">
			<ele>2509.00</ele>
			<time>2019-08-22T16:55:09Z</time>
			<extensions>
				<gte:gps speed="2.9"/>
			</extensions>
		</trkpt>
		<trkpt lat="36.659597" lon="-105.516877">
			<ele>2507.00</ele>
			<time>2019-08-22T16:55:12Z</time>
			<extensions>
				<gte:gps speed="3.2"/>
			</extensions>
		</trkpt>
		<trkpt lat="36.659561" lon="-105.516889">
			<ele>2510.00</ele>
			<time>2019-08-22T16:55:18Z</time>
			<extensions>
				<gte:gps speed="2.9"/>
			</extensions>
		</trkpt>
		<trkpt lat="36.659523" lon="-105.516902">
			<ele>2514.00</ele>
			<time>2019-08-22T16:55:27Z</time>
			<extensions>
				<gte:gps speed="2.5"/>
			</extensions>
		</trkpt>
		<trkpt lat="36.659498" lon="-105.516949">
			<ele>2512.00</ele>
			<time>2019-08-22T16:55:30Z</time>
			<extensions>
				<gte:gps speed="4.0"/>
			</extensions>
		</trkpt>
		<trkpt lat="36.659466" lon="-105.516975">
			<ele>2510.00</ele>
			<time>2019-08-22T16:55:38Z</time>
			<extensions>
				<gte:gps speed="0.0"/>
			</extensions>
		</trkpt>
		<trkpt lat="36.659434" lon="-105.517014">
			<ele>2509.00</ele>
			<time>2019-08-22T16:55:43Z</time>
			<extensions>
				<gte:gps speed="2.5"/>
			</extensions>
		</trkpt>
		<trkpt lat="36.659399" lon="-105.517040">
			<ele>2511.00</ele>
			<time>2019-08-22T16:55:48Z</time>
			<extensions>
				<gte:gps speed="3.2"/>
			</extensions>
		</trkpt>
		<trkpt lat="36.659377" lon="-105.517085">
			<ele>2509.00</ele>
			<time>2019-08-22T16:55:51Z</time>
			<extensions>
				<gte:gps speed="3.6"/>
			</extensions>
		</trkpt>
		<trkpt lat="36.659335" lon="-105.517144">
			<ele>2509.00</ele>
			<time>2019-08-22T16:56:05Z</time>
			<extensions>
				<gte:gps speed="0.0"/>
			</extensions>
		</trkpt>
		<trkpt lat="36.659300" lon="-105.517174">
			<ele>2507.00</ele>
			<time>2019-08-22T16:57:21Z</time>
			<extensions>
				<gte:gps speed="2.9"/>
			</extensions>
		</trkpt>
		<trkpt lat="36.659260" lon="-105.517184">
			<ele>2506.00</ele>
			<time>2019-08-22T16:57:25Z</time>
			<extensions>
				<gte:gps speed="3.2"/>
			</extensions>
		</trkpt>
		<trkpt lat="36.659223" lon="-105.517208">
			<ele>2507.00</ele>
			<time>2019-08-22T16:57:30Z</time>
			<extensions>
				<gte:gps speed="2.9"/>
			</extensions>
		</trkpt>
		<trkpt lat="36.659194" lon="-105.517236">
			<ele>2507.00</ele>
			<time>2019-08-22T16:57:34Z</time>
			<extensions>
				<gte:gps speed="3.6"/>
			</extensions>
		</trkpt>
		<trkpt lat="36.659161" lon="-105.517261">
			<ele>2505.00</ele>
			<time>2019-08-22T16:57:37Z</time>
			<extensions>
				<gte:gps speed="3.6"/>
			</extensions>
		</trkpt>
		<trkpt lat="36.659134" lon="-105.517297">
			<ele>2507.00</ele>
			<time>2019-08-22T16:57:41Z</time>
			<extensions>
				<gte:gps speed="3.6"/>
			</extensions>
		</trkpt>
		<trkpt lat="36.659111" lon="-105.517336">
			<ele>2505.00</ele>
			<time>2019-08-22T16:57:45Z</time>
			<extensions>
				<gte:gps speed="2.9"/>
			</extensions>
		</trkpt>
		<trkpt lat="36.659079" lon="-105.517360">
			<ele>2506.00</ele>
			<time>2019-08-22T16:57:49Z</time>
			<extensions>
				<gte:gps speed="2.5"/>
			</extensions>
		</trkpt>
		<trkpt lat="36.659047" lon="-105.517381">
			<ele>2506.00</ele>
			<time>2019-08-22T16:57:54Z</time>
			<extensions>
				<gte:gps speed="4.3"/>
			</extensions>
		</trkpt>
		<trkpt lat="36.659048" lon="-105.517498">
			<ele>2502.00</ele>
			<time>2019-08-22T17:01:12Z</time>
			<extensions>
				<gte:gps speed="0.0"/>
			</extensions>
		</trkpt>
		<trkpt lat="36.659034" lon="-105.517544">
			<ele>2507.00</ele>
			<time>2019-08-22T17:01:46Z</time>
			<extensions>
				<gte:gps speed="1.4"/>
			</extensions>
		</trkpt>
		<trkpt lat="36.658986" lon="-105.517617">
			<ele>2512.00</ele>
			<time>2019-08-22T17:07:01Z</time>
			<extensions>
				<gte:gps speed="0.0"/>
			</extensions>
		</trkpt>
		<trkpt lat="36.659066" lon="-105.517566">
			<ele>2515.00</ele>
			<time>2019-08-22T17:14:11Z</time>
			<extensions>
				<gte:gps speed="0.0"/>
			</extensions>
		</trkpt>
		<trkpt lat="36.659119" lon="-105.517526">
			<ele>2526.00</ele>
			<time>2019-08-22T17:19:19Z</time>
			<extensions>
				<gte:gps speed="3.2"/>
			</extensions>
		</trkpt>
		<trkpt lat="36.659136" lon="-105.517468">
			<ele>2524.00</ele>
			<time>2019-08-22T17:19:31Z</time>
			<extensions>
				<gte:gps speed="4.0"/>
			</extensions>
		</trkpt>
		<trkpt lat="36.659163" lon="-105.517429">
			<ele>2523.00</ele>
			<time>2019-08-22T17:19:36Z</time>
			<extensions>
				<gte:gps speed="2.5"/>
			</extensions>
		</trkpt>
		<trkpt lat="36.659169" lon="-105.517384">
			<ele>2522.00</ele>
			<time>2019-08-22T17:19:42Z</time>
			<extensions>
				<gte:gps speed="2.9"/>
			</extensions>
		</trkpt>
		<trkpt lat="36.659186" lon="-105.517326">
			<ele>2518.00</ele>
			<time>2019-08-22T17:19:55Z</time>
			<extensions>
				<gte:gps speed="1.8"/>
			</extensions>
		</trkpt>
		<trkpt lat="36.659217" lon="-105.517289">
			<ele>2515.00</ele>
			<time>2019-08-22T17:20:44Z</time>
			<extensions>
				<gte:gps speed="3.2"/>
			</extensions>
		</trkpt>
		<trkpt lat="36.659252" lon="-105.517266">
			<ele>2517.00</ele>
			<time>2019-08-22T17:20:48Z</time>
			<extensions>
				<gte:gps speed="3.6"/>
			</extensions>
		</trkpt>
		<trkpt lat="36.659283" lon="-105.517241">
			<ele>2518.00</ele>
			<time>2019-08-22T17:20:52Z</time>
			<extensions>
				<gte:gps speed="3.2"/>
			</extensions>
		</trkpt>
		<trkpt lat="36.659317" lon="-105.517225">
			<ele>2517.00</ele>
			<time>2019-08-22T17:20:57Z</time>
			<extensions>
				<gte:gps speed="2.9"/>
			</extensions>
		</trkpt>
		<trkpt lat="36.659354" lon="-105.517204">
			<ele>2517.00</ele>
			<time>2019-08-22T17:21:05Z</time>
			<extensions>
				<gte:gps speed="2.5"/>
			</extensions>
		</trkpt>
		<trkpt lat="36.659381" lon="-105.517173">
			<ele>2516.00</ele>
			<time>2019-08-22T17:21:09Z</time>
			<extensions>
				<gte:gps speed="4.0"/>
			</extensions>
		</trkpt>
		<trkpt lat="36.659413" lon="-105.517145">
			<ele>2517.00</ele>
			<time>2019-08-22T17:21:14Z</time>
			<extensions>
				<gte:gps speed="3.2"/>
			</extensions>
		</trkpt>
		<trkpt lat="36.659444" lon="-105.517119">
			<ele>2518.00</ele>
			<time>2019-08-22T17:21:19Z</time>
			<extensions>
				<gte:gps speed="2.2"/>
			</extensions>
		</trkpt>
		<trkpt lat="36.659475" lon="-105.517097">
			<ele>2516.00</ele>
			<time>2019-08-22T17:21:23Z</time>
			<extensions>
				<gte:gps speed="3.2"/>
			</extensions>
		</trkpt>
		<trkpt lat="36.659512" lon="-105.517080">
			<ele>2515.00</ele>
			<time>2019-08-22T17:21:29Z</time>
			<extensions>
				<gte:gps speed="3.6"/>
			</extensions>
		</trkpt>
		<trkpt lat="36.659546" lon="-105.517060">
			<ele>2514.00</ele>
			<time>2019-08-22T17:21:33Z</time>
			<extensions>
				<gte:gps speed="2.5"/>
			</extensions>
		</trkpt>
		<trkpt lat="36.659579" lon="-105.517031">
			<ele>2515.00</ele>
			<time>2019-08-22T17:21:40Z</time>
			<extensions>
				<gte:gps speed="0.0"/>
			</extensions>
		</trkpt>
		<trkpt lat="36.659615" lon="-105.517025">
			<ele>2516.00</ele>
			<time>2019-08-22T17:21:50Z</time>
			<extensions>
				<gte:gps speed="2.9"/>
			</extensions>
		</trkpt>
		<trkpt lat="36.659654" lon="-105.517004">
			<ele>2516.00</ele>
			<time>2019-08-22T17:21:55Z</time>
			<extensions>
				<gte:gps speed="2.9"/>
			</extensions>
		</trkpt>
		<trkpt lat="36.659687" lon="-105.516977">
			<ele>2516.00</ele>
			<time>2019-08-22T17:22:01Z</time>
			<extensions>
				<gte:gps speed="4.3"/>
			</extensions>
		</trkpt>
		<trkpt lat="36.659707" lon="-105.516934">
			<ele>2513.00</ele>
			<time>2019-08-22T17:22:04Z</time>
			<extensions>
				<gte:gps speed="2.2"/>
			</extensions>
		</trkpt>
		<trkpt lat="36.659733" lon="-105.516901">
			<ele>2513.00</ele>
			<time>2019-08-22T17:22:10Z</time>
			<extensions>
				<gte:gps speed="2.2"/>
			</extensions>
		</trkpt>
		<trkpt lat="36.659762" lon="-105.516875">
			<ele>2512.00</ele>
			<time>2019-08-22T17:22:13Z</time>
			<extensions>
				<gte:gps speed="2.2"/>
			</extensions>
		</trkpt>
		<trkpt lat="36.659796" lon="-105.516843">
			<ele>2512.00</ele>
			<time>2019-08-22T17:22:25Z</time>
			<extensions>
				<gte:gps speed="1.8"/>
			</extensions>
		</trkpt>
		<trkpt lat="36.659818" lon="-105.516807">
			<ele>2510.00</ele>
			<time>2019-08-22T17:22:30Z</time>
			<extensions>
				<gte:gps speed="2.2"/>
			</extensions>
		</trkpt>
		<trkpt lat="36.659851" lon="-105.516785">
			<ele>2514.00</ele>
			<time>2019-08-22T17:22:41Z</time>
			<extensions>
				<gte:gps speed="3.2"/>
			</extensions>
		</trkpt>
		<trkpt lat="36.659886" lon="-105.516771">
			<ele>2517.00</ele>
			<time>2019-08-22T17:22:45Z</time>
			<extensions>
				<gte:gps speed="2.9"/>
			</extensions>
		</trkpt>
		<trkpt lat="36.659923" lon="-105.516751">
			<ele>2516.00</ele>
			<time>2019-08-22T17:22:49Z</time>
			<extensions>
				<gte:gps speed="2.5"/>
			</extensions>
		</trkpt>
		<trkpt lat="36.659956" lon="-105.516720">
			<ele>2515.00</ele>
			<time>2019-08-22T17:22:56Z</time>
			<extensions>
				<gte:gps speed="0.0"/>
			</extensions>
		</trkpt>
		<trkpt lat="36.659990" lon="-105.516681">
			<ele>2516.00</ele>
			<time>2019-08-22T17:23:01Z</time>
			<extensions>
				<gte:gps speed="2.9"/>
			</extensions>
		</trkpt>
		<trkpt lat="36.660026" lon="-105.516574">
			<ele>2509.00</ele>
			<time>2019-08-22T17:23:07Z</time>
			<extensions>
				<gte:gps speed="0.0"/>
			</extensions>
		</trkpt>
		<trkpt lat="36.660037" lon="-105.516531">
			<ele>2506.00</ele>
			<time>2019-08-22T17:23:11Z</time>
			<extensions>
				<gte:gps speed="2.9"/>
			</extensions>
		</trkpt>
		<trkpt lat="36.660075" lon="-105.516499">
			<ele>2506.00</ele>
			<time>2019-08-22T17:23:17Z</time>
			<extensions>
				<gte:gps speed="2.2"/>
			</extensions>
		</trkpt>
		<trkpt lat="36.660106" lon="-105.516473">
			<ele>2509.00</ele>
			<time>2019-08-22T17:23:26Z</time>
			<extensions>
				<gte:gps speed="1.4"/>
			</extensions>
		</trkpt>
		<trkpt lat="36.660138" lon="-105.516446">
			<ele>2511.00</ele>
			<time>2019-08-22T17:23:30Z</time>
			<extensions>
				<gte:gps speed="1.8"/>
			</extensions>
		</trkpt>
		<trkpt lat="36.660167" lon="-105.516404">
			<ele>2511.00</ele>
			<time>2019-08-22T17:23:48Z</time>
			<extensions>
				<gte:gps speed="0.0"/>
			</extensions>
		</trkpt>
		<trkpt lat="36.660204" lon="-105.516381">
			<ele>2512.00</ele>
			<time>2019-08-22T17:23:58Z</time>
			<extensions>
				<gte:gps speed="2.5"/>
			</extensions>
		</trkpt>
		<trkpt lat="36.660228" lon="-105.516344">
			<ele>2513.00</ele>
			<time>2019-08-22T17:24:02Z</time>
			<extensions>
				<gte:gps speed="4.0"/>
			</extensions>
		</trkpt>
		<trkpt lat="36.660269" lon="-105.516319">
			<ele>2515.00</ele>
			<time>2019-08-22T17:24:06Z</time>
			<extensions>
				<gte:gps speed="2.9"/>
			</extensions>
		</trkpt>
		<trkpt lat="36.660304" lon="-105.516289">
			<ele>2514.00</ele>
			<time>2019-08-22T17:24:10Z</time>
			<extensions>
				<gte:gps speed="2.2"/>
			</extensions>
		</trkpt>
		<trkpt lat="36.660329" lon="-105.516254">
			<ele>2513.00</ele>
			<time>2019-08-22T17:24:19Z</time>
			<extensions>
				<gte:gps speed="0.0"/>
			</extensions>
		</trkpt>
		<trkpt lat="36.660359" lon="-105.516226">
			<ele>2509.00</ele>
			<time>2019-08-22T17:24:26Z</time>
			<extensions>
				<gte:gps speed="3.6"/>
			</extensions>
		</trkpt>
		<trkpt lat="36.660392" lon="-105.516205">
			<ele>2507.00</ele>
			<time>2019-08-22T17:24:31Z</time>
			<extensions>
				<gte:gps speed="3.6"/>
			</extensions>
		</trkpt>
		<trkpt lat="36.660425" lon="-105.516179">
			<ele>2505.00</ele>
			<time>2019-08-22T17:24:35Z</time>
			<extensions>
				<gte:gps speed="5.0"/>
			</extensions>
		</trkpt>
		<trkpt lat="36.660453" lon="-105.516149">
			<ele>2502.00</ele>
			<time>2019-08-22T17:24:41Z</time>
			<extensions>
				<gte:gps speed="2.2"/>
			</extensions>
		</trkpt>
		<trkpt lat="36.660494" lon="-105.516157">
			<ele>2505.00</ele>
			<time>2019-08-22T17:24:46Z</time>
			<extensions>
				<gte:gps speed="1.8"/>
			</extensions>
		</trkpt>
		<trkpt lat="36.660533" lon="-105.516163">
			<ele>2507.00</ele>
			<time>2019-08-22T17:24:50Z</time>
			<extensions>
				<gte:gps speed="2.9"/>
			</extensions>
		</trkpt>
		<trkpt lat="36.660573" lon="-105.516164">
			<ele>2506.00</ele>
			<time>2019-08-22T17:24:54Z</time>
			<extensions>
				<gte:gps speed="3.6"/>
			</extensions>
		</trkpt>
		<trkpt lat="36.660616" lon="-105.516141">
			<ele>2503.00</ele>
			<time>2019-08-22T17:24:58Z</time>
			<extensions>
				<gte:gps speed="3.2"/>
			</extensions>
		</trkpt>
		<trkpt lat="36.660662" lon="-105.516134">
			<ele>2502.00</ele>
			<time>2019-08-22T17:25:03Z</time>
			<extensions>
				<gte:gps speed="3.6"/>
			</extensions>
		</trkpt>
		<trkpt lat="36.660700" lon="-105.516155">
			<ele>2505.00</ele>
			<time>2019-08-22T17:25:09Z</time>
			<extensions>
				<gte:gps speed="2.5"/>
			</extensions>
		</trkpt>
		<trkpt lat="36.660739" lon="-105.516155">
			<ele>2502.00</ele>
			<time>2019-08-22T17:25:14Z</time>
			<extensions>
				<gte:gps speed="3.6"/>
			</extensions>
		</trkpt>
		<trkpt lat="36.660783" lon="-105.516145">
			<ele>2499.00</ele>
			<time>2019-08-22T17:25:17Z</time>
			<extensions>
				<gte:gps speed="4.0"/>
			</extensions>
		</trkpt>
		<trkpt lat="36.660823" lon="-105.516142">
			<ele>2501.00</ele>
			<time>2019-08-22T17:25:22Z</time>
			<extensions>
				<gte:gps speed="3.2"/>
			</extensions>
		</trkpt>
		<trkpt lat="36.660866" lon="-105.516150">
			<ele>2500.00</ele>
			<time>2019-08-22T17:25:27Z</time>
			<extensions>
				<gte:gps speed="4.0"/>
			</extensions>
		</trkpt>
		<trkpt lat="36.660908" lon="-105.516166">
			<ele>2500.00</ele>
			<time>2019-08-22T17:25:33Z</time>
			<extensions>
				<gte:gps speed="2.5"/>
			</extensions>
		</trkpt>
		<trkpt lat="36.660945" lon="-105.516193">
			<ele>2503.00</ele>
			<time>2019-08-22T17:25:39Z</time>
			<extensions>
				<gte:gps speed="3.2"/>
			</extensions>
		</trkpt>
		<trkpt lat="36.660981" lon="-105.516213">
			<ele>2501.00</ele>
			<time>2019-08-22T17:25:44Z</time>
			<extensions>
				<gte:gps speed="4.3"/>
			</extensions>
		</trkpt>
		<trkpt lat="36.661010" lon="-105.516240">
			<ele>2503.00</ele>
			<time>2019-08-22T17:25:48Z</time>
			<extensions>
				<gte:gps speed="3.6"/>
			</extensions>
		</trkpt>
		<trkpt lat="36.661049" lon="-105.516243">
			<ele>2503.00</ele>
			<time>2019-08-22T17:25:51Z</time>
			<extensions>
				<gte:gps speed="2.5"/>
			</extensions>
		</trkpt>
		<trkpt lat="36.661085" lon="-105.516237">
			<ele>2502.00</ele>
			<time>2019-08-22T17:25:54Z</time>
			<extensions>
				<gte:gps speed="4.0"/>
			</extensions>
		</trkpt>
		<trkpt lat="36.661122" lon="-105.516234">
			<ele>2502.00</ele>
			<time>2019-08-22T17:25:57Z</time>
			<extensions>
				<gte:gps speed="3.6"/>
			</extensions>
		</trkpt>
		<trkpt lat="36.661168" lon="-105.516230">
			<ele>2504.00</ele>
			<time>2019-08-22T17:26:01Z</time>
			<extensions>
				<gte:gps speed="3.2"/>
			</extensions>
		</trkpt>
		<trkpt lat="36.661204" lon="-105.516251">
			<ele>2504.00</ele>
			<time>2019-08-22T17:26:07Z</time>
			<extensions>
				<gte:gps speed="2.9"/>
			</extensions>
		</trkpt>
		<trkpt lat="36.661238" lon="-105.516235">
			<ele>2503.00</ele>
			<time>2019-08-22T17:26:11Z</time>
			<extensions>
				<gte:gps speed="2.2"/>
			</extensions>
		</trkpt>
		<trkpt lat="36.661278" lon="-105.516225">
			<ele>2502.00</ele>
			<time>2019-08-22T17:26:15Z</time>
			<extensions>
				<gte:gps speed="2.9"/>
			</extensions>
		</trkpt>
		<trkpt lat="36.661317" lon="-105.516213">
			<ele>2498.00</ele>
			<time>2019-08-22T17:26:23Z</time>
			<extensions>
				<gte:gps speed="2.9"/>
			</extensions>
		</trkpt>
		<trkpt lat="36.661355" lon="-105.516205">
			<ele>2500.00</ele>
			<time>2019-08-22T17:26:32Z</time>
			<extensions>
				<gte:gps speed="0.0"/>
			</extensions>
		</trkpt>
		<trkpt lat="36.661398" lon="-105.516193">
			<ele>2500.00</ele>
			<time>2019-08-22T17:27:14Z</time>
			<extensions>
				<gte:gps speed="3.6"/>
			</extensions>
		</trkpt>
		<trkpt lat="36.661434" lon="-105.516175">
			<ele>2499.00</ele>
			<time>2019-08-22T17:27:20Z</time>
			<extensions>
				<gte:gps speed="0.0"/>
			</extensions>
		</trkpt>
		<trkpt lat="36.661473" lon="-105.516184">
			<ele>2494.00</ele>
			<time>2019-08-22T17:27:55Z</time>
			<extensions>
				<gte:gps speed="2.9"/>
			</extensions>
		</trkpt>
		<trkpt lat="36.661511" lon="-105.516178">
			<ele>2495.00</ele>
			<time>2019-08-22T17:27:59Z</time>
			<extensions>
				<gte:gps speed="2.5"/>
			</extensions>
		</trkpt>
		<trkpt lat="36.661554" lon="-105.516185">
			<ele>2494.00</ele>
			<time>2019-08-22T17:28:03Z</time>
			<extensions>
				<gte:gps speed="3.6"/>
			</extensions>
		</trkpt>
		<trkpt lat="36.661594" lon="-105.516188">
			<ele>2494.00</ele>
			<time>2019-08-22T17:28:07Z</time>
			<extensions>
				<gte:gps speed="2.5"/>
			</extensions>
		</trkpt>
		<trkpt lat="36.661641" lon="-105.516184">
			<ele>2494.00</ele>
			<time>2019-08-22T17:28:11Z</time>
			<extensions>
				<gte:gps speed="4.0"/>
			</extensions>
		</trkpt>
		<trkpt lat="36.661678" lon="-105.516183">
			<ele>2492.00</ele>
			<time>2019-08-22T17:28:15Z</time>
			<extensions>
				<gte:gps speed="4.0"/>
			</extensions>
		</trkpt>
		<trkpt lat="36.661714" lon="-105.516200">
			<ele>2496.00</ele>
			<time>2019-08-22T17:28:19Z</time>
			<extensions>
				<gte:gps speed="3.6"/>
			</extensions>
		</trkpt>
		<trkpt lat="36.661758" lon="-105.516213">
			<ele>2498.00</ele>
			<time>2019-08-22T17:28:23Z</time>
			<extensions>
				<gte:gps speed="2.9"/>
			</extensions>
		</trkpt>
		<trkpt lat="36.661794" lon="-105.516200">
			<ele>2498.00</ele>
			<time>2019-08-22T17:28:27Z</time>
			<extensions>
				<gte:gps speed="3.2"/>
			</extensions>
		</trkpt>
		<trkpt lat="36.661837" lon="-105.516202">
			<ele>2497.00</ele>
			<time>2019-08-22T17:28:31Z</time>
			<extensions>
				<gte:gps speed="3.6"/>
			</extensions>
		</trkpt>
		<trkpt lat="36.661875" lon="-105.516185">
			<ele>2498.00</ele>
			<time>2019-08-22T17:28:37Z</time>
			<extensions>
				<gte:gps speed="2.5"/>
			</extensions>
		</trkpt>
		<trkpt lat="36.661914" lon="-105.516190">
			<ele>2498.00</ele>
			<time>2019-08-22T17:28:42Z</time>
			<extensions>
				<gte:gps speed="2.9"/>
			</extensions>
		</trkpt>
		<trkpt lat="36.661959" lon="-105.516184">
			<ele>2498.00</ele>
			<time>2019-08-22T17:28:46Z</time>
			<extensions>
				<gte:gps speed="2.5"/>
			</extensions>
		</trkpt>
		<trkpt lat="36.662002" lon="-105.516168">
			<ele>2500.00</ele>
			<time>2019-08-22T17:28:51Z</time>
			<extensions>
				<gte:gps speed="3.2"/>
			</extensions>
		</trkpt>
		<trkpt lat="36.662039" lon="-105.516160">
			<ele>2499.00</ele>
			<time>2019-08-22T17:28:55Z</time>
			<extensions>
				<gte:gps speed="3.2"/>
			</extensions>
		</trkpt>
		<trkpt lat="36.662073" lon="-105.516134">
			<ele>2497.00</ele>
			<time>2019-08-22T17:28:58Z</time>
			<extensions>
				<gte:gps speed="4.0"/>
			</extensions>
		</trkpt>
		<trkpt lat="36.662110" lon="-105.516110">
			<ele>2497.00</ele>
			<time>2019-08-22T17:29:02Z</time>
			<extensions>
				<gte:gps speed="2.5"/>
			</extensions>
		</trkpt>
		<trkpt lat="36.662147" lon="-105.516094">
			<ele>2499.00</ele>
			<time>2019-08-22T17:29:06Z</time>
			<extensions>
				<gte:gps speed="3.2"/>
			</extensions>
		</trkpt>
		<trkpt lat="36.662175" lon="-105.516123">
			<ele>2502.00</ele>
			<time>2019-08-22T17:29:13Z</time>
			<extensions>
				<gte:gps speed="2.5"/>
			</extensions>
		</trkpt>
		<trkpt lat="36.662210" lon="-105.516141">
			<ele>2502.00</ele>
			<time>2019-08-22T17:29:16Z</time>
			<extensions>
				<gte:gps speed="4.0"/>
			</extensions>
		</trkpt>
		<trkpt lat="36.662258" lon="-105.516131">
			<ele>2501.00</ele>
			<time>2019-08-22T17:29:20Z</time>
			<extensions>
				<gte:gps speed="3.6"/>
			</extensions>
		</trkpt>
		<trkpt lat="36.662298" lon="-105.516099">
			<ele>2497.00</ele>
			<time>2019-08-22T17:29:23Z</time>
			<extensions>
				<gte:gps speed="3.2"/>
			</extensions>
		</trkpt>
		<trkpt lat="36.662330" lon="-105.516070">
			<ele>2496.00</ele>
			<time>2019-08-22T17:29:26Z</time>
			<extensions>
				<gte:gps speed="3.2"/>
			</extensions>
		</trkpt>
		<trkpt lat="36.662362" lon="-105.516046">
			<ele>2495.00</ele>
			<time>2019-08-22T17:29:29Z</time>
			<extensions>
				<gte:gps speed="3.6"/>
			</extensions>
		</trkpt>
		<trkpt lat="36.662392" lon="-105.516018">
			<ele>2493.00</ele>
			<time>2019-08-22T17:29:32Z</time>
			<extensions>
				<gte:gps speed="3.2"/>
			</extensions>
		</trkpt>
		<trkpt lat="36.662423" lon="-105.515995">
			<ele>2492.00</ele>
			<time>2019-08-22T17:29:35Z</time>
			<extensions>
				<gte:gps speed="3.2"/>
			</extensions>
		</trkpt>
		<trkpt lat="36.662450" lon="-105.515962">
			<ele>2489.00</ele>
			<time>2019-08-22T17:29:40Z</time>
			<extensions>
				<gte:gps speed="1.1"/>
			</extensions>
		</trkpt>
		<trkpt lat="36.662465" lon="-105.515921">
			<ele>2487.00</ele>
			<time>2019-08-22T17:29:49Z</time>
			<extensions>
				<gte:gps speed="0.0"/>
			</extensions>
		</trkpt>
		<trkpt lat="36.662497" lon="-105.515896">
			<ele>2484.00</ele>
			<time>2019-08-22T17:30:08Z</time>
			<extensions>
				<gte:gps speed="2.2"/>
			</extensions>
		</trkpt>
		<trkpt lat="36.662528" lon="-105.515926">
			<ele>2482.00</ele>
			<time>2019-08-22T17:30:26Z</time>
			<extensions>
				<gte:gps speed="2.5"/>
			</extensions>
		</trkpt>
		<trkpt lat="36.662572" lon="-105.515938">
			<ele>2480.00</ele>
			<time>2019-08-22T17:30:30Z</time>
			<extensions>
				<gte:gps speed="2.2"/>
			</extensions>
		</trkpt>
		<trkpt lat="36.662607" lon="-105.515950">
			<ele>2479.00</ele>
			<time>2019-08-22T17:30:34Z</time>
			<extensions>
				<gte:gps speed="2.9"/>
			</extensions>
		</trkpt>
		<trkpt lat="36.662648" lon="-105.515940">
			<ele>2480.00</ele>
			<time>2019-08-22T17:30:40Z</time>
			<extensions>
				<gte:gps speed="2.5"/>
			</extensions>
		</trkpt>
		<trkpt lat="36.662685" lon="-105.515956">
			<ele>2483.00</ele>
			<time>2019-08-22T17:30:57Z</time>
			<extensions>
				<gte:gps speed="3.2"/>
			</extensions>
		</trkpt>
		<trkpt lat="36.662722" lon="-105.515961">
			<ele>2480.00</ele>
			<time>2019-08-22T17:31:00Z</time>
			<extensions>
				<gte:gps speed="5.8"/>
			</extensions>
		</trkpt>
		<trkpt lat="36.662760" lon="-105.515981">
			<ele>2481.00</ele>
			<time>2019-08-22T17:31:03Z</time>
			<extensions>
				<gte:gps speed="5.0"/>
			</extensions>
		</trkpt>
		<trkpt lat="36.662797" lon="-105.516007">
			<ele>2482.00</ele>
			<time>2019-08-22T17:31:07Z</time>
			<extensions>
				<gte:gps speed="4.3"/>
			</extensions>
		</trkpt>
		<trkpt lat="36.662833" lon="-105.516016">
			<ele>2481.00</ele>
			<time>2019-08-22T17:31:10Z</time>
			<extensions>
				<gte:gps speed="2.9"/>
			</extensions>
		</trkpt>
		<trkpt lat="36.662872" lon="-105.516015">
			<ele>2482.00</ele>
			<time>2019-08-22T17:31:13Z</time>
			<extensions>
				<gte:gps speed="4.3"/>
			</extensions>
		</trkpt>
		<trkpt lat="36.662921" lon="-105.516008">
			<ele>2484.00</ele>
			<time>2019-08-22T17:31:17Z</time>
			<extensions>
				<gte:gps speed="4.3"/>
			</extensions>
		</trkpt>
		<trkpt lat="36.662965" lon="-105.516018">
			<ele>2485.00</ele>
			<time>2019-08-22T17:31:22Z</time>
			<extensions>
				<gte:gps speed="2.9"/>
			</extensions>
		</trkpt>
		<trkpt lat="36.663005" lon="-105.516021">
			<ele>2486.00</ele>
			<time>2019-08-22T17:31:27Z</time>
			<extensions>
				<gte:gps speed="3.6"/>
			</extensions>
		</trkpt>
		<trkpt lat="36.663079" lon="-105.515990">
			<ele>2482.00</ele>
			<time>2019-08-22T17:31:32Z</time>
			<extensions>
				<gte:gps speed="4.0"/>
			</extensions>
		</trkpt>
		<trkpt lat="36.663123" lon="-105.515972">
			<ele>2484.00</ele>
			<time>2019-08-22T17:31:36Z</time>
			<extensions>
				<gte:gps speed="3.2"/>
			</extensions>
		</trkpt>
		<trkpt lat="36.663161" lon="-105.515985">
			<ele>2485.00</ele>
			<time>2019-08-22T17:31:41Z</time>
			<extensions>
				<gte:gps speed="2.2"/>
			</extensions>
		</trkpt>
		<trkpt lat="36.663209" lon="-105.515973">
			<ele>2484.00</ele>
			<time>2019-08-22T17:31:45Z</time>
			<extensions>
				<gte:gps speed="4.0"/>
			</extensions>
		</trkpt>
		<trkpt lat="36.663250" lon="-105.515970">
			<ele>2483.00</ele>
			<time>2019-08-22T17:31:50Z</time>
			<extensions>
				<gte:gps speed="6.5"/>
			</extensions>
		</trkpt>
		<trkpt lat="36.663288" lon="-105.515956">
			<ele>2480.00</ele>
			<time>2019-08-22T17:31:54Z</time>
			<extensions>
				<gte:gps speed="2.2"/>
			</extensions>
		</trkpt>
		<trkpt lat="36.663326" lon="-105.515970">
			<ele>2481.00</ele>
			<time>2019-08-22T17:31:58Z</time>
			<extensions>
				<gte:gps speed="1.4"/>
			</extensions>
		</trkpt>
		<trkpt lat="36.663362" lon="-105.515964">
			<ele>2481.00</ele>
			<time>2019-08-22T17:32:01Z</time>
			<extensions>
				<gte:gps speed="3.2"/>
			</extensions>
		</trkpt>
		<trkpt lat="36.663400" lon="-105.515959">
			<ele>2483.00</ele>
			<time>2019-08-22T17:32:05Z</time>
			<extensions>
				<gte:gps speed="4.0"/>
			</extensions>
		</trkpt>
		<trkpt lat="36.663441" lon="-105.515948">
			<ele>2483.00</ele>
			<time>2019-08-22T17:32:08Z</time>
			<extensions>
				<gte:gps speed="2.9"/>
			</extensions>
		</trkpt>
		<trkpt lat="36.663481" lon="-105.515951">
			<ele>2485.00</ele>
			<time>2019-08-22T17:32:11Z</time>
			<extensions>
				<gte:gps speed="5.0"/>
			</extensions>
		</trkpt>
		<trkpt lat="36.663523" lon="-105.515963">
			<ele>2488.00</ele>
			<time>2019-08-22T17:32:14Z</time>
			<extensions>
				<gte:gps speed="4.0"/>
			</extensions>
		</trkpt>
		<trkpt lat="36.663566" lon="-105.515989">
			<ele>2487.00</ele>
			<time>2019-08-22T17:32:18Z</time>
			<extensions>
				<gte:gps speed="4.3"/>
			</extensions>
		</trkpt>
		<trkpt lat="36.663589" lon="-105.516027">
			<ele>2485.00</ele>
			<time>2019-08-22T17:32:22Z</time>
			<extensions>
				<gte:gps speed="3.6"/>
			</extensions>
		</trkpt>
		<trkpt lat="36.663619" lon="-105.516061">
			<ele>2488.00</ele>
			<time>2019-08-22T17:32:25Z</time>
			<extensions>
				<gte:gps speed="3.6"/>
			</extensions>
		</trkpt>
		<trkpt lat="36.663627" lon="-105.516106">
			<ele>2486.00</ele>
			<time>2019-08-22T17:33:04Z</time>
			<extensions>
				<gte:gps speed="2.2"/>
			</extensions>
		</trkpt>
		<trkpt lat="36.663634" lon="-105.516157">
			<ele>2488.00</ele>
			<time>2019-08-22T17:33:08Z</time>
			<extensions>
				<gte:gps speed="3.2"/>
			</extensions>
		</trkpt>
		<trkpt lat="36.663659" lon="-105.516227">
			<ele>2491.00</ele>
			<time>2019-08-22T17:33:20Z</time>
			<extensions>
				<gte:gps speed="3.6"/>
			</extensions>
		</trkpt>
		<trkpt lat="36.663704" lon="-105.516240">
			<ele>2493.00</ele>
			<time>2019-08-22T17:33:25Z</time>
			<extensions>
				<gte:gps speed="3.2"/>
			</extensions>
		</trkpt>
		<trkpt lat="36.663741" lon="-105.516253">
			<ele>2492.00</ele>
			<time>2019-08-22T17:33:30Z</time>
			<extensions>
				<gte:gps speed="1.1"/>
			</extensions>
		</trkpt>
		<trkpt lat="36.663785" lon="-105.516264">
			<ele>2491.00</ele>
			<time>2019-08-22T17:33:39Z</time>
			<extensions>
				<gte:gps speed="3.2"/>
			</extensions>
		</trkpt>
		<trkpt lat="36.663826" lon="-105.516246">
			<ele>2491.00</ele>
			<time>2019-08-22T17:33:47Z</time>
			<extensions>
				<gte:gps speed="2.2"/>
			</extensions>
		</trkpt>
		<trkpt lat="36.663862" lon="-105.516236">
			<ele>2488.00</ele>
			<time>2019-08-22T17:33:52Z</time>
			<extensions>
				<gte:gps speed="2.2"/>
			</extensions>
		</trkpt>
		<trkpt lat="36.663906" lon="-105.516256">
			<ele>2489.00</ele>
			<time>2019-08-22T17:33:56Z</time>
			<extensions>
				<gte:gps speed="2.5"/>
			</extensions>
		</trkpt>
		<trkpt lat="36.663954" lon="-105.516250">
			<ele>2493.00</ele>
			<time>2019-08-22T17:34:00Z</time>
			<extensions>
				<gte:gps speed="2.9"/>
			</extensions>
		</trkpt>
		<trkpt lat="36.663989" lon="-105.516263">
			<ele>2491.00</ele>
			<time>2019-08-22T17:34:03Z</time>
			<extensions>
				<gte:gps speed="3.2"/>
			</extensions>
		</trkpt>
		<trkpt lat="36.664026" lon="-105.516283">
			<ele>2487.00</ele>
			<time>2019-08-22T17:34:07Z</time>
			<extensions>
				<gte:gps speed="2.9"/>
			</extensions>
		</trkpt>
		<trkpt lat="36.664050" lon="-105.516320">
			<ele>2485.00</ele>
			<time>2019-08-22T17:34:11Z</time>
			<extensions>
				<gte:gps speed="2.9"/>
			</extensions>
		</trkpt>
		<trkpt lat="36.664085" lon="-105.516335">
			<ele>2493.00</ele>
			<time>2019-08-22T17:34:30Z</time>
			<extensions>
				<gte:gps speed="1.8"/>
			</extensions>
		</trkpt>
		<trkpt lat="36.664119" lon="-105.516356">
			<ele>2496.00</ele>
			<time>2019-08-22T17:34:34Z</time>
			<extensions>
				<gte:gps speed="1.8"/>
			</extensions>
		</trkpt>
		<trkpt lat="36.664158" lon="-105.516333">
			<ele>2482.00</ele>
			<time>2019-08-22T17:35:01Z</time>
			<extensions>
				<gte:gps speed="0.0"/>
			</extensions>
		</trkpt>
		<trkpt lat="36.664203" lon="-105.516319">
			<ele>2488.00</ele>
			<time>2019-08-22T17:35:10Z</time>
			<extensions>
				<gte:gps speed="2.9"/>
			</extensions>
		</trkpt>
		<trkpt lat="36.664241" lon="-105.516323">
			<ele>2488.00</ele>
			<time>2019-08-22T17:35:20Z</time>
			<extensions>
				<gte:gps speed="0.0"/>
			</extensions>
		</trkpt>
		<trkpt lat="36.664271" lon="-105.516287">
			<ele>2488.00</ele>
			<time>2019-08-22T17:35:43Z</time>
			<extensions>
				<gte:gps speed="2.9"/>
			</extensions>
		</trkpt>
		<trkpt lat="36.664308" lon="-105.516299">
			<ele>2488.00</ele>
			<time>2019-08-22T17:35:46Z</time>
			<extensions>
				<gte:gps speed="2.5"/>
			</extensions>
		</trkpt>
		<trkpt lat="36.664360" lon="-105.516317">
			<ele>2486.00</ele>
			<time>2019-08-22T17:35:55Z</time>
			<extensions>
				<gte:gps speed="0.0"/>
			</extensions>
		</trkpt>
		<trkpt lat="36.664395" lon="-105.516331">
			<ele>2478.00</ele>
			<time>2019-08-22T17:36:12Z</time>
			<extensions>
				<gte:gps speed="3.2"/>
			</extensions>
		</trkpt>
		<trkpt lat="36.664429" lon="-105.516357">
			<ele>2477.00</ele>
			<time>2019-08-22T17:36:16Z</time>
			<extensions>
				<gte:gps speed="3.2"/>
			</extensions>
		</trkpt>
		<trkpt lat="36.664469" lon="-105.516380">
			<ele>2475.00</ele>
			<time>2019-08-22T17:36:20Z</time>
			<extensions>
				<gte:gps speed="4.0"/>
			</extensions>
		</trkpt>
		<trkpt lat="36.664516" lon="-105.516408">
			<ele>2474.00</ele>
			<time>2019-08-22T17:36:24Z</time>
			<extensions>
				<gte:gps speed="6.1"/>
			</extensions>
		</trkpt>
		<trkpt lat="36.664547" lon="-105.516444">
			<ele>2470.00</ele>
			<time>2019-08-22T17:36:29Z</time>
			<extensions>
				<gte:gps speed="4.3"/>
			</extensions>
		</trkpt>
		<trkpt lat="36.664588" lon="-105.516450">
			<ele>2469.00</ele>
			<time>2019-08-22T17:36:32Z</time>
			<extensions>
				<gte:gps speed="3.2"/>
			</extensions>
		</trkpt>
		<trkpt lat="36.664632" lon="-105.516455">
			<ele>2472.00</ele>
			<time>2019-08-22T17:36:35Z</time>
			<extensions>
				<gte:gps speed="4.7"/>
			</extensions>
		</trkpt>
		<trkpt lat="36.664676" lon="-105.516470">
			<ele>2475.00</ele>
			<time>2019-08-22T17:36:39Z</time>
			<extensions>
				<gte:gps speed="2.5"/>
			</extensions>
		</trkpt>
		<trkpt lat="36.664712" lon="-105.516474">
			<ele>2476.00</ele>
			<time>2019-08-22T17:36:43Z</time>
			<extensions>
				<gte:gps speed="1.8"/>
			</extensions>
		</trkpt>
		<trkpt lat="36.664753" lon="-105.516479">
			<ele>2476.00</ele>
			<time>2019-08-22T17:36:47Z</time>
			<extensions>
				<gte:gps speed="3.2"/>
			</extensions>
		</trkpt>
		<trkpt lat="36.664800" lon="-105.516488">
			<ele>2482.00</ele>
			<time>2019-08-22T17:37:02Z</time>
			<extensions>
				<gte:gps speed="4.0"/>
			</extensions>
		</trkpt>
		<trkpt lat="36.664841" lon="-105.516481">
			<ele>2477.00</ele>
			<time>2019-08-22T17:37:05Z</time>
			<extensions>
				<gte:gps speed="5.0"/>
			</extensions>
		</trkpt>
		<trkpt lat="36.664887" lon="-105.516491">
			<ele>2478.00</ele>
			<time>2019-08-22T17:37:08Z</time>
			<extensions>
				<gte:gps speed="5.8"/>
			</extensions>
		</trkpt>
		<trkpt lat="36.664934" lon="-105.516482">
			<ele>2478.00</ele>
			<time>2019-08-22T17:37:12Z</time>
			<extensions>
				<gte:gps speed="3.6"/>
			</extensions>
		</trkpt>
		<trkpt lat="36.664974" lon="-105.516472">
			<ele>2476.00</ele>
			<time>2019-08-22T17:37:15Z</time>
			<extensions>
				<gte:gps speed="4.0"/>
			</extensions>
		</trkpt>
		<trkpt lat="36.665011" lon="-105.516479">
			<ele>2478.00</ele>
			<time>2019-08-22T17:37:18Z</time>
			<extensions>
				<gte:gps speed="4.3"/>
			</extensions>
		</trkpt>
		<trkpt lat="36.665056" lon="-105.516487">
			<ele>2479.00</ele>
			<time>2019-08-22T17:37:22Z</time>
			<extensions>
				<gte:gps speed="4.0"/>
			</extensions>
		</trkpt>
		<trkpt lat="36.665092" lon="-105.516484">
			<ele>2473.00</ele>
			<time>2019-08-22T17:37:26Z</time>
			<extensions>
				<gte:gps speed="2.9"/>
			</extensions>
		</trkpt>
		<trkpt lat="36.665128" lon="-105.516472">
			<ele>2472.00</ele>
			<time>2019-08-22T17:37:35Z</time>
			<extensions>
				<gte:gps speed="1.1"/>
			</extensions>
		</trkpt>
		<trkpt lat="36.665165" lon="-105.516450">
			<ele>2471.00</ele>
			<time>2019-08-22T17:37:41Z</time>
			<extensions>
				<gte:gps speed="1.4"/>
			</extensions>
		</trkpt>
		<trkpt lat="36.665207" lon="-105.516444">
			<ele>2475.00</ele>
			<time>2019-08-22T17:37:46Z</time>
			<extensions>
				<gte:gps speed="1.8"/>
			</extensions>
		</trkpt>
		<trkpt lat="36.665251" lon="-105.516460">
			<ele>2476.00</ele>
			<time>2019-08-22T17:37:52Z</time>
			<extensions>
				<gte:gps speed="3.2"/>
			</extensions>
		</trkpt>
		<trkpt lat="36.665286" lon="-105.516476">
			<ele>2477.00</ele>
			<time>2019-08-22T17:37:57Z</time>
			<extensions>
				<gte:gps speed="1.8"/>
			</extensions>
		</trkpt>
		<trkpt lat="36.665319" lon="-105.516458">
			<ele>2471.00</ele>
			<time>2019-08-22T17:38:04Z</time>
			<extensions>
				<gte:gps speed="2.5"/>
			</extensions>
		</trkpt>
		<trkpt lat="36.665357" lon="-105.516439">
			<ele>2470.00</ele>
			<time>2019-08-22T17:38:09Z</time>
			<extensions>
				<gte:gps speed="3.2"/>
			</extensions>
		</trkpt>
		<trkpt lat="36.665402" lon="-105.516431">
			<ele>2470.00</ele>
			<time>2019-08-22T17:38:13Z</time>
			<extensions>
				<gte:gps speed="3.6"/>
			</extensions>
		</trkpt>
		<trkpt lat="36.665445" lon="-105.516431">
			<ele>2475.00</ele>
			<time>2019-08-22T17:38:23Z</time>
			<extensions>
				<gte:gps speed="2.2"/>
			</extensions>
		</trkpt>
		<trkpt lat="36.665487" lon="-105.516415">
			<ele>2476.00</ele>
			<time>2019-08-22T17:38:29Z</time>
			<extensions>
				<gte:gps speed="2.9"/>
			</extensions>
		</trkpt>
		<trkpt lat="36.665530" lon="-105.516410">
			<ele>2477.00</ele>
			<time>2019-08-22T17:38:37Z</time>
			<extensions>
				<gte:gps speed="3.2"/>
			</extensions>
		</trkpt>
		<trkpt lat="36.665572" lon="-105.516407">
			<ele>2481.00</ele>
			<time>2019-08-22T17:38:40Z</time>
			<extensions>
				<gte:gps speed="3.2"/>
			</extensions>
		</trkpt>
		<trkpt lat="36.665611" lon="-105.516425">
			<ele>2483.00</ele>
			<time>2019-08-22T17:38:44Z</time>
			<extensions>
				<gte:gps speed="2.9"/>
			</extensions>
		</trkpt>
		<trkpt lat="36.665649" lon="-105.516418">
			<ele>2487.00</ele>
			<time>2019-08-22T17:38:49Z</time>
			<extensions>
				<gte:gps speed="0.0"/>
			</extensions>
		</trkpt>
		<trkpt lat="36.665685" lon="-105.516434">
			<ele>2488.00</ele>
			<time>2019-08-22T17:39:01Z</time>
			<extensions>
				<gte:gps speed="2.2"/>
			</extensions>
		</trkpt>
		<trkpt lat="36.665723" lon="-105.516410">
			<ele>2488.00</ele>
			<time>2019-08-22T17:39:05Z</time>
			<extensions>
				<gte:gps speed="3.6"/>
			</extensions>
		</trkpt>
		<trkpt lat="36.665762" lon="-105.516383">
			<ele>2486.00</ele>
			<time>2019-08-22T17:39:09Z</time>
			<extensions>
				<gte:gps speed="3.6"/>
			</extensions>
		</trkpt>
		<trkpt lat="36.665784" lon="-105.516346">
			<ele>2478.00</ele>
			<time>2019-08-22T17:39:16Z</time>
			<extensions>
				<gte:gps speed="1.4"/>
			</extensions>
		</trkpt>
		<trkpt lat="36.665821" lon="-105.516328">
			<ele>2477.00</ele>
			<time>2019-08-22T17:39:23Z</time>
			<extensions>
				<gte:gps speed="3.6"/>
			</extensions>
		</trkpt>
		<trkpt lat="36.665860" lon="-105.516330">
			<ele>2475.00</ele>
			<time>2019-08-22T17:39:31Z</time>
			<extensions>
				<gte:gps speed="2.5"/>
			</extensions>
		</trkpt>
		<trkpt lat="36.665898" lon="-105.516322">
			<ele>2472.00</ele>
			<time>2019-08-22T17:39:34Z</time>
			<extensions>
				<gte:gps speed="1.8"/>
			</extensions>
		</trkpt>
		<trkpt lat="36.665941" lon="-105.516316">
			<ele>2476.00</ele>
			<time>2019-08-22T17:39:40Z</time>
			<extensions>
				<gte:gps speed="2.2"/>
			</extensions>
		</trkpt>
		<trkpt lat="36.665968" lon="-105.516285">
			<ele>2473.00</ele>
			<time>2019-08-22T17:39:49Z</time>
			<extensions>
				<gte:gps speed="2.5"/>
			</extensions>
		</trkpt>
		<trkpt lat="36.666007" lon="-105.516298">
			<ele>2471.00</ele>
			<time>2019-08-22T17:39:53Z</time>
			<extensions>
				<gte:gps speed="2.5"/>
			</extensions>
		</trkpt>
		<trkpt lat="36.666044" lon="-105.516304">
			<ele>2470.00</ele>
			<time>2019-08-22T17:39:58Z</time>
			<extensions>
				<gte:gps speed="2.9"/>
			</extensions>
		</trkpt>
		<trkpt lat="36.666070" lon="-105.516337">
			<ele>2467.00</ele>
			<time>2019-08-22T17:40:02Z</time>
			<extensions>
				<gte:gps speed="3.6"/>
			</extensions>
		</trkpt>
		<trkpt lat="36.666113" lon="-105.516356">
			<ele>2470.00</ele>
			<time>2019-08-22T17:40:07Z</time>
			<extensions>
				<gte:gps speed="2.9"/>
			</extensions>
		</trkpt>
		<trkpt lat="36.666146" lon="-105.516375">
			<ele>2472.00</ele>
			<time>2019-08-22T17:40:12Z</time>
			<extensions>
				<gte:gps speed="2.2"/>
			</extensions>
		</trkpt>
		<trkpt lat="36.666189" lon="-105.516394">
			<ele>2472.00</ele>
			<time>2019-08-22T17:40:17Z</time>
			<extensions>
				<gte:gps speed="4.0"/>
			</extensions>
		</trkpt>
		<trkpt lat="36.666229" lon="-105.516402">
			<ele>2473.00</ele>
			<time>2019-08-22T17:40:21Z</time>
			<extensions>
				<gte:gps speed="2.9"/>
			</extensions>
		</trkpt>
		<trkpt lat="36.666269" lon="-105.516408">
			<ele>2470.00</ele>
			<time>2019-08-22T17:40:25Z</time>
			<extensions>
				<gte:gps speed="3.2"/>
			</extensions>
		</trkpt>
		<trkpt lat="36.666312" lon="-105.516415">
			<ele>2471.00</ele>
			<time>2019-08-22T17:40:31Z</time>
			<extensions>
				<gte:gps speed="2.5"/>
			</extensions>
		</trkpt>
		<trkpt lat="36.666352" lon="-105.516418">
			<ele>2473.00</ele>
			<time>2019-08-22T17:40:35Z</time>
			<extensions>
				<gte:gps speed="3.2"/>
			</extensions>
		</trkpt>
		<trkpt lat="36.666379" lon="-105.516453">
			<ele>2472.00</ele>
			<time>2019-08-22T17:40:39Z</time>
			<extensions>
				<gte:gps speed="1.1"/>
			</extensions>
		</trkpt>
		<trkpt lat="36.666416" lon="-105.516489">
			<ele>2475.00</ele>
			<time>2019-08-22T17:40:46Z</time>
			<extensions>
				<gte:gps speed="1.8"/>
			</extensions>
		</trkpt>
		<trkpt lat="36.666456" lon="-105.516507">
			<ele>2475.00</ele>
			<time>2019-08-22T17:40:51Z</time>
			<extensions>
				<gte:gps speed="3.6"/>
			</extensions>
		</trkpt>
		<trkpt lat="36.666499" lon="-105.516529">
			<ele>2477.00</ele>
			<time>2019-08-22T17:40:54Z</time>
			<extensions>
				<gte:gps speed="4.7"/>
			</extensions>
		</trkpt>
		<trkpt lat="36.666537" lon="-105.516542">
			<ele>2479.00</ele>
			<time>2019-08-22T17:40:58Z</time>
			<extensions>
				<gte:gps speed="2.5"/>
			</extensions>
		</trkpt>
		<trkpt lat="36.666578" lon="-105.516533">
			<ele>2481.00</ele>
			<time>2019-08-22T17:41:02Z</time>
			<extensions>
				<gte:gps speed="2.2"/>
			</extensions>
		</trkpt>
		<trkpt lat="36.666623" lon="-105.516526">
			<ele>2482.00</ele>
			<time>2019-08-22T17:41:06Z</time>
			<extensions>
				<gte:gps speed="3.2"/>
			</extensions>
		</trkpt>
		<trkpt lat="36.666662" lon="-105.516510">
			<ele>2479.00</ele>
			<time>2019-08-22T17:41:10Z</time>
			<extensions>
				<gte:gps speed="2.5"/>
			</extensions>
		</trkpt>
		<trkpt lat="36.666705" lon="-105.516492">
			<ele>2480.00</ele>
			<time>2019-08-22T17:41:14Z</time>
			<extensions>
				<gte:gps speed="3.2"/>
			</extensions>
		</trkpt>
		<trkpt lat="36.666741" lon="-105.516494">
			<ele>2484.00</ele>
			<time>2019-08-22T17:41:17Z</time>
			<extensions>
				<gte:gps speed="3.2"/>
			</extensions>
		</trkpt>
		<trkpt lat="36.666778" lon="-105.516494">
			<ele>2485.00</ele>
			<time>2019-08-22T17:41:22Z</time>
			<extensions>
				<gte:gps speed="2.2"/>
			</extensions>
		</trkpt>
		<trkpt lat="36.666814" lon="-105.516483">
			<ele>2487.00</ele>
			<time>2019-08-22T17:41:26Z</time>
			<extensions>
				<gte:gps speed="2.2"/>
			</extensions>
		</trkpt>
		<trkpt lat="36.666852" lon="-105.516472">
			<ele>2484.00</ele>
			<time>2019-08-22T17:41:30Z</time>
			<extensions>
				<gte:gps speed="1.4"/>
			</extensions>
		</trkpt>
		<trkpt lat="36.666890" lon="-105.516461">
			<ele>2483.00</ele>
			<time>2019-08-22T17:41:35Z</time>
			<extensions>
				<gte:gps speed="3.6"/>
			</extensions>
		</trkpt>
		<trkpt lat="36.666923" lon="-105.516438">
			<ele>2482.00</ele>
			<time>2019-08-22T17:41:40Z</time>
			<extensions>
				<gte:gps speed="1.1"/>
			</extensions>
		</trkpt>
		<trkpt lat="36.666951" lon="-105.516398">
			<ele>2479.00</ele>
			<time>2019-08-22T17:41:45Z</time>
			<extensions>
				<gte:gps speed="4.0"/>
			</extensions>
		</trkpt>
		<trkpt lat="36.666983" lon="-105.516369">
			<ele>2478.00</ele>
			<time>2019-08-22T17:41:48Z</time>
			<extensions>
				<gte:gps speed="4.0"/>
			</extensions>
		</trkpt>
		<trkpt lat="36.667011" lon="-105.516336">
			<ele>2476.00</ele>
			<time>2019-08-22T17:41:52Z</time>
			<extensions>
				<gte:gps speed="2.5"/>
			</extensions>
		</trkpt>
		<trkpt lat="36.667035" lon="-105.516299">
			<ele>2475.00</ele>
			<time>2019-08-22T17:41:55Z</time>
			<extensions>
				<gte:gps speed="3.6"/>
			</extensions>
		</trkpt>
		<trkpt lat="36.667068" lon="-105.516260">
			<ele>2471.00</ele>
			<time>2019-08-22T17:42:01Z</time>
			<extensions>
				<gte:gps speed="3.6"/>
			</extensions>
		</trkpt>
		<trkpt lat="36.667098" lon="-105.516228">
			<ele>2469.00</ele>
			<time>2019-08-22T17:42:05Z</time>
			<extensions>
				<gte:gps speed="2.9"/>
			</extensions>
		</trkpt>
		<trkpt lat="36.667114" lon="-105.516188">
			<ele>2471.00</ele>
			<time>2019-08-22T17:42:09Z</time>
			<extensions>
				<gte:gps speed="3.2"/>
			</extensions>
		</trkpt>
		<trkpt lat="36.667134" lon="-105.516148">
			<ele>2471.00</ele>
			<time>2019-08-22T17:42:16Z</time>
			<extensions>
				<gte:gps speed="2.2"/>
			</extensions>
		</trkpt>
		<trkpt lat="36.667173" lon="-105.516126">
			<ele>2470.00</ele>
			<time>2019-08-22T17:42:27Z</time>
			<extensions>
				<gte:gps speed="2.5"/>
			</extensions>
		</trkpt>
		<trkpt lat="36.667216" lon="-105.516099">
			<ele>2471.00</ele>
			<time>2019-08-22T17:42:31Z</time>
			<extensions>
				<gte:gps speed="3.6"/>
			</extensions>
		</trkpt>
		<trkpt lat="36.667262" lon="-105.516085">
			<ele>2470.00</ele>
			<time>2019-08-22T17:42:36Z</time>
			<extensions>
				<gte:gps speed="2.9"/>
			</extensions>
		</trkpt>
		<trkpt lat="36.667301" lon="-105.516078">
			<ele>2471.00</ele>
			<time>2019-08-22T17:42:40Z</time>
			<extensions>
				<gte:gps speed="1.8"/>
			</extensions>
		</trkpt>
		<trkpt lat="36.667337" lon="-105.516061">
			<ele>2469.00</ele>
			<time>2019-08-22T17:42:44Z</time>
			<extensions>
				<gte:gps speed="4.0"/>
			</extensions>
		</trkpt>
		<trkpt lat="36.667377" lon="-105.516052">
			<ele>2470.00</ele>
			<time>2019-08-22T17:42:48Z</time>
			<extensions>
				<gte:gps speed="3.2"/>
			</extensions>
		</trkpt>
		<trkpt lat="36.667419" lon="-105.516061">
			<ele>2472.00</ele>
			<time>2019-08-22T17:42:53Z</time>
			<extensions>
				<gte:gps speed="4.0"/>
			</extensions>
		</trkpt>
		<trkpt lat="36.667461" lon="-105.516068">
			<ele>2473.00</ele>
			<time>2019-08-22T17:42:59Z</time>
			<extensions>
				<gte:gps speed="1.8"/>
			</extensions>
		</trkpt>
		<trkpt lat="36.667500" lon="-105.516062">
			<ele>2476.00</ele>
			<time>2019-08-22T17:43:03Z</time>
			<extensions>
				<gte:gps speed="2.2"/>
			</extensions>
		</trkpt>
		<trkpt lat="36.667539" lon="-105.516071">
			<ele>2473.00</ele>
			<time>2019-08-22T17:43:07Z</time>
			<extensions>
				<gte:gps speed="3.2"/>
			</extensions>
		</trkpt>
		<trkpt lat="36.667585" lon="-105.516075">
			<ele>2477.00</ele>
			<time>2019-08-22T17:43:11Z</time>
			<extensions>
				<gte:gps speed="3.6"/>
			</extensions>
		</trkpt>
		<trkpt lat="36.667626" lon="-105.516052">
			<ele>2474.00</ele>
			<time>2019-08-22T17:43:15Z</time>
			<extensions>
				<gte:gps speed="3.2"/>
			</extensions>
		</trkpt>
		<trkpt lat="36.667664" lon="-105.516026">
			<ele>2469.00</ele>
			<time>2019-08-22T17:43:20Z</time>
			<extensions>
				<gte:gps speed="2.9"/>
			</extensions>
		</trkpt>
		<trkpt lat="36.667679" lon="-105.515978">
			<ele>2463.00</ele>
			<time>2019-08-22T17:43:25Z</time>
			<extensions>
				<gte:gps speed="2.2"/>
			</extensions>
		</trkpt>
		<trkpt lat="36.667669" lon="-105.515930">
			<ele>2457.00</ele>
			<time>2019-08-22T17:43:29Z</time>
			<extensions>
				<gte:gps speed="2.9"/>
			</extensions>
		</trkpt>
		<trkpt lat="36.667681" lon="-105.515885">
			<ele>2455.00</ele>
			<time>2019-08-22T17:43:33Z</time>
			<extensions>
				<gte:gps speed="1.4"/>
			</extensions>
		</trkpt>
		<trkpt lat="36.667714" lon="-105.515857">
			<ele>2454.00</ele>
			<time>2019-08-22T17:43:39Z</time>
			<extensions>
				<gte:gps speed="0.7"/>
			</extensions>
		</trkpt>
		<trkpt lat="36.667748" lon="-105.515841">
			<ele>2453.00</ele>
			<time>2019-08-22T17:44:11Z</time>
			<extensions>
				<gte:gps speed="2.5"/>
			</extensions>
		</trkpt>
		<trkpt lat="36.667776" lon="-105.515788">
			<ele>2451.00</ele>
			<time>2019-08-22T17:44:16Z</time>
			<extensions>
				<gte:gps speed="4.3"/>
			</extensions>
		</trkpt>
		<trkpt lat="36.667793" lon="-105.515748">
			<ele>2450.00</ele>
			<time>2019-08-22T17:44:21Z</time>
			<extensions>
				<gte:gps speed="3.2"/>
			</extensions>
		</trkpt>
		<trkpt lat="36.667814" lon="-105.515701">
			<ele>2449.00</ele>
			<time>2019-08-22T17:44:26Z</time>
			<extensions>
				<gte:gps speed="3.2"/>
			</extensions>
		</trkpt>
		<trkpt lat="36.667850" lon="-105.515688">
			<ele>2450.00</ele>
			<time>2019-08-22T17:44:31Z</time>
			<extensions>
				<gte:gps speed="2.9"/>
			</extensions>
		</trkpt>
		<trkpt lat="36.667893" lon="-105.515694">
			<ele>2455.00</ele>
			<time>2019-08-22T17:44:37Z</time>
			<extensions>
				<gte:gps speed="3.6"/>
			</extensions>
		</trkpt>
		<trkpt lat="36.667933" lon="-105.515669">
			<ele>2455.00</ele>
			<time>2019-08-22T17:44:42Z</time>
			<extensions>
				<gte:gps speed="4.0"/>
			</extensions>
		</trkpt>
		<trkpt lat="36.667969" lon="-105.515653">
			<ele>2452.00</ele>
			<time>2019-08-22T17:44:47Z</time>
			<extensions>
				<gte:gps speed="3.2"/>
			</extensions>
		</trkpt>
		<trkpt lat="36.668002" lon="-105.515619">
			<ele>2451.00</ele>
			<time>2019-08-22T17:44:51Z</time>
			<extensions>
				<gte:gps speed="3.6"/>
			</extensions>
		</trkpt>
		<trkpt lat="36.668031" lon="-105.515592">
			<ele>2450.00</ele>
			<time>2019-08-22T17:44:57Z</time>
			<extensions>
				<gte:gps speed="0.7"/>
			</extensions>
		</trkpt>
		<trkpt lat="36.668067" lon="-105.515569">
			<ele>2452.00</ele>
			<time>2019-08-22T17:45:03Z</time>
			<extensions>
				<gte:gps speed="2.2"/>
			</extensions>
		</trkpt>
		<trkpt lat="36.668092" lon="-105.515529">
			<ele>2448.00</ele>
			<time>2019-08-22T17:45:07Z</time>
			<extensions>
				<gte:gps speed="2.9"/>
			</extensions>
		</trkpt>
		<trkpt lat="36.668121" lon="-105.515501">
			<ele>2448.00</ele>
			<time>2019-08-22T17:45:12Z</time>
			<extensions>
				<gte:gps speed="1.4"/>
			</extensions>
		</trkpt>
		<trkpt lat="36.668150" lon="-105.515470">
			<ele>2447.00</ele>
			<time>2019-08-22T17:45:17Z</time>
			<extensions>
				<gte:gps speed="2.5"/>
			</extensions>
		</trkpt>
		<trkpt lat="36.668185" lon="-105.515433">
			<ele>2447.00</ele>
			<time>2019-08-22T17:45:22Z</time>
			<extensions>
				<gte:gps speed="3.6"/>
			</extensions>
		</trkpt>
		<trkpt lat="36.668214" lon="-105.515396">
			<ele>2444.00</ele>
			<time>2019-08-22T17:45:26Z</time>
			<extensions>
				<gte:gps speed="2.9"/>
			</extensions>
		</trkpt>
		<trkpt lat="36.668236" lon="-105.515359">
			<ele>2443.00</ele>
			<time>2019-08-22T17:45:29Z</time>
			<extensions>
				<gte:gps speed="4.3"/>
			</extensions>
		</trkpt>
		<trkpt lat="36.668245" lon="-105.515315">
			<ele>2441.00</ele>
			<time>2019-08-22T17:45:33Z</time>
			<extensions>
				<gte:gps speed="1.4"/>
			</extensions>
		</trkpt>
		<trkpt lat="36.668284" lon="-105.515293">
			<ele>2439.00</ele>
			<time>2019-08-22T17:45:46Z</time>
			<extensions>
				<gte:gps speed="2.5"/>
			</extensions>
		</trkpt>
		<trkpt lat="36.668323" lon="-105.515278">
			<ele>2444.00</ele>
			<time>2019-08-22T17:45:52Z</time>
			<extensions>
				<gte:gps speed="1.8"/>
			</extensions>
		</trkpt>
		<trkpt lat="36.668360" lon="-105.515261">
			<ele>2446.00</ele>
			<time>2019-08-22T17:45:58Z</time>
			<extensions>
				<gte:gps speed="2.2"/>
			</extensions>
		</trkpt>
		<trkpt lat="36.668396" lon="-105.515269">
			<ele>2450.00</ele>
			<time>2019-08-22T17:46:23Z</time>
			<extensions>
				<gte:gps speed="2.2"/>
			</extensions>
		</trkpt>
		<trkpt lat="36.668438" lon="-105.515282">
			<ele>2448.00</ele>
			<time>2019-08-22T17:46:30Z</time>
			<extensions>
				<gte:gps speed="3.2"/>
			</extensions>
		</trkpt>
		<trkpt lat="36.668482" lon="-105.515291">
			<ele>2452.00</ele>
			<time>2019-08-22T17:46:34Z</time>
			<extensions>
				<gte:gps speed="2.9"/>
			</extensions>
		</trkpt>
		<trkpt lat="36.668523" lon="-105.515299">
			<ele>2455.00</ele>
			<time>2019-08-22T17:46:40Z</time>
			<extensions>
				<gte:gps speed="3.2"/>
			</extensions>
		</trkpt>
		<trkpt lat="36.668557" lon="-105.515314">
			<ele>2454.00</ele>
			<time>2019-08-22T17:46:48Z</time>
			<extensions>
				<gte:gps speed="1.4"/>
			</extensions>
		</trkpt>
		<trkpt lat="36.668600" lon="-105.515315">
			<ele>2453.00</ele>
			<time>2019-08-22T17:46:58Z</time>
			<extensions>
				<gte:gps speed="2.2"/>
			</extensions>
		</trkpt>
		<trkpt lat="36.668631" lon="-105.515344">
			<ele>2453.00</ele>
			<time>2019-08-22T17:47:12Z</time>
			<extensions>
				<gte:gps speed="1.8"/>
			</extensions>
		</trkpt>
		<trkpt lat="36.668675" lon="-105.515350">
			<ele>2451.00</ele>
			<time>2019-08-22T17:47:24Z</time>
			<extensions>
				<gte:gps speed="1.8"/>
			</extensions>
		</trkpt>
		<trkpt lat="36.668713" lon="-105.515355">
			<ele>2448.00</ele>
			<time>2019-08-22T17:47:29Z</time>
			<extensions>
				<gte:gps speed="2.2"/>
			</extensions>
		</trkpt>
		<trkpt lat="36.668762" lon="-105.515341">
			<ele>2447.00</ele>
			<time>2019-08-22T17:47:33Z</time>
			<extensions>
				<gte:gps speed="3.2"/>
			</extensions>
		</trkpt>
		<trkpt lat="36.668798" lon="-105.515351">
			<ele>2445.00</ele>
			<time>2019-08-22T17:47:38Z</time>
			<extensions>
				<gte:gps speed="2.5"/>
			</extensions>
		</trkpt>
		<trkpt lat="36.668830" lon="-105.515386">
			<ele>2448.00</ele>
			<time>2019-08-22T17:47:43Z</time>
			<extensions>
				<gte:gps speed="2.5"/>
			</extensions>
		</trkpt>
		<trkpt lat="36.668865" lon="-105.515410">
			<ele>2450.00</ele>
			<time>2019-08-22T17:47:49Z</time>
			<extensions>
				<gte:gps speed="1.8"/>
			</extensions>
		</trkpt>
		<trkpt lat="36.668889" lon="-105.515451">
			<ele>2450.00</ele>
			<time>2019-08-22T17:47:58Z</time>
			<extensions>
				<gte:gps speed="1.8"/>
			</extensions>
		</trkpt>
		<trkpt lat="36.668934" lon="-105.515465">
			<ele>2453.00</ele>
			<time>2019-08-22T17:48:03Z</time>
			<extensions>
				<gte:gps speed="3.2"/>
			</extensions>
		</trkpt>
		<trkpt lat="36.668974" lon="-105.515459">
			<ele>2450.00</ele>
			<time>2019-08-22T17:48:06Z</time>
			<extensions>
				<gte:gps speed="3.2"/>
			</extensions>
		</trkpt>
		<trkpt lat="36.669017" lon="-105.515441">
			<ele>2449.00</ele>
			<time>2019-08-22T17:48:10Z</time>
			<extensions>
				<gte:gps speed="4.0"/>
			</extensions>
		</trkpt>
		<trkpt lat="36.669059" lon="-105.515456">
			<ele>2448.00</ele>
			<time>2019-08-22T17:48:13Z</time>
			<extensions>
				<gte:gps speed="4.7"/>
			</extensions>
		</trkpt>
		<trkpt lat="36.669104" lon="-105.515463">
			<ele>2448.00</ele>
			<time>2019-08-22T17:48:16Z</time>
			<extensions>
				<gte:gps speed="4.0"/>
			</extensions>
		</trkpt>
		<trkpt lat="36.669156" lon="-105.515480">
			<ele>2449.00</ele>
			<time>2019-08-22T17:48:20Z</time>
			<extensions>
				<gte:gps speed="2.5"/>
			</extensions>
		</trkpt>
		<trkpt lat="36.669191" lon="-105.515455">
			<ele>2446.00</ele>
			<time>2019-08-22T17:48:23Z</time>
			<extensions>
				<gte:gps speed="4.3"/>
			</extensions>
		</trkpt>
		<trkpt lat="36.669235" lon="-105.515452">
			<ele>2444.00</ele>
			<time>2019-08-22T17:48:28Z</time>
			<extensions>
				<gte:gps speed="2.9"/>
			</extensions>
		</trkpt>
		<trkpt lat="36.669272" lon="-105.515442">
			<ele>2443.00</ele>
			<time>2019-08-22T17:48:31Z</time>
			<extensions>
				<gte:gps speed="2.9"/>
			</extensions>
		</trkpt>
		<trkpt lat="36.669307" lon="-105.515423">
			<ele>2440.00</ele>
			<time>2019-08-22T17:48:34Z</time>
			<extensions>
				<gte:gps speed="3.2"/>
			</extensions>
		</trkpt>
		<trkpt lat="36.669353" lon="-105.515436">
			<ele>2438.00</ele>
			<time>2019-08-22T17:48:38Z</time>
			<extensions>
				<gte:gps speed="2.5"/>
			</extensions>
		</trkpt>
		<trkpt lat="36.669392" lon="-105.515434">
			<ele>2438.00</ele>
			<time>2019-08-22T17:48:41Z</time>
			<extensions>
				<gte:gps speed="2.9"/>
			</extensions>
		</trkpt>
		<trkpt lat="36.669420" lon="-105.515464">
			<ele>2442.00</ele>
			<time>2019-08-22T17:48:45Z</time>
			<extensions>
				<gte:gps speed="2.2"/>
			</extensions>
		</trkpt>
		<trkpt lat="36.669457" lon="-105.515481">
			<ele>2441.00</ele>
			<time>2019-08-22T17:48:49Z</time>
			<extensions>
				<gte:gps speed="3.2"/>
			</extensions>
		</trkpt>
		<trkpt lat="36.669489" lon="-105.515506">
			<ele>2441.00</ele>
			<time>2019-08-22T17:48:52Z</time>
			<extensions>
				<gte:gps speed="3.6"/>
			</extensions>
		</trkpt>
		<trkpt lat="36.669525" lon="-105.515523">
			<ele>2442.00</ele>
			<time>2019-08-22T17:48:56Z</time>
			<extensions>
				<gte:gps speed="2.9"/>
			</extensions>
		</trkpt>
		<trkpt lat="36.669568" lon="-105.515550">
			<ele>2442.00</ele>
			<time>2019-08-22T17:49:01Z</time>
			<extensions>
				<gte:gps speed="3.2"/>
			</extensions>
		</trkpt>
		<trkpt lat="36.669595" lon="-105.515584">
			<ele>2445.00</ele>
			<time>2019-08-22T17:49:16Z</time>
			<extensions>
				<gte:gps speed="3.2"/>
			</extensions>
		</trkpt>
		<trkpt lat="36.669595" lon="-105.515633">
			<ele>2442.00</ele>
			<time>2019-08-22T17:49:26Z</time>
			<extensions>
				<gte:gps speed="2.9"/>
			</extensions>
		</trkpt>
		<trkpt lat="36.669624" lon="-105.515672">
			<ele>2441.00</ele>
			<time>2019-08-22T17:49:34Z</time>
			<extensions>
				<gte:gps speed="2.2"/>
			</extensions>
		</trkpt>
		<trkpt lat="36.669656" lon="-105.515694">
			<ele>2439.00</ele>
			<time>2019-08-22T17:49:38Z</time>
			<extensions>
				<gte:gps speed="3.2"/>
			</extensions>
		</trkpt>
		<trkpt lat="36.669691" lon="-105.515713">
			<ele>2437.00</ele>
			<time>2019-08-22T17:49:41Z</time>
			<extensions>
				<gte:gps speed="4.0"/>
			</extensions>
		</trkpt>
		<trkpt lat="36.669726" lon="-105.515747">
			<ele>2437.00</ele>
			<time>2019-08-22T17:49:44Z</time>
			<extensions>
				<gte:gps speed="3.6"/>
			</extensions>
		</trkpt>
		<trkpt lat="36.669751" lon="-105.515795">
			<ele>2437.00</ele>
			<time>2019-08-22T17:49:47Z</time>
			<extensions>
				<gte:gps speed="4.7"/>
			</extensions>
		</trkpt>
		<trkpt lat="36.669787" lon="-105.515810">
			<ele>2438.00</ele>
			<time>2019-08-22T17:49:50Z</time>
			<extensions>
				<gte:gps speed="2.2"/>
			</extensions>
		</trkpt>
		<trkpt lat="36.669820" lon="-105.515837">
			<ele>2436.00</ele>
			<time>2019-08-22T17:49:56Z</time>
			<extensions>
				<gte:gps speed="2.2"/>
			</extensions>
		</trkpt>
		<trkpt lat="36.669861" lon="-105.515846">
			<ele>2438.00</ele>
			<time>2019-08-22T17:49:59Z</time>
			<extensions>
				<gte:gps speed="3.6"/>
			</extensions>
		</trkpt>
		<trkpt lat="36.669908" lon="-105.515838">
			<ele>2436.00</ele>
			<time>2019-08-22T17:50:06Z</time>
			<extensions>
				<gte:gps speed="3.6"/>
			</extensions>
		</trkpt>
		<trkpt lat="36.669942" lon="-105.515855">
			<ele>2436.00</ele>
			<time>2019-08-22T17:50:10Z</time>
			<extensions>
				<gte:gps speed="2.9"/>
			</extensions>
		</trkpt>
		<trkpt lat="36.669984" lon="-105.515829">
			<ele>2435.00</ele>
			<time>2019-08-22T17:50:14Z</time>
			<extensions>
				<gte:gps speed="3.6"/>
			</extensions>
		</trkpt>
		<trkpt lat="36.670031" lon="-105.515818">
			<ele>2436.00</ele>
			<time>2019-08-22T17:50:18Z</time>
			<extensions>
				<gte:gps speed="3.2"/>
			</extensions>
		</trkpt>
		<trkpt lat="36.670069" lon="-105.515807">
			<ele>2436.00</ele>
			<time>2019-08-22T17:50:22Z</time>
			<extensions>
				<gte:gps speed="2.5"/>
			</extensions>
		</trkpt>
		<trkpt lat="36.670109" lon="-105.515786">
			<ele>2437.00</ele>
			<time>2019-08-22T17:50:26Z</time>
			<extensions>
				<gte:gps speed="3.6"/>
			</extensions>
		</trkpt>
		<trkpt lat="36.670150" lon="-105.515769">
			<ele>2437.00</ele>
			<time>2019-08-22T17:50:30Z</time>
			<extensions>
				<gte:gps speed="2.9"/>
			</extensions>
		</trkpt>
		<trkpt lat="36.670188" lon="-105.515765">
			<ele>2439.00</ele>
			<time>2019-08-22T17:50:34Z</time>
			<extensions>
				<gte:gps speed="3.6"/>
			</extensions>
		</trkpt>
		<trkpt lat="36.670224" lon="-105.515757">
			<ele>2439.00</ele>
			<time>2019-08-22T17:50:37Z</time>
			<extensions>
				<gte:gps speed="5.0"/>
			</extensions>
		</trkpt>
		<trkpt lat="36.670289" lon="-105.515713">
			<ele>2435.00</ele>
			<time>2019-08-22T17:50:42Z</time>
			<extensions>
				<gte:gps speed="4.3"/>
			</extensions>
		</trkpt>
		<trkpt lat="36.670328" lon="-105.515687">
			<ele>2435.00</ele>
			<time>2019-08-22T17:50:46Z</time>
			<extensions>
				<gte:gps speed="4.0"/>
			</extensions>
		</trkpt>
		<trkpt lat="36.670364" lon="-105.515663">
			<ele>2434.00</ele>
			<time>2019-08-22T17:50:49Z</time>
			<extensions>
				<gte:gps speed="2.9"/>
			</extensions>
		</trkpt>
		<trkpt lat="36.670401" lon="-105.515654">
			<ele>2435.00</ele>
			<time>2019-08-22T17:50:53Z</time>
			<extensions>
				<gte:gps speed="5.0"/>
			</extensions>
		</trkpt>
		<trkpt lat="36.670439" lon="-105.515645">
			<ele>2437.00</ele>
			<time>2019-08-22T17:50:57Z</time>
			<extensions>
				<gte:gps speed="3.2"/>
			</extensions>
		</trkpt>
		<trkpt lat="36.670481" lon="-105.515638">
			<ele>2441.00</ele>
			<time>2019-08-22T17:51:00Z</time>
			<extensions>
				<gte:gps speed="5.8"/>
			</extensions>
		</trkpt>
		<trkpt lat="36.670519" lon="-105.515610">
			<ele>2438.00</ele>
			<time>2019-08-22T17:51:05Z</time>
			<extensions>
				<gte:gps speed="2.9"/>
			</extensions>
		</trkpt>
		<trkpt lat="36.670555" lon="-105.515581">
			<ele>2436.00</ele>
			<time>2019-08-22T17:51:09Z</time>
			<extensions>
				<gte:gps speed="3.2"/>
			</extensions>
		</trkpt>
		<trkpt lat="36.670591" lon="-105.515577">
			<ele>2436.00</ele>
			<time>2019-08-22T17:51:12Z</time>
			<extensions>
				<gte:gps speed="3.2"/>
			</extensions>
		</trkpt>
		<trkpt lat="36.670627" lon="-105.515580">
			<ele>2437.00</ele>
			<time>2019-08-22T17:51:16Z</time>
			<extensions>
				<gte:gps speed="1.8"/>
			</extensions>
		</trkpt>
		<trkpt lat="36.670664" lon="-105.515595">
			<ele>2437.00</ele>
			<time>2019-08-22T17:51:22Z</time>
			<extensions>
				<gte:gps speed="2.9"/>
			</extensions>
		</trkpt>
		<trkpt lat="36.670703" lon="-105.515580">
			<ele>2435.00</ele>
			<time>2019-08-22T17:51:27Z</time>
			<extensions>
				<gte:gps speed="2.2"/>
			</extensions>
		</trkpt>
		<trkpt lat="36.670740" lon="-105.515586">
			<ele>2433.00</ele>
			<time>2019-08-22T17:51:32Z</time>
			<extensions>
				<gte:gps speed="2.9"/>
			</extensions>
		</trkpt>
		<trkpt lat="36.670779" lon="-105.515593">
			<ele>2430.00</ele>
			<time>2019-08-22T17:51:36Z</time>
			<extensions>
				<gte:gps speed="2.2"/>
			</extensions>
		</trkpt>
		<trkpt lat="36.670822" lon="-105.515583">
			<ele>2432.00</ele>
			<time>2019-08-22T17:51:43Z</time>
			<extensions>
				<gte:gps speed="2.2"/>
			</extensions>
		</trkpt>
		<trkpt lat="36.670818" lon="-105.515587">
			<ele>2432.00</ele>
			<time>2019-08-22T17:52:33Z</time>
			<extensions>
				<gte:gps speed="0.0"/>
			</extensions>
		</trkpt>
		<trkpt lat="36.670814" lon="-105.515634">
			<ele>2435.00</ele>
			<time>2019-08-22T17:52:39Z</time>
			<extensions>
				<gte:gps speed="3.2"/>
			</extensions>
		</trkpt>
		<trkpt lat="36.670795" lon="-105.515686">
			<ele>2436.00</ele>
			<time>2019-08-22T17:52:43Z</time>
			<extensions>
				<gte:gps speed="2.5"/>
			</extensions>
		</trkpt>
		<trkpt lat="36.670787" lon="-105.515733">
			<ele>2440.00</ele>
			<time>2019-08-22T17:52:46Z</time>
			<extensions>
				<gte:gps speed="3.2"/>
			</extensions>
		</trkpt>
		<trkpt lat="36.670804" lon="-105.515778">
			<ele>2441.00</ele>
			<time>2019-08-22T17:52:50Z</time>
			<extensions>
				<gte:gps speed="2.2"/>
			</extensions>
		</trkpt>
		<trkpt lat="36.670804" lon="-105.515831">
			<ele>2444.00</ele>
			<time>2019-08-22T17:52:54Z</time>
			<extensions>
				<gte:gps speed="2.2"/>
			</extensions>
		</trkpt>
		<trkpt lat="36.670837" lon="-105.515874">
			<ele>2447.00</ele>
			<time>2019-08-22T17:53:01Z</time>
			<extensions>
				<gte:gps speed="2.5"/>
			</extensions>
		</trkpt>
		<trkpt lat="36.670856" lon="-105.515914">
			<ele>2449.00</ele>
			<time>2019-08-22T17:53:04Z</time>
			<extensions>
				<gte:gps speed="2.2"/>
			</extensions>
		</trkpt>
		<trkpt lat="36.670894" lon="-105.515926">
			<ele>2451.00</ele>
			<time>2019-08-22T17:53:08Z</time>
			<extensions>
				<gte:gps speed="2.9"/>
			</extensions>
		</trkpt>
		<trkpt lat="36.670929" lon="-105.515957">
			<ele>2449.00</ele>
			<time>2019-08-22T17:53:11Z</time>
			<extensions>
				<gte:gps speed="2.2"/>
			</extensions>
		</trkpt>
		<trkpt lat="36.670960" lon="-105.515981">
			<ele>2443.00</ele>
			<time>2019-08-22T17:53:19Z</time>
			<extensions>
				<gte:gps speed="2.5"/>
			</extensions>
		</trkpt>
		<trkpt lat="36.671001" lon="-105.516001">
			<ele>2448.00</ele>
			<time>2019-08-22T17:53:24Z</time>
			<extensions>
				<gte:gps speed="2.2"/>
			</extensions>
		</trkpt>
		<trkpt lat="36.671037" lon="-105.516000">
			<ele>2450.00</ele>
			<time>2019-08-22T17:53:28Z</time>
			<extensions>
				<gte:gps speed="2.5"/>
			</extensions>
		</trkpt>
		<trkpt lat="36.671076" lon="-105.515992">
			<ele>2450.00</ele>
			<time>2019-08-22T17:53:32Z</time>
			<extensions>
				<gte:gps speed="2.2"/>
			</extensions>
		</trkpt>
		<trkpt lat="36.671118" lon="-105.516002">
			<ele>2450.00</ele>
			<time>2019-08-22T17:53:35Z</time>
			<extensions>
				<gte:gps speed="4.0"/>
			</extensions>
		</trkpt>
		<trkpt lat="36.671132" lon="-105.516046">
			<ele>2447.00</ele>
			<time>2019-08-22T17:53:42Z</time>
			<extensions>
				<gte:gps speed="3.2"/>
			</extensions>
		</trkpt>
		<trkpt lat="36.671152" lon="-105.516085">
			<ele>2448.00</ele>
			<time>2019-08-22T17:53:48Z</time>
			<extensions>
				<gte:gps speed="1.8"/>
			</extensions>
		</trkpt>
		<trkpt lat="36.671188" lon="-105.516117">
			<ele>2447.00</ele>
			<time>2019-08-22T17:53:52Z</time>
			<extensions>
				<gte:gps speed="1.8"/>
			</extensions>
		</trkpt>
		<trkpt lat="36.671223" lon="-105.516129">
			<ele>2447.00</ele>
			<time>2019-08-22T17:53:58Z</time>
			<extensions>
				<gte:gps speed="1.8"/>
			</extensions>
		</trkpt>
		<trkpt lat="36.671274" lon="-105.516132">
			<ele>2448.00</ele>
			<time>2019-08-22T17:54:03Z</time>
			<extensions>
				<gte:gps speed="3.2"/>
			</extensions>
		</trkpt>
		<trkpt lat="36.671311" lon="-105.516137">
			<ele>2451.00</ele>
			<time>2019-08-22T17:54:07Z</time>
			<extensions>
				<gte:gps speed="2.9"/>
			</extensions>
		</trkpt>
		<trkpt lat="36.671353" lon="-105.516135">
			<ele>2451.00</ele>
			<time>2019-08-22T17:54:11Z</time>
			<extensions>
				<gte:gps speed="3.2"/>
			</extensions>
		</trkpt>
		<trkpt lat="36.671384" lon="-105.516162">
			<ele>2448.00</ele>
			<time>2019-08-22T17:54:16Z</time>
			<extensions>
				<gte:gps speed="2.2"/>
			</extensions>
		</trkpt>
		<trkpt lat="36.671423" lon="-105.516168">
			<ele>2446.00</ele>
			<time>2019-08-22T17:54:21Z</time>
			<extensions>
				<gte:gps speed="2.5"/>
			</extensions>
		</trkpt>
		<trkpt lat="36.671461" lon="-105.516174">
			<ele>2449.00</ele>
			<time>2019-08-22T17:54:25Z</time>
			<extensions>
				<gte:gps speed="3.6"/>
			</extensions>
		</trkpt>
		<trkpt lat="36.671506" lon="-105.516172">
			<ele>2448.00</ele>
			<time>2019-08-22T17:54:30Z</time>
			<extensions>
				<gte:gps speed="2.9"/>
			</extensions>
		</trkpt>
		<trkpt lat="36.671543" lon="-105.516204">
			<ele>2449.00</ele>
			<time>2019-08-22T17:54:34Z</time>
			<extensions>
				<gte:gps speed="3.2"/>
			</extensions>
		</trkpt>
		<trkpt lat="36.671581" lon="-105.516193">
			<ele>2441.00</ele>
			<time>2019-08-22T17:54:56Z</time>
			<extensions>
				<gte:gps speed="2.9"/>
			</extensions>
		</trkpt>
		<trkpt lat="36.671614" lon="-105.516229">
			<ele>2440.00</ele>
			<time>2019-08-22T17:55:04Z</time>
			<extensions>
				<gte:gps speed="3.2"/>
			</extensions>
		</trkpt>
		<trkpt lat="36.671648" lon="-105.516248">
			<ele>2441.00</ele>
			<time>2019-08-22T17:55:08Z</time>
			<extensions>
				<gte:gps speed="2.9"/>
			</extensions>
		</trkpt>
		<trkpt lat="36.671684" lon="-105.516279">
			<ele>2439.00</ele>
			<time>2019-08-22T17:55:13Z</time>
			<extensions>
				<gte:gps speed="3.6"/>
			</extensions>
		</trkpt>
		<trkpt lat="36.671726" lon="-105.516300">
			<ele>2439.00</ele>
			<time>2019-08-22T17:55:17Z</time>
			<extensions>
				<gte:gps speed="2.9"/>
			</extensions>
		</trkpt>
		<trkpt lat="36.671768" lon="-105.516326">
			<ele>2443.00</ele>
			<time>2019-08-22T17:55:21Z</time>
			<extensions>
				<gte:gps speed="2.9"/>
			</extensions>
		</trkpt>
		<trkpt lat="36.671798" lon="-105.516364">
			<ele>2443.00</ele>
			<time>2019-08-22T17:55:26Z</time>
			<extensions>
				<gte:gps speed="5.0"/>
			</extensions>
		</trkpt>
		<trkpt lat="36.671845" lon="-105.516368">
			<ele>2439.00</ele>
			<time>2019-08-22T17:55:31Z</time>
			<extensions>
				<gte:gps speed="3.2"/>
			</extensions>
		</trkpt>
		<trkpt lat="36.671872" lon="-105.516402">
			<ele>2435.00</ele>
			<time>2019-08-22T17:55:35Z</time>
			<extensions>
				<gte:gps speed="4.0"/>
			</extensions>
		</trkpt>
		<trkpt lat="36.671907" lon="-105.516429">
			<ele>2436.00</ele>
			<time>2019-08-22T17:55:41Z</time>
			<extensions>
				<gte:gps speed="3.6"/>
			</extensions>
		</trkpt>
		<trkpt lat="36.671932" lon="-105.516467">
			<ele>2434.00</ele>
			<time>2019-08-22T17:55:45Z</time>
			<extensions>
				<gte:gps speed="3.6"/>
			</extensions>
		</trkpt>
		<trkpt lat="36.671969" lon="-105.516463">
			<ele>2436.00</ele>
			<time>2019-08-22T17:55:48Z</time>
			<extensions>
				<gte:gps speed="1.4"/>
			</extensions>
		</trkpt>
		<trkpt lat="36.672016" lon="-105.516454">
			<ele>2437.00</ele>
			<time>2019-08-22T17:55:56Z</time>
			<extensions>
				<gte:gps speed="2.9"/>
			</extensions>
		</trkpt>
		<trkpt lat="36.672055" lon="-105.516474">
			<ele>2436.00</ele>
			<time>2019-08-22T17:56:00Z</time>
			<extensions>
				<gte:gps speed="3.6"/>
			</extensions>
		</trkpt>
		<trkpt lat="36.672091" lon="-105.516462">
			<ele>2436.00</ele>
			<time>2019-08-22T17:56:03Z</time>
			<extensions>
				<gte:gps speed="3.2"/>
			</extensions>
		</trkpt>
		<trkpt lat="36.672131" lon="-105.516454">
			<ele>2437.00</ele>
			<time>2019-08-22T17:56:09Z</time>
			<extensions>
				<gte:gps speed="3.2"/>
			</extensions>
		</trkpt>
		<trkpt lat="36.672165" lon="-105.516432">
			<ele>2435.00</ele>
			<time>2019-08-22T17:56:14Z</time>
			<extensions>
				<gte:gps speed="1.4"/>
			</extensions>
		</trkpt>
		<trkpt lat="36.672196" lon="-105.516397">
			<ele>2433.00</ele>
			<time>2019-08-22T17:56:18Z</time>
			<extensions>
				<gte:gps speed="2.5"/>
			</extensions>
		</trkpt>
		<trkpt lat="36.672221" lon="-105.516361">
			<ele>2431.00</ele>
			<time>2019-08-22T17:56:21Z</time>
			<extensions>
				<gte:gps speed="3.2"/>
			</extensions>
		</trkpt>
		<trkpt lat="36.672253" lon="-105.516338">
			<ele>2429.00</ele>
			<time>2019-08-22T17:56:25Z</time>
			<extensions>
				<gte:gps speed="2.5"/>
			</extensions>
		</trkpt>
		<trkpt lat="36.672297" lon="-105.516317">
			<ele>2430.00</ele>
			<time>2019-08-22T17:56:30Z</time>
			<extensions>
				<gte:gps speed="4.0"/>
			</extensions>
		</trkpt>
		<trkpt lat="36.672329" lon="-105.516295">
			<ele>2428.00</ele>
			<time>2019-08-22T17:56:34Z</time>
			<extensions>
				<gte:gps speed="3.2"/>
			</extensions>
		</trkpt>
		<trkpt lat="36.672378" lon="-105.516302">
			<ele>2432.00</ele>
			<time>2019-08-22T17:56:39Z</time>
			<extensions>
				<gte:gps speed="3.2"/>
			</extensions>
		</trkpt>
		<trkpt lat="36.672416" lon="-105.516315">
			<ele>2434.00</ele>
			<time>2019-08-22T17:56:45Z</time>
			<extensions>
				<gte:gps speed="1.8"/>
			</extensions>
		</trkpt>
		<trkpt lat="36.672462" lon="-105.516301">
			<ele>2435.00</ele>
			<time>2019-08-22T17:56:50Z</time>
			<extensions>
				<gte:gps speed="2.9"/>
			</extensions>
		</trkpt>
		<trkpt lat="36.672508" lon="-105.516304">
			<ele>2432.00</ele>
			<time>2019-08-22T17:56:55Z</time>
			<extensions>
				<gte:gps speed="3.6"/>
			</extensions>
		</trkpt>
		<trkpt lat="36.672548" lon="-105.516285">
			<ele>2432.00</ele>
			<time>2019-08-22T17:56:59Z</time>
			<extensions>
				<gte:gps speed="3.2"/>
			</extensions>
		</trkpt>
		<trkpt lat="36.672589" lon="-105.516271">
			<ele>2436.00</ele>
			<time>2019-08-22T17:57:02Z</time>
			<extensions>
				<gte:gps speed="4.3"/>
			</extensions>
		</trkpt>
		<trkpt lat="36.672631" lon="-105.516255">
			<ele>2437.00</ele>
			<time>2019-08-22T17:57:06Z</time>
			<extensions>
				<gte:gps speed="2.9"/>
			</extensions>
		</trkpt>
		<trkpt lat="36.672668" lon="-105.516261">
			<ele>2436.00</ele>
			<time>2019-08-22T17:57:12Z</time>
			<extensions>
				<gte:gps speed="3.6"/>
			</extensions>
		</trkpt>
		<trkpt lat="36.672716" lon="-105.516244">
			<ele>2436.00</ele>
			<time>2019-08-22T17:57:17Z</time>
			<extensions>
				<gte:gps speed="2.5"/>
			</extensions>
		</trkpt>
		<trkpt lat="36.672760" lon="-105.516230">
			<ele>2434.00</ele>
			<time>2019-08-22T17:57:22Z</time>
			<extensions>
				<gte:gps speed="3.6"/>
			</extensions>
		</trkpt>
		<trkpt lat="36.672797" lon="-105.516207">
			<ele>2433.00</ele>
			<time>2019-08-22T17:57:26Z</time>
			<extensions>
				<gte:gps speed="3.2"/>
			</extensions>
		</trkpt>
		<trkpt lat="36.672833" lon="-105.516197">
			<ele>2434.00</ele>
			<time>2019-08-22T17:57:29Z</time>
			<extensions>
				<gte:gps speed="3.6"/>
			</extensions>
		</trkpt>
		<trkpt lat="36.672864" lon="-105.516167">
			<ele>2432.00</ele>
			<time>2019-08-22T17:57:32Z</time>
			<extensions>
				<gte:gps speed="3.2"/>
			</extensions>
		</trkpt>
		<trkpt lat="36.672891" lon="-105.516136">
			<ele>2429.00</ele>
			<time>2019-08-22T17:57:35Z</time>
			<extensions>
				<gte:gps speed="3.2"/>
			</extensions>
		</trkpt>
		<trkpt lat="36.672929" lon="-105.516119">
			<ele>2428.00</ele>
			<time>2019-08-22T17:57:41Z</time>
			<extensions>
				<gte:gps speed="2.9"/>
			</extensions>
		</trkpt>
		<trkpt lat="36.672963" lon="-105.516099">
			<ele>2428.00</ele>
			<time>2019-08-22T17:57:45Z</time>
			<extensions>
				<gte:gps speed="2.9"/>
			</extensions>
		</trkpt>
		<trkpt lat="36.673005" lon="-105.516080">
			<ele>2425.00</ele>
			<time>2019-08-22T17:57:51Z</time>
			<extensions>
				<gte:gps speed="3.6"/>
			</extensions>
		</trkpt>
		<trkpt lat="36.673042" lon="-105.516101">
			<ele>2423.00</ele>
			<time>2019-08-22T17:57:56Z</time>
			<extensions>
				<gte:gps speed="2.9"/>
			</extensions>
		</trkpt>
		<trkpt lat="36.673076" lon="-105.516124">
			<ele>2422.00</ele>
			<time>2019-08-22T17:58:00Z</time>
			<extensions>
				<gte:gps speed="2.9"/>
			</extensions>
		</trkpt>
		<trkpt lat="36.673116" lon="-105.516146">
			<ele>2421.00</ele>
			<time>2019-08-22T17:58:05Z</time>
			<extensions>
				<gte:gps speed="2.5"/>
			</extensions>
		</trkpt>
		<trkpt lat="36.673148" lon="-105.516184">
			<ele>2419.00</ele>
			<time>2019-08-22T17:58:09Z</time>
			<extensions>
				<gte:gps speed="4.3"/>
			</extensions>
		</trkpt>
		<trkpt lat="36.673180" lon="-105.516222">
			<ele>2416.00</ele>
			<time>2019-08-22T17:58:14Z</time>
			<extensions>
				<gte:gps speed="2.5"/>
			</extensions>
		</trkpt>
		<trkpt lat="36.673217" lon="-105.516233">
			<ele>2415.00</ele>
			<time>2019-08-22T17:58:18Z</time>
			<extensions>
				<gte:gps speed="2.9"/>
			</extensions>
		</trkpt>
		<trkpt lat="36.673258" lon="-105.516251">
			<ele>2417.00</ele>
			<time>2019-08-22T17:58:24Z</time>
			<extensions>
				<gte:gps speed="0.0"/>
			</extensions>
		</trkpt>
		<trkpt lat="36.673298" lon="-105.516259">
			<ele>2416.00</ele>
			<time>2019-08-22T17:58:39Z</time>
			<extensions>
				<gte:gps speed="2.9"/>
			</extensions>
		</trkpt>
		<trkpt lat="36.673338" lon="-105.516265">
			<ele>2416.00</ele>
			<time>2019-08-22T17:58:44Z</time>
			<extensions>
				<gte:gps speed="2.9"/>
			</extensions>
		</trkpt>
		<trkpt lat="36.673385" lon="-105.516278">
			<ele>2417.00</ele>
			<time>2019-08-22T17:58:49Z</time>
			<extensions>
				<gte:gps speed="4.0"/>
			</extensions>
		</trkpt>
		<trkpt lat="36.673422" lon="-105.516316">
			<ele>2418.00</ele>
			<time>2019-08-22T17:58:53Z</time>
			<extensions>
				<gte:gps speed="4.0"/>
			</extensions>
		</trkpt>
		<trkpt lat="36.673459" lon="-105.516315">
			<ele>2420.00</ele>
			<time>2019-08-22T17:58:56Z</time>
			<extensions>
				<gte:gps speed="3.6"/>
			</extensions>
		</trkpt>
		<trkpt lat="36.673494" lon="-105.516330">
			<ele>2424.00</ele>
			<time>2019-08-22T17:59:01Z</time>
			<extensions>
				<gte:gps speed="2.2"/>
			</extensions>
		</trkpt>
		<trkpt lat="36.673532" lon="-105.516341">
			<ele>2422.00</ele>
			<time>2019-08-22T17:59:05Z</time>
			<extensions>
				<gte:gps speed="2.9"/>
			</extensions>
		</trkpt>
		<trkpt lat="36.673575" lon="-105.516351">
			<ele>2423.00</ele>
			<time>2019-08-22T17:59:09Z</time>
			<extensions>
				<gte:gps speed="3.2"/>
			</extensions>
		</trkpt>
		<trkpt lat="36.673615" lon="-105.516370">
			<ele>2422.00</ele>
			<time>2019-08-22T17:59:13Z</time>
			<extensions>
				<gte:gps speed="4.0"/>
			</extensions>
		</trkpt>
		<trkpt lat="36.673654" lon="-105.516370">
			<ele>2419.00</ele>
			<time>2019-08-22T17:59:17Z</time>
			<extensions>
				<gte:gps speed="2.2"/>
			</extensions>
		</trkpt>
		<trkpt lat="36.673693" lon="-105.516363">
			<ele>2420.00</ele>
			<time>2019-08-22T17:59:20Z</time>
			<extensions>
				<gte:gps speed="3.6"/>
			</extensions>
		</trkpt>
		<trkpt lat="36.673732" lon="-105.516368">
			<ele>2422.00</ele>
			<time>2019-08-22T17:59:24Z</time>
			<extensions>
				<gte:gps speed="3.6"/>
			</extensions>
		</trkpt>
		<trkpt lat="36.673776" lon="-105.516371">
			<ele>2419.00</ele>
			<time>2019-08-22T17:59:29Z</time>
			<extensions>
				<gte:gps speed="3.6"/>
			</extensions>
		</trkpt>
		<trkpt lat="36.673813" lon="-105.516342">
			<ele>2413.00</ele>
			<time>2019-08-22T17:59:33Z</time>
			<extensions>
				<gte:gps speed="4.3"/>
			</extensions>
		</trkpt>
		<trkpt lat="36.673854" lon="-105.516356">
			<ele>2414.00</ele>
			<time>2019-08-22T17:59:37Z</time>
			<extensions>
				<gte:gps speed="3.2"/>
			</extensions>
		</trkpt>
		<trkpt lat="36.673895" lon="-105.516359">
			<ele>2416.00</ele>
			<time>2019-08-22T17:59:42Z</time>
			<extensions>
				<gte:gps speed="2.9"/>
			</extensions>
		</trkpt>
		<trkpt lat="36.673937" lon="-105.516354">
			<ele>2414.00</ele>
			<time>2019-08-22T17:59:46Z</time>
			<extensions>
				<gte:gps speed="4.0"/>
			</extensions>
		</trkpt>
		<trkpt lat="36.673973" lon="-105.516338">
			<ele>2413.00</ele>
			<time>2019-08-22T17:59:49Z</time>
			<extensions>
				<gte:gps speed="2.9"/>
			</extensions>
		</trkpt>
		<trkpt lat="36.674019" lon="-105.516337">
			<ele>2413.00</ele>
			<time>2019-08-22T17:59:53Z</time>
			<extensions>
				<gte:gps speed="3.6"/>
			</extensions>
		</trkpt>
		<trkpt lat="36.674054" lon="-105.516320">
			<ele>2412.00</ele>
			<time>2019-08-22T17:59:58Z</time>
			<extensions>
				<gte:gps speed="1.8"/>
			</extensions>
		</trkpt>
		<trkpt lat="36.674094" lon="-105.516324">
			<ele>2415.00</ele>
			<time>2019-08-22T18:00:01Z</time>
			<extensions>
				<gte:gps speed="3.2"/>
			</extensions>
		</trkpt>
		<trkpt lat="36.674130" lon="-105.516327">
			<ele>2419.00</ele>
			<time>2019-08-22T18:00:05Z</time>
			<extensions>
				<gte:gps speed="3.2"/>
			</extensions>
		</trkpt>
		<trkpt lat="36.674174" lon="-105.516309">
			<ele>2417.00</ele>
			<time>2019-08-22T18:00:10Z</time>
			<extensions>
				<gte:gps speed="3.2"/>
			</extensions>
		</trkpt>
		<trkpt lat="36.674222" lon="-105.516285">
			<ele>2417.00</ele>
			<time>2019-08-22T18:00:16Z</time>
			<extensions>
				<gte:gps speed="5.0"/>
			</extensions>
		</trkpt>
		<trkpt lat="36.674260" lon="-105.516285">
			<ele>2416.00</ele>
			<time>2019-08-22T18:00:20Z</time>
			<extensions>
				<gte:gps speed="2.9"/>
			</extensions>
		</trkpt>
		<trkpt lat="36.674306" lon="-105.516298">
			<ele>2416.00</ele>
			<time>2019-08-22T18:00:25Z</time>
			<extensions>
				<gte:gps speed="4.0"/>
			</extensions>
		</trkpt>
		<trkpt lat="36.674345" lon="-105.516285">
			<ele>2412.00</ele>
			<time>2019-08-22T18:00:28Z</time>
			<extensions>
				<gte:gps speed="3.6"/>
			</extensions>
		</trkpt>
		<trkpt lat="36.674389" lon="-105.516261">
			<ele>2411.00</ele>
			<time>2019-08-22T18:00:31Z</time>
			<extensions>
				<gte:gps speed="4.7"/>
			</extensions>
		</trkpt>
		<trkpt lat="36.674431" lon="-105.516274">
			<ele>2410.00</ele>
			<time>2019-08-22T18:00:34Z</time>
			<extensions>
				<gte:gps speed="3.6"/>
			</extensions>
		</trkpt>
		<trkpt lat="36.674467" lon="-105.516280">
			<ele>2412.00</ele>
			<time>2019-08-22T18:00:38Z</time>
			<extensions>
				<gte:gps speed="4.0"/>
			</extensions>
		</trkpt>
		<trkpt lat="36.674510" lon="-105.516274">
			<ele>2408.00</ele>
			<time>2019-08-22T18:00:42Z</time>
			<extensions>
				<gte:gps speed="3.6"/>
			</extensions>
		</trkpt>
		<trkpt lat="36.674553" lon="-105.516290">
			<ele>2411.00</ele>
			<time>2019-08-22T18:00:46Z</time>
			<extensions>
				<gte:gps speed="4.0"/>
			</extensions>
		</trkpt>
		<trkpt lat="36.674594" lon="-105.516299">
			<ele>2412.00</ele>
			<time>2019-08-22T18:00:50Z</time>
			<extensions>
				<gte:gps speed="4.0"/>
			</extensions>
		</trkpt>
		<trkpt lat="36.674637" lon="-105.516291">
			<ele>2413.00</ele>
			<time>2019-08-22T18:00:54Z</time>
			<extensions>
				<gte:gps speed="3.2"/>
			</extensions>
		</trkpt>
		<trkpt lat="36.674674" lon="-105.516274">
			<ele>2411.00</ele>
			<time>2019-08-22T18:00:58Z</time>
			<extensions>
				<gte:gps speed="2.9"/>
			</extensions>
		</trkpt>
		<trkpt lat="36.674709" lon="-105.516251">
			<ele>2409.00</ele>
			<time>2019-08-22T18:01:03Z</time>
			<extensions>
				<gte:gps speed="3.6"/>
			</extensions>
		</trkpt>
		<trkpt lat="36.674750" lon="-105.516232">
			<ele>2408.00</ele>
			<time>2019-08-22T18:01:08Z</time>
			<extensions>
				<gte:gps speed="3.6"/>
			</extensions>
		</trkpt>
		<trkpt lat="36.674792" lon="-105.516238">
			<ele>2408.00</ele>
			<time>2019-08-22T18:01:12Z</time>
			<extensions>
				<gte:gps speed="4.3"/>
			</extensions>
		</trkpt>
		<trkpt lat="36.674835" lon="-105.516251">
			<ele>2405.00</ele>
			<time>2019-08-22T18:01:17Z</time>
			<extensions>
				<gte:gps speed="3.2"/>
			</extensions>
		</trkpt>
		<trkpt lat="36.674870" lon="-105.516266">
			<ele>2405.00</ele>
			<time>2019-08-22T18:01:21Z</time>
			<extensions>
				<gte:gps speed="2.2"/>
			</extensions>
		</trkpt>
		<trkpt lat="36.674907" lon="-105.516230">
			<ele>2399.00</ele>
			<time>2019-08-22T18:01:25Z</time>
			<extensions>
				<gte:gps speed="2.9"/>
			</extensions>
		</trkpt>
		<trkpt lat="36.674947" lon="-105.516222">
			<ele>2399.00</ele>
			<time>2019-08-22T18:01:29Z</time>
			<extensions>
				<gte:gps speed="3.2"/>
			</extensions>
		</trkpt>
		<trkpt lat="36.674986" lon="-105.516213">
			<ele>2399.00</ele>
			<time>2019-08-22T18:01:32Z</time>
			<extensions>
				<gte:gps speed="3.6"/>
			</extensions>
		</trkpt>
		<trkpt lat="36.675029" lon="-105.516203">
			<ele>2399.00</ele>
			<time>2019-08-22T18:01:37Z</time>
			<extensions>
				<gte:gps speed="3.2"/>
			</extensions>
		</trkpt>
		<trkpt lat="36.675064" lon="-105.516187">
			<ele>2404.00</ele>
			<time>2019-08-22T18:01:42Z</time>
			<extensions>
				<gte:gps speed="4.0"/>
			</extensions>
		</trkpt>
		<trkpt lat="36.675106" lon="-105.516155">
			<ele>2402.00</ele>
			<time>2019-08-22T18:01:46Z</time>
			<extensions>
				<gte:gps speed="4.3"/>
			</extensions>
		</trkpt>
		<trkpt lat="36.675142" lon="-105.516120">
			<ele>2399.00</ele>
			<time>2019-08-22T18:01:49Z</time>
			<extensions>
				<gte:gps speed="3.2"/>
			</extensions>
		</trkpt>
		<trkpt lat="36.675182" lon="-105.516096">
			<ele>2399.00</ele>
			<time>2019-08-22T18:01:53Z</time>
			<extensions>
				<gte:gps speed="2.9"/>
			</extensions>
		</trkpt>
		<trkpt lat="36.675211" lon="-105.516062">
			<ele>2394.00</ele>
			<time>2019-08-22T18:01:57Z</time>
			<extensions>
				<gte:gps speed="2.9"/>
			</extensions>
		</trkpt>
		<trkpt lat="36.675244" lon="-105.516041">
			<ele>2392.00</ele>
			<time>2019-08-22T18:02:01Z</time>
			<extensions>
				<gte:gps speed="2.9"/>
			</extensions>
		</trkpt>
		<trkpt lat="36.675273" lon="-105.516013">
			<ele>2393.00</ele>
			<time>2019-08-22T18:02:05Z</time>
			<extensions>
				<gte:gps speed="3.2"/>
			</extensions>
		</trkpt>
		<trkpt lat="36.675311" lon="-105.515985">
			<ele>2393.00</ele>
			<time>2019-08-22T18:02:10Z</time>
			<extensions>
				<gte:gps speed="2.9"/>
			</extensions>
		</trkpt>
		<trkpt lat="36.675349" lon="-105.515977">
			<ele>2396.00</ele>
			<time>2019-08-22T18:02:15Z</time>
			<extensions>
				<gte:gps speed="2.2"/>
			</extensions>
		</trkpt>
		<trkpt lat="36.675385" lon="-105.515955">
			<ele>2397.00</ele>
			<time>2019-08-22T18:02:19Z</time>
			<extensions>
				<gte:gps speed="3.6"/>
			</extensions>
		</trkpt>
		<trkpt lat="36.675422" lon="-105.515936">
			<ele>2397.00</ele>
			<time>2019-08-22T18:02:23Z</time>
			<extensions>
				<gte:gps speed="4.0"/>
			</extensions>
		</trkpt>
		<trkpt lat="36.675465" lon="-105.515937">
			<ele>2398.00</ele>
			<time>2019-08-22T18:02:27Z</time>
			<extensions>
				<gte:gps speed="2.5"/>
			</extensions>
		</trkpt>
		<trkpt lat="36.675498" lon="-105.515958">
			<ele>2398.00</ele>
			<time>2019-08-22T18:02:31Z</time>
			<extensions>
				<gte:gps speed="3.2"/>
			</extensions>
		</trkpt>
		<trkpt lat="36.675533" lon="-105.515937">
			<ele>2399.00</ele>
			<time>2019-08-22T18:02:34Z</time>
			<extensions>
				<gte:gps speed="3.2"/>
			</extensions>
		</trkpt>
		<trkpt lat="36.675564" lon="-105.515905">
			<ele>2399.00</ele>
			<time>2019-08-22T18:02:37Z</time>
			<extensions>
				<gte:gps speed="3.6"/>
			</extensions>
		</trkpt>
		<trkpt lat="36.675598" lon="-105.515867">
			<ele>2397.00</ele>
			<time>2019-08-22T18:02:41Z</time>
			<extensions>
				<gte:gps speed="4.3"/>
			</extensions>
		</trkpt>
		<trkpt lat="36.675628" lon="-105.515838">
			<ele>2398.00</ele>
			<time>2019-08-22T18:02:45Z</time>
			<extensions>
				<gte:gps speed="2.9"/>
			</extensions>
		</trkpt>
		<trkpt lat="36.675667" lon="-105.515840">
			<ele>2401.00</ele>
			<time>2019-08-22T18:02:51Z</time>
			<extensions>
				<gte:gps speed="3.2"/>
			</extensions>
		</trkpt>
		<trkpt lat="36.675704" lon="-105.515824">
			<ele>2402.00</ele>
			<time>2019-08-22T18:02:55Z</time>
			<extensions>
				<gte:gps speed="3.2"/>
			</extensions>
		</trkpt>
		<trkpt lat="36.675741" lon="-105.515797">
			<ele>2399.00</ele>
			<time>2019-08-22T18:02:59Z</time>
			<extensions>
				<gte:gps speed="3.2"/>
			</extensions>
		</trkpt>
		<trkpt lat="36.675773" lon="-105.515758">
			<ele>2396.00</ele>
			<time>2019-08-22T18:03:04Z</time>
			<extensions>
				<gte:gps speed="3.6"/>
			</extensions>
		</trkpt>
		<trkpt lat="36.675807" lon="-105.515737">
			<ele>2396.00</ele>
			<time>2019-08-22T18:03:09Z</time>
			<extensions>
				<gte:gps speed="3.6"/>
			</extensions>
		</trkpt>
		<trkpt lat="36.675834" lon="-105.515703">
			<ele>2394.00</ele>
			<time>2019-08-22T18:03:13Z</time>
			<extensions>
				<gte:gps speed="2.9"/>
			</extensions>
		</trkpt>
		<trkpt lat="36.675868" lon="-105.515673">
			<ele>2393.00</ele>
			<time>2019-08-22T18:03:18Z</time>
			<extensions>
				<gte:gps speed="3.6"/>
			</extensions>
		</trkpt>
		<trkpt lat="36.675904" lon="-105.515654">
			<ele>2389.00</ele>
			<time>2019-08-22T18:03:23Z</time>
			<extensions>
				<gte:gps speed="3.2"/>
			</extensions>
		</trkpt>
		<trkpt lat="36.675944" lon="-105.515635">
			<ele>2386.00</ele>
			<time>2019-08-22T18:03:28Z</time>
			<extensions>
				<gte:gps speed="2.5"/>
			</extensions>
		</trkpt>
		<trkpt lat="36.675980" lon="-105.515607">
			<ele>2387.00</ele>
			<time>2019-08-22T18:03:32Z</time>
			<extensions>
				<gte:gps speed="2.9"/>
			</extensions>
		</trkpt>
		<trkpt lat="36.676019" lon="-105.515576">
			<ele>2384.00</ele>
			<time>2019-08-22T18:03:37Z</time>
			<extensions>
				<gte:gps speed="4.0"/>
			</extensions>
		</trkpt>
		<trkpt lat="36.676058" lon="-105.515561">
			<ele>2383.00</ele>
			<time>2019-08-22T18:03:41Z</time>
			<extensions>
				<gte:gps speed="3.2"/>
			</extensions>
		</trkpt>
		<trkpt lat="36.676097" lon="-105.515556">
			<ele>2384.00</ele>
			<time>2019-08-22T18:03:45Z</time>
			<extensions>
				<gte:gps speed="4.7"/>
			</extensions>
		</trkpt>
		<trkpt lat="36.676134" lon="-105.515554">
			<ele>2384.00</ele>
			<time>2019-08-22T18:03:50Z</time>
			<extensions>
				<gte:gps speed="2.9"/>
			</extensions>
		</trkpt>
		<trkpt lat="36.676168" lon="-105.515532">
			<ele>2385.00</ele>
			<time>2019-08-22T18:04:12Z</time>
			<extensions>
				<gte:gps speed="0.0"/>
			</extensions>
		</trkpt>
		<trkpt lat="36.676202" lon="-105.515549">
			<ele>2386.00</ele>
			<time>2019-08-22T18:04:43Z</time>
			<extensions>
				<gte:gps speed="2.9"/>
			</extensions>
		</trkpt>
		<trkpt lat="36.676238" lon="-105.515574">
			<ele>2388.00</ele>
			<time>2019-08-22T18:05:16Z</time>
			<extensions>
				<gte:gps speed="2.2"/>
			</extensions>
		</trkpt>
		<trkpt lat="36.676257" lon="-105.515613">
			<ele>2388.00</ele>
			<time>2019-08-22T18:05:20Z</time>
			<extensions>
				<gte:gps speed="2.2"/>
			</extensions>
		</trkpt>
		<trkpt lat="36.676283" lon="-105.515648">
			<ele>2394.00</ele>
			<time>2019-08-22T18:05:24Z</time>
			<extensions>
				<gte:gps speed="2.5"/>
			</extensions>
		</trkpt>
		<trkpt lat="36.676321" lon="-105.515671">
			<ele>2395.00</ele>
			<time>2019-08-22T18:05:28Z</time>
			<extensions>
				<gte:gps speed="2.5"/>
			</extensions>
		</trkpt>
		<trkpt lat="36.676359" lon="-105.515705">
			<ele>2399.00</ele>
			<time>2019-08-22T18:05:32Z</time>
			<extensions>
				<gte:gps speed="3.6"/>
			</extensions>
		</trkpt>
		<trkpt lat="36.676398" lon="-105.515714">
			<ele>2397.00</ele>
			<time>2019-08-22T18:05:36Z</time>
			<extensions>
				<gte:gps speed="2.5"/>
			</extensions>
		</trkpt>
		<trkpt lat="36.676437" lon="-105.515725">
			<ele>2398.00</ele>
			<time>2019-08-22T18:05:40Z</time>
			<extensions>
				<gte:gps speed="3.6"/>
			</extensions>
		</trkpt>
		<trkpt lat="36.676473" lon="-105.515708">
			<ele>2394.00</ele>
			<time>2019-08-22T18:05:44Z</time>
			<extensions>
				<gte:gps speed="2.5"/>
			</extensions>
		</trkpt>
		<trkpt lat="36.676511" lon="-105.515694">
			<ele>2392.00</ele>
			<time>2019-08-22T18:05:48Z</time>
			<extensions>
				<gte:gps speed="2.9"/>
			</extensions>
		</trkpt>
		<trkpt lat="36.676549" lon="-105.515681">
			<ele>2391.00</ele>
			<time>2019-08-22T18:05:52Z</time>
			<extensions>
				<gte:gps speed="2.9"/>
			</extensions>
		</trkpt>
		<trkpt lat="36.676589" lon="-105.515680">
			<ele>2390.00</ele>
			<time>2019-08-22T18:05:56Z</time>
			<extensions>
				<gte:gps speed="3.2"/>
			</extensions>
		</trkpt>
		<trkpt lat="36.676628" lon="-105.515694">
			<ele>2392.00</ele>
			<time>2019-08-22T18:06:01Z</time>
			<extensions>
				<gte:gps speed="2.9"/>
			</extensions>
		</trkpt>
		<trkpt lat="36.676668" lon="-105.515695">
			<ele>2393.00</ele>
			<time>2019-08-22T18:06:06Z</time>
			<extensions>
				<gte:gps speed="4.3"/>
			</extensions>
		</trkpt>
		<trkpt lat="36.676702" lon="-105.515716">
			<ele>2397.00</ele>
			<time>2019-08-22T18:06:11Z</time>
			<extensions>
				<gte:gps speed="4.0"/>
			</extensions>
		</trkpt>
		<trkpt lat="36.676731" lon="-105.515744">
			<ele>2398.00</ele>
			<time>2019-08-22T18:06:15Z</time>
			<extensions>
				<gte:gps speed="3.2"/>
			</extensions>
		</trkpt>
		<trkpt lat="36.676762" lon="-105.515769">
			<ele>2396.00</ele>
			<time>2019-08-22T18:06:20Z</time>
			<extensions>
				<gte:gps speed="2.5"/>
			</extensions>
		</trkpt>
		<trkpt lat="36.676794" lon="-105.515794">
			<ele>2400.00</ele>
			<time>2019-08-22T18:06:24Z</time>
			<extensions>
				<gte:gps speed="5.0"/>
			</extensions>
		</trkpt>
		<trkpt lat="36.676825" lon="-105.515817">
			<ele>2401.00</ele>
			<time>2019-08-22T18:06:27Z</time>
			<extensions>
				<gte:gps speed="3.6"/>
			</extensions>
		</trkpt>
		<trkpt lat="36.676861" lon="-105.515833">
			<ele>2402.00</ele>
			<time>2019-08-22T18:06:31Z</time>
			<extensions>
				<gte:gps speed="2.9"/>
			</extensions>
		</trkpt>
		<trkpt lat="36.676897" lon="-105.515859">
			<ele>2404.00</ele>
			<time>2019-08-22T18:06:36Z</time>
			<extensions>
				<gte:gps speed="3.6"/>
			</extensions>
		</trkpt>
		<trkpt lat="36.676928" lon="-105.515881">
			<ele>2404.00</ele>
			<time>2019-08-22T18:06:40Z</time>
			<extensions>
				<gte:gps speed="2.9"/>
			</extensions>
		</trkpt>
		<trkpt lat="36.676966" lon="-105.515895">
			<ele>2404.00</ele>
			<time>2019-08-22T18:06:45Z</time>
			<extensions>
				<gte:gps speed="3.2"/>
			</extensions>
		</trkpt>
		<trkpt lat="36.677008" lon="-105.515900">
			<ele>2401.00</ele>
			<time>2019-08-22T18:06:49Z</time>
			<extensions>
				<gte:gps speed="3.2"/>
			</extensions>
		</trkpt>
		<trkpt lat="36.677053" lon="-105.515890">
			<ele>2402.00</ele>
			<time>2019-08-22T18:06:53Z</time>
			<extensions>
				<gte:gps speed="3.6"/>
			</extensions>
		</trkpt>
		<trkpt lat="36.677091" lon="-105.515873">
			<ele>2403.00</ele>
			<time>2019-08-22T18:06:57Z</time>
			<extensions>
				<gte:gps speed="3.2"/>
			</extensions>
		</trkpt>
		<trkpt lat="36.677126" lon="-105.515853">
			<ele>2400.00</ele>
			<time>2019-08-22T18:07:00Z</time>
			<extensions>
				<gte:gps speed="4.3"/>
			</extensions>
		</trkpt>
		<trkpt lat="36.677162" lon="-105.515835">
			<ele>2399.00</ele>
			<time>2019-08-22T18:07:03Z</time>
			<extensions>
				<gte:gps speed="4.7"/>
			</extensions>
		</trkpt>
		<trkpt lat="36.677202" lon="-105.515807">
			<ele>2398.00</ele>
			<time>2019-08-22T18:07:07Z</time>
			<extensions>
				<gte:gps speed="2.2"/>
			</extensions>
		</trkpt>
		<trkpt lat="36.677240" lon="-105.515794">
			<ele>2400.00</ele>
			<time>2019-08-22T18:07:11Z</time>
			<extensions>
				<gte:gps speed="2.5"/>
			</extensions>
		</trkpt>
		<trkpt lat="36.677276" lon="-105.515779">
			<ele>2399.00</ele>
			<time>2019-08-22T18:07:15Z</time>
			<extensions>
				<gte:gps speed="2.9"/>
			</extensions>
		</trkpt>
		<trkpt lat="36.677317" lon="-105.515781">
			<ele>2397.00</ele>
			<time>2019-08-22T18:07:20Z</time>
			<extensions>
				<gte:gps speed="2.9"/>
			</extensions>
		</trkpt>
		<trkpt lat="36.677354" lon="-105.515768">
			<ele>2396.00</ele>
			<time>2019-08-22T18:07:25Z</time>
			<extensions>
				<gte:gps speed="1.8"/>
			</extensions>
		</trkpt>
		<trkpt lat="36.677391" lon="-105.515782">
			<ele>2393.00</ele>
			<time>2019-08-22T18:07:32Z</time>
			<extensions>
				<gte:gps speed="3.6"/>
			</extensions>
		</trkpt>
		<trkpt lat="36.677410" lon="-105.515820">
			<ele>2393.00</ele>
			<time>2019-08-22T18:07:36Z</time>
			<extensions>
				<gte:gps speed="3.2"/>
			</extensions>
		</trkpt>
		<trkpt lat="36.677446" lon="-105.515850">
			<ele>2390.00</ele>
			<time>2019-08-22T18:07:43Z</time>
			<extensions>
				<gte:gps speed="3.6"/>
			</extensions>
		</trkpt>
		<trkpt lat="36.677479" lon="-105.515880">
			<ele>2390.00</ele>
			<time>2019-08-22T18:07:48Z</time>
			<extensions>
				<gte:gps speed="3.2"/>
			</extensions>
		</trkpt>
		<trkpt lat="36.677523" lon="-105.515872">
			<ele>2390.00</ele>
			<time>2019-08-22T18:07:52Z</time>
			<extensions>
				<gte:gps speed="3.2"/>
			</extensions>
		</trkpt>
		<trkpt lat="36.677561" lon="-105.515868">
			<ele>2388.00</ele>
			<time>2019-08-22T18:07:58Z</time>
			<extensions>
				<gte:gps speed="2.9"/>
			</extensions>
		</trkpt>
		<trkpt lat="36.677598" lon="-105.515891">
			<ele>2387.00</ele>
			<time>2019-08-22T18:08:02Z</time>
			<extensions>
				<gte:gps speed="2.9"/>
			</extensions>
		</trkpt>
		<trkpt lat="36.677630" lon="-105.515918">
			<ele>2389.00</ele>
			<time>2019-08-22T18:08:06Z</time>
			<extensions>
				<gte:gps speed="2.9"/>
			</extensions>
		</trkpt>
		<trkpt lat="36.677667" lon="-105.515929">
			<ele>2388.00</ele>
			<time>2019-08-22T18:08:11Z</time>
			<extensions>
				<gte:gps speed="3.2"/>
			</extensions>
		</trkpt>
		<trkpt lat="36.677705" lon="-105.515914">
			<ele>2391.00</ele>
			<time>2019-08-22T18:08:15Z</time>
			<extensions>
				<gte:gps speed="2.9"/>
			</extensions>
		</trkpt>
		<trkpt lat="36.677744" lon="-105.515930">
			<ele>2388.00</ele>
			<time>2019-08-22T18:08:23Z</time>
			<extensions>
				<gte:gps speed="4.0"/>
			</extensions>
		</trkpt>
		<trkpt lat="36.677781" lon="-105.515957">
			<ele>2386.00</ele>
			<time>2019-08-22T18:08:28Z</time>
			<extensions>
				<gte:gps speed="4.0"/>
			</extensions>
		</trkpt>
		<trkpt lat="36.677818" lon="-105.515981">
			<ele>2390.00</ele>
			<time>2019-08-22T18:08:40Z</time>
			<extensions>
				<gte:gps speed="3.6"/>
			</extensions>
		</trkpt>
		<trkpt lat="36.677858" lon="-105.515998">
			<ele>2393.00</ele>
			<time>2019-08-22T18:08:44Z</time>
			<extensions>
				<gte:gps speed="3.2"/>
			</extensions>
		</trkpt>
		<trkpt lat="36.677897" lon="-105.516020">
			<ele>2391.00</ele>
			<time>2019-08-22T18:08:48Z</time>
			<extensions>
				<gte:gps speed="2.9"/>
			</extensions>
		</trkpt>
		<trkpt lat="36.677939" lon="-105.516019">
			<ele>2392.00</ele>
			<time>2019-08-22T18:08:52Z</time>
			<extensions>
				<gte:gps speed="3.2"/>
			</extensions>
		</trkpt>
		<trkpt lat="36.677981" lon="-105.516029">
			<ele>2392.00</ele>
			<time>2019-08-22T18:08:56Z</time>
			<extensions>
				<gte:gps speed="3.6"/>
			</extensions>
		</trkpt>
		<trkpt lat="36.678017" lon="-105.516035">
			<ele>2391.00</ele>
			<time>2019-08-22T18:09:00Z</time>
			<extensions>
				<gte:gps speed="3.2"/>
			</extensions>
		</trkpt>
		<trkpt lat="36.678060" lon="-105.516032">
			<ele>2392.00</ele>
			<time>2019-08-22T18:09:04Z</time>
			<extensions>
				<gte:gps speed="2.5"/>
			</extensions>
		</trkpt>
		<trkpt lat="36.678099" lon="-105.516030">
			<ele>2392.00</ele>
			<time>2019-08-22T18:09:08Z</time>
			<extensions>
				<gte:gps speed="3.2"/>
			</extensions>
		</trkpt>
		<trkpt lat="36.678133" lon="-105.516011">
			<ele>2390.00</ele>
			<time>2019-08-22T18:09:11Z</time>
			<extensions>
				<gte:gps speed="3.2"/>
			</extensions>
		</trkpt>
		<trkpt lat="36.678172" lon="-105.515990">
			<ele>2390.00</ele>
			<time>2019-08-22T18:09:15Z</time>
			<extensions>
				<gte:gps speed="3.2"/>
			</extensions>
		</trkpt>
		<trkpt lat="36.678215" lon="-105.515992">
			<ele>2388.00</ele>
			<time>2019-08-22T18:09:19Z</time>
			<extensions>
				<gte:gps speed="3.6"/>
			</extensions>
		</trkpt>
		<trkpt lat="36.678251" lon="-105.515979">
			<ele>2385.00</ele>
			<time>2019-08-22T18:09:22Z</time>
			<extensions>
				<gte:gps speed="3.6"/>
			</extensions>
		</trkpt>
		<trkpt lat="36.678294" lon="-105.515955">
			<ele>2384.00</ele>
			<time>2019-08-22T18:09:26Z</time>
			<extensions>
				<gte:gps speed="3.6"/>
			</extensions>
		</trkpt>
		<trkpt lat="36.678329" lon="-105.515923">
			<ele>2379.00</ele>
			<time>2019-08-22T18:09:31Z</time>
			<extensions>
				<gte:gps speed="2.2"/>
			</extensions>
		</trkpt>
		<trkpt lat="36.678356" lon="-105.515888">
			<ele>2379.00</ele>
			<time>2019-08-22T18:09:36Z</time>
			<extensions>
				<gte:gps speed="1.8"/>
			</extensions>
		</trkpt>
		<trkpt lat="36.678382" lon="-105.515855">
			<ele>2381.00</ele>
			<time>2019-08-22T18:09:41Z</time>
			<extensions>
				<gte:gps speed="2.5"/>
			</extensions>
		</trkpt>
		<trkpt lat="36.678386" lon="-105.515833">
			<ele>2383.00</ele>
			<time>2019-08-22T18:10:35Z</time>
			<extensions>
				<gte:gps speed="0.0"/>
			</extensions>
		</trkpt>
		<extensions>
			<gte:name>#1</gte:name>
			<gte:color>#fbaf00</gte:color>
		</extensions>
	</trkseg>
</trk>
</gpx>